<?xml version="1.0" encoding="UTF-8" standalone="no" ?>
<gpx xmlns="http://www.topografix.com/GPX/1/1" xmlns:xsi="http://www.w3.org/2001/XMLSchema-instance" xsi:schemaLocation="http://www.topografix.com/GPX/1/1 http://www.topografix.com/GPX/1/1/gpx.xsd" version="1.1" creator="VisuGPX - https://www.visugpx.com">
  <metadata>
    <name>Lac de Madamète</name>
    <desc><![CDATA[En raquettes, de la station de ski de Barèges vers la cabane d\\\'Aygues Cluses puis les lacs de Madamète]]></desc>
  </metadata>
  <trk>
    <name><![CDATA[Lac de Madamète: 17 MARS 2015 09:39]]></name>
    <trkseg>
      <trkpt lat="42.90305" lon="0.10102">
        <ele>1517.58</ele>
        <time>2015-03-17T08:39:52Z</time>
      </trkpt>
      <trkpt lat="42.90306" lon="0.10103">
        <ele>1517.58</ele>
        <time>2015-03-17T08:39:53Z</time>
      </trkpt>
      <trkpt lat="42.90305" lon="0.10105">
        <ele>1477.68</ele>
        <time>2015-03-17T08:39:56Z</time>
      </trkpt>
      <trkpt lat="42.90305" lon="0.10105">
        <ele>1477.68</ele>
        <time>2015-03-17T08:39:57Z</time>
      </trkpt>
      <trkpt lat="42.90307" lon="0.10104">
        <ele>1477.2</ele>
        <time>2015-03-17T08:40:08Z</time>
      </trkpt>
      <trkpt lat="42.9031" lon="0.101">
        <ele>1477.68</ele>
        <time>2015-03-17T08:40:20Z</time>
      </trkpt>
      <trkpt lat="42.9031" lon="0.10099">
        <ele>1477.2</ele>
        <time>2015-03-17T08:40:37Z</time>
      </trkpt>
      <trkpt lat="42.90308" lon="0.10103">
        <ele>1477.68</ele>
        <time>2015-03-17T08:40:51Z</time>
      </trkpt>
      <trkpt lat="42.90305" lon="0.10105">
        <ele>1477.2</ele>
        <time>2015-03-17T08:41:11Z</time>
      </trkpt>
      <trkpt lat="42.90302" lon="0.10108">
        <ele>1477.2</ele>
        <time>2015-03-17T08:41:26Z</time>
      </trkpt>
      <trkpt lat="42.90301" lon="0.1011">
        <ele>1477.2</ele>
        <time>2015-03-17T08:41:28Z</time>
      </trkpt>
      <trkpt lat="42.9029" lon="0.10118">
        <ele>1478.65</ele>
        <time>2015-03-17T08:41:42Z</time>
      </trkpt>
      <trkpt lat="42.90288" lon="0.10124">
        <ele>1479.13</ele>
        <time>2015-03-17T08:41:47Z</time>
      </trkpt>
      <trkpt lat="42.90274" lon="0.10136">
        <ele>1480.09</ele>
        <time>2015-03-17T08:42:03Z</time>
      </trkpt>
      <trkpt lat="42.90266" lon="0.1014">
        <ele>1482.97</ele>
        <time>2015-03-17T08:42:16Z</time>
      </trkpt>
      <trkpt lat="42.90255" lon="0.10146">
        <ele>1486.34</ele>
        <time>2015-03-17T08:42:29Z</time>
      </trkpt>
      <trkpt lat="42.90249" lon="0.10148">
        <ele>1489.7</ele>
        <time>2015-03-17T08:42:39Z</time>
      </trkpt>
      <trkpt lat="42.90244" lon="0.1015">
        <ele>1492.1</ele>
        <time>2015-03-17T08:42:54Z</time>
      </trkpt>
      <trkpt lat="42.90236" lon="0.10152">
        <ele>1492.58</ele>
        <time>2015-03-17T08:43:09Z</time>
      </trkpt>
      <trkpt lat="42.90231" lon="0.10162">
        <ele>1493.55</ele>
        <time>2015-03-17T08:43:20Z</time>
      </trkpt>
      <trkpt lat="42.90226" lon="0.10176">
        <ele>1494.99</ele>
        <time>2015-03-17T08:43:35Z</time>
      </trkpt>
      <trkpt lat="42.9022" lon="0.10184">
        <ele>1495.47</ele>
        <time>2015-03-17T08:43:44Z</time>
      </trkpt>
      <trkpt lat="42.90212" lon="0.10197">
        <ele>1496.43</ele>
        <time>2015-03-17T08:43:59Z</time>
      </trkpt>
      <trkpt lat="42.9021" lon="0.10199">
        <ele>1496.91</ele>
        <time>2015-03-17T08:44:03Z</time>
      </trkpt>
      <trkpt lat="42.90202" lon="0.10208">
        <ele>1497.87</ele>
        <time>2015-03-17T08:44:16Z</time>
      </trkpt>
      <trkpt lat="42.90191" lon="0.10223">
        <ele>1499.31</ele>
        <time>2015-03-17T08:44:31Z</time>
      </trkpt>
      <trkpt lat="42.90183" lon="0.10234">
        <ele>1500.27</ele>
        <time>2015-03-17T08:44:44Z</time>
      </trkpt>
      <trkpt lat="42.90177" lon="0.10244">
        <ele>1501.24</ele>
        <time>2015-03-17T08:44:55Z</time>
      </trkpt>
      <trkpt lat="42.90173" lon="0.10248">
        <ele>1501.72</ele>
        <time>2015-03-17T08:45:02Z</time>
      </trkpt>
      <trkpt lat="42.90173" lon="0.10249">
        <ele>1501.72</ele>
        <time>2015-03-17T08:45:04Z</time>
      </trkpt>
      <trkpt lat="42.90167" lon="0.10252">
        <ele>1501.72</ele>
        <time>2015-03-17T08:45:09Z</time>
      </trkpt>
      <trkpt lat="42.90155" lon="0.10264">
        <ele>1503.16</ele>
        <time>2015-03-17T08:45:23Z</time>
      </trkpt>
      <trkpt lat="42.90147" lon="0.10279">
        <ele>1504.6</ele>
        <time>2015-03-17T08:45:37Z</time>
      </trkpt>
      <trkpt lat="42.9014" lon="0.10292">
        <ele>1505.56</ele>
        <time>2015-03-17T08:45:49Z</time>
      </trkpt>
      <trkpt lat="42.90126" lon="0.10301">
        <ele>1507</ele>
        <time>2015-03-17T08:46:04Z</time>
      </trkpt>
      <trkpt lat="42.90113" lon="0.10306">
        <ele>1508.45</ele>
        <time>2015-03-17T08:46:17Z</time>
      </trkpt>
      <trkpt lat="42.90099" lon="0.10309">
        <ele>1509.41</ele>
        <time>2015-03-17T08:46:32Z</time>
      </trkpt>
      <trkpt lat="42.90092" lon="0.10311">
        <ele>1509.89</ele>
        <time>2015-03-17T08:46:39Z</time>
      </trkpt>
      <trkpt lat="42.90091" lon="0.10312">
        <ele>1510.37</ele>
        <time>2015-03-17T08:46:41Z</time>
      </trkpt>
      <trkpt lat="42.90087" lon="0.10312">
        <ele>1510.85</ele>
        <time>2015-03-17T08:46:45Z</time>
      </trkpt>
      <trkpt lat="42.90081" lon="0.10314">
        <ele>1510.85</ele>
        <time>2015-03-17T08:46:50Z</time>
      </trkpt>
      <trkpt lat="42.90077" lon="0.10314">
        <ele>1511.33</ele>
        <time>2015-03-17T08:46:55Z</time>
      </trkpt>
      <trkpt lat="42.90075" lon="0.10314">
        <ele>1511.81</ele>
        <time>2015-03-17T08:46:57Z</time>
      </trkpt>
      <trkpt lat="42.90074" lon="0.10316">
        <ele>1511.81</ele>
        <time>2015-03-17T08:46:59Z</time>
      </trkpt>
      <trkpt lat="42.90056" lon="0.10322">
        <ele>1513.73</ele>
        <time>2015-03-17T08:47:17Z</time>
      </trkpt>
      <trkpt lat="42.9004" lon="0.1033">
        <ele>1515.18</ele>
        <time>2015-03-17T08:47:34Z</time>
      </trkpt>
      <trkpt lat="42.9003" lon="0.10334">
        <ele>1516.14</ele>
        <time>2015-03-17T08:47:45Z</time>
      </trkpt>
      <trkpt lat="42.90026" lon="0.10336">
        <ele>1516.62</ele>
        <time>2015-03-17T08:47:50Z</time>
      </trkpt>
      <trkpt lat="42.90012" lon="0.10339">
        <ele>1517.58</ele>
        <time>2015-03-17T08:48:04Z</time>
      </trkpt>
      <trkpt lat="42.89995" lon="0.10343">
        <ele>1518.54</ele>
        <time>2015-03-17T08:48:19Z</time>
      </trkpt>
      <trkpt lat="42.89979" lon="0.10352">
        <ele>1520.46</ele>
        <time>2015-03-17T08:48:37Z</time>
      </trkpt>
      <trkpt lat="42.89962" lon="0.10358">
        <ele>1521.9</ele>
        <time>2015-03-17T08:48:54Z</time>
      </trkpt>
      <trkpt lat="42.89946" lon="0.10362">
        <ele>1523.83</ele>
        <time>2015-03-17T08:49:11Z</time>
      </trkpt>
      <trkpt lat="42.8993" lon="0.10366">
        <ele>1524.79</ele>
        <time>2015-03-17T08:49:27Z</time>
      </trkpt>
      <trkpt lat="42.89915" lon="0.10374">
        <ele>1525.75</ele>
        <time>2015-03-17T08:49:42Z</time>
      </trkpt>
      <trkpt lat="42.89902" lon="0.10382">
        <ele>1527.19</ele>
        <time>2015-03-17T08:49:56Z</time>
      </trkpt>
      <trkpt lat="42.89887" lon="0.10391">
        <ele>1528.15</ele>
        <time>2015-03-17T08:50:11Z</time>
      </trkpt>
      <trkpt lat="42.8988" lon="0.10398">
        <ele>1529.11</ele>
        <time>2015-03-17T08:50:25Z</time>
      </trkpt>
      <trkpt lat="42.89879" lon="0.104">
        <ele>1529.59</ele>
        <time>2015-03-17T08:50:27Z</time>
      </trkpt>
      <trkpt lat="42.89869" lon="0.10404">
        <ele>1530.08</ele>
        <time>2015-03-17T08:50:39Z</time>
      </trkpt>
      <trkpt lat="42.89867" lon="0.10404">
        <ele>1530.56</ele>
        <time>2015-03-17T08:50:41Z</time>
      </trkpt>
      <trkpt lat="42.89855" lon="0.10408">
        <ele>1531.52</ele>
        <time>2015-03-17T08:50:52Z</time>
      </trkpt>
      <trkpt lat="42.89836" lon="0.10419">
        <ele>1532.96</ele>
        <time>2015-03-17T08:51:10Z</time>
      </trkpt>
      <trkpt lat="42.89821" lon="0.10429">
        <ele>1534.88</ele>
        <time>2015-03-17T08:51:26Z</time>
      </trkpt>
      <trkpt lat="42.89805" lon="0.10437">
        <ele>1536.32</ele>
        <time>2015-03-17T08:51:42Z</time>
      </trkpt>
      <trkpt lat="42.89794" lon="0.10442">
        <ele>1538.73</ele>
        <time>2015-03-17T08:51:55Z</time>
      </trkpt>
      <trkpt lat="42.89777" lon="0.10449">
        <ele>1539.69</ele>
        <time>2015-03-17T08:52:12Z</time>
      </trkpt>
      <trkpt lat="42.89775" lon="0.10449">
        <ele>1540.17</ele>
        <time>2015-03-17T08:52:14Z</time>
      </trkpt>
      <trkpt lat="42.89762" lon="0.10458">
        <ele>1539.69</ele>
        <time>2015-03-17T08:52:27Z</time>
      </trkpt>
      <trkpt lat="42.89758" lon="0.10459">
        <ele>1540.65</ele>
        <time>2015-03-17T08:52:31Z</time>
      </trkpt>
      <trkpt lat="42.89755" lon="0.10459">
        <ele>1540.65</ele>
        <time>2015-03-17T08:52:34Z</time>
      </trkpt>
      <trkpt lat="42.89753" lon="0.10459">
        <ele>1541.13</ele>
        <time>2015-03-17T08:52:36Z</time>
      </trkpt>
      <trkpt lat="42.89748" lon="0.1046">
        <ele>1541.61</ele>
        <time>2015-03-17T08:52:41Z</time>
      </trkpt>
      <trkpt lat="42.89734" lon="0.1046">
        <ele>1542.57</ele>
        <time>2015-03-17T08:52:53Z</time>
      </trkpt>
      <trkpt lat="42.89723" lon="0.10463">
        <ele>1543.53</ele>
        <time>2015-03-17T08:53:06Z</time>
      </trkpt>
      <trkpt lat="42.89711" lon="0.10465">
        <ele>1544.98</ele>
        <time>2015-03-17T08:53:19Z</time>
      </trkpt>
      <trkpt lat="42.89695" lon="0.10473">
        <ele>1545.94</ele>
        <time>2015-03-17T08:53:34Z</time>
      </trkpt>
      <trkpt lat="42.89683" lon="0.10475">
        <ele>1547.38</ele>
        <time>2015-03-17T08:53:45Z</time>
      </trkpt>
      <trkpt lat="42.89671" lon="0.10479">
        <ele>1548.34</ele>
        <time>2015-03-17T08:53:57Z</time>
      </trkpt>
      <trkpt lat="42.89667" lon="0.1048">
        <ele>1548.82</ele>
        <time>2015-03-17T08:54:01Z</time>
      </trkpt>
      <trkpt lat="42.89654" lon="0.10485">
        <ele>1549.78</ele>
        <time>2015-03-17T08:54:14Z</time>
      </trkpt>
      <trkpt lat="42.8965" lon="0.10484">
        <ele>1549.78</ele>
        <time>2015-03-17T08:54:17Z</time>
      </trkpt>
      <trkpt lat="42.89644" lon="0.10484">
        <ele>1550.74</ele>
        <time>2015-03-17T08:54:22Z</time>
      </trkpt>
      <trkpt lat="42.89637" lon="0.10483">
        <ele>1551.22</ele>
        <time>2015-03-17T08:54:27Z</time>
      </trkpt>
      <trkpt lat="42.8963" lon="0.10482">
        <ele>1551.71</ele>
        <time>2015-03-17T08:54:32Z</time>
      </trkpt>
      <trkpt lat="42.89627" lon="0.10483">
        <ele>1551.71</ele>
        <time>2015-03-17T08:54:35Z</time>
      </trkpt>
      <trkpt lat="42.89622" lon="0.10481">
        <ele>1552.19</ele>
        <time>2015-03-17T08:54:39Z</time>
      </trkpt>
      <trkpt lat="42.89618" lon="0.10479">
        <ele>1552.67</ele>
        <time>2015-03-17T08:54:43Z</time>
      </trkpt>
      <trkpt lat="42.89606" lon="0.10473">
        <ele>1553.15</ele>
        <time>2015-03-17T08:54:55Z</time>
      </trkpt>
      <trkpt lat="42.89597" lon="0.10468">
        <ele>1555.07</ele>
        <time>2015-03-17T08:55:04Z</time>
      </trkpt>
      <trkpt lat="42.89583" lon="0.10467">
        <ele>1556.03</ele>
        <time>2015-03-17T08:55:18Z</time>
      </trkpt>
      <trkpt lat="42.8957" lon="0.10459">
        <ele>1556.99</ele>
        <time>2015-03-17T08:55:33Z</time>
      </trkpt>
      <trkpt lat="42.89562" lon="0.10455">
        <ele>1557.95</ele>
        <time>2015-03-17T08:55:45Z</time>
      </trkpt>
      <trkpt lat="42.89549" lon="0.10458">
        <ele>1558.92</ele>
        <time>2015-03-17T08:55:57Z</time>
      </trkpt>
      <trkpt lat="42.89545" lon="0.10475">
        <ele>1558.43</ele>
        <time>2015-03-17T08:56:12Z</time>
      </trkpt>
      <trkpt lat="42.89541" lon="0.10489">
        <ele>1558.92</ele>
        <time>2015-03-17T08:56:21Z</time>
      </trkpt>
      <trkpt lat="42.89531" lon="0.1051">
        <ele>1560.84</ele>
        <time>2015-03-17T08:56:35Z</time>
      </trkpt>
      <trkpt lat="42.89524" lon="0.10519">
        <ele>1561.32</ele>
        <time>2015-03-17T08:56:43Z</time>
      </trkpt>
      <trkpt lat="42.8952" lon="0.10519">
        <ele>1561.32</ele>
        <time>2015-03-17T08:56:46Z</time>
      </trkpt>
      <trkpt lat="42.8951" lon="0.10533">
        <ele>1564.2</ele>
        <time>2015-03-17T08:56:59Z</time>
      </trkpt>
      <trkpt lat="42.89498" lon="0.1054">
        <ele>1566.12</ele>
        <time>2015-03-17T08:57:10Z</time>
      </trkpt>
      <trkpt lat="42.8949" lon="0.10543">
        <ele>1568.05</ele>
        <time>2015-03-17T08:57:20Z</time>
      </trkpt>
      <trkpt lat="42.89488" lon="0.10546">
        <ele>1568.53</ele>
        <time>2015-03-17T08:57:23Z</time>
      </trkpt>
      <trkpt lat="42.8948" lon="0.10562">
        <ele>1571.89</ele>
        <time>2015-03-17T08:57:39Z</time>
      </trkpt>
      <trkpt lat="42.8947" lon="0.10569">
        <ele>1572.85</ele>
        <time>2015-03-17T08:57:52Z</time>
      </trkpt>
      <trkpt lat="42.89466" lon="0.10574">
        <ele>1573.33</ele>
        <time>2015-03-17T08:57:58Z</time>
      </trkpt>
      <trkpt lat="42.89456" lon="0.10582">
        <ele>1576.22</ele>
        <time>2015-03-17T08:58:12Z</time>
      </trkpt>
      <trkpt lat="42.89447" lon="0.1059">
        <ele>1578.62</ele>
        <time>2015-03-17T08:58:27Z</time>
      </trkpt>
      <trkpt lat="42.8944" lon="0.10601">
        <ele>1581.03</ele>
        <time>2015-03-17T08:58:42Z</time>
      </trkpt>
      <trkpt lat="42.89432" lon="0.10617">
        <ele>1584.39</ele>
        <time>2015-03-17T08:58:58Z</time>
      </trkpt>
      <trkpt lat="42.89425" lon="0.10629">
        <ele>1586.79</ele>
        <time>2015-03-17T08:59:12Z</time>
      </trkpt>
      <trkpt lat="42.89416" lon="0.10638">
        <ele>1589.68</ele>
        <time>2015-03-17T08:59:26Z</time>
      </trkpt>
      <trkpt lat="42.89409" lon="0.10652">
        <ele>1593.04</ele>
        <time>2015-03-17T08:59:43Z</time>
      </trkpt>
      <trkpt lat="42.89403" lon="0.10663">
        <ele>1594.96</ele>
        <time>2015-03-17T08:59:56Z</time>
      </trkpt>
      <trkpt lat="42.89395" lon="0.1067">
        <ele>1597.85</ele>
        <time>2015-03-17T09:00:10Z</time>
      </trkpt>
      <trkpt lat="42.89392" lon="0.10675">
        <ele>1599.29</ele>
        <time>2015-03-17T09:00:16Z</time>
      </trkpt>
      <trkpt lat="42.89381" lon="0.10671">
        <ele>1601.69</ele>
        <time>2015-03-17T09:00:30Z</time>
      </trkpt>
      <trkpt lat="42.89369" lon="0.10666">
        <ele>1603.62</ele>
        <time>2015-03-17T09:00:45Z</time>
      </trkpt>
      <trkpt lat="42.89365" lon="0.10666">
        <ele>1604.1</ele>
        <time>2015-03-17T09:00:49Z</time>
      </trkpt>
      <trkpt lat="42.89363" lon="0.10667">
        <ele>1605.06</ele>
        <time>2015-03-17T09:00:52Z</time>
      </trkpt>
      <trkpt lat="42.89352" lon="0.10664">
        <ele>1606.98</ele>
        <time>2015-03-17T09:01:06Z</time>
      </trkpt>
      <trkpt lat="42.89343" lon="0.10661">
        <ele>1608.9</ele>
        <time>2015-03-17T09:01:18Z</time>
      </trkpt>
      <trkpt lat="42.89341" lon="0.10661">
        <ele>1609.86</ele>
        <time>2015-03-17T09:01:21Z</time>
      </trkpt>
      <trkpt lat="42.89334" lon="0.10662">
        <ele>1610.83</ele>
        <time>2015-03-17T09:01:29Z</time>
      </trkpt>
      <trkpt lat="42.89331" lon="0.10662">
        <ele>1611.31</ele>
        <time>2015-03-17T09:01:32Z</time>
      </trkpt>
      <trkpt lat="42.89322" lon="0.10659">
        <ele>1612.75</ele>
        <time>2015-03-17T09:01:42Z</time>
      </trkpt>
      <trkpt lat="42.89312" lon="0.10655">
        <ele>1613.71</ele>
        <time>2015-03-17T09:01:56Z</time>
      </trkpt>
      <trkpt lat="42.89301" lon="0.10654">
        <ele>1615.15</ele>
        <time>2015-03-17T09:02:09Z</time>
      </trkpt>
      <trkpt lat="42.89289" lon="0.10653">
        <ele>1617.56</ele>
        <time>2015-03-17T09:02:22Z</time>
      </trkpt>
      <trkpt lat="42.89285" lon="0.10653">
        <ele>1618.04</ele>
        <time>2015-03-17T09:02:26Z</time>
      </trkpt>
      <trkpt lat="42.89276" lon="0.10652">
        <ele>1619.48</ele>
        <time>2015-03-17T09:02:36Z</time>
      </trkpt>
      <trkpt lat="42.89272" lon="0.10652">
        <ele>1620.44</ele>
        <time>2015-03-17T09:02:40Z</time>
      </trkpt>
      <trkpt lat="42.89259" lon="0.1065">
        <ele>1622.36</ele>
        <time>2015-03-17T09:02:56Z</time>
      </trkpt>
      <trkpt lat="42.89248" lon="0.10648">
        <ele>1623.32</ele>
        <time>2015-03-17T09:03:07Z</time>
      </trkpt>
      <trkpt lat="42.89241" lon="0.10647">
        <ele>1624.28</ele>
        <time>2015-03-17T09:03:14Z</time>
      </trkpt>
      <trkpt lat="42.8924" lon="0.10648">
        <ele>1624.77</ele>
        <time>2015-03-17T09:03:17Z</time>
      </trkpt>
      <trkpt lat="42.89229" lon="0.10651">
        <ele>1626.21</ele>
        <time>2015-03-17T09:03:30Z</time>
      </trkpt>
      <trkpt lat="42.89219" lon="0.10653">
        <ele>1627.65</ele>
        <time>2015-03-17T09:03:41Z</time>
      </trkpt>
      <trkpt lat="42.8921" lon="0.10652">
        <ele>1630.05</ele>
        <time>2015-03-17T09:03:52Z</time>
      </trkpt>
      <trkpt lat="42.89198" lon="0.10651">
        <ele>1631.98</ele>
        <time>2015-03-17T09:04:06Z</time>
      </trkpt>
      <trkpt lat="42.89189" lon="0.1065">
        <ele>1634.38</ele>
        <time>2015-03-17T09:04:19Z</time>
      </trkpt>
      <trkpt lat="42.8918" lon="0.10651">
        <ele>1635.34</ele>
        <time>2015-03-17T09:04:33Z</time>
      </trkpt>
      <trkpt lat="42.89184" lon="0.1065">
        <ele>1635.34</ele>
        <time>2015-03-17T09:04:46Z</time>
      </trkpt>
      <trkpt lat="42.89183" lon="0.1065">
        <ele>1634.86</ele>
        <time>2015-03-17T09:04:57Z</time>
      </trkpt>
      <trkpt lat="42.89185" lon="0.10646">
        <ele>1634.86</ele>
        <time>2015-03-17T09:05:24Z</time>
      </trkpt>
      <trkpt lat="42.89184" lon="0.10651">
        <ele>1635.82</ele>
        <time>2015-03-17T09:05:47Z</time>
      </trkpt>
      <trkpt lat="42.89183" lon="0.10652">
        <ele>1635.82</ele>
        <time>2015-03-17T09:06:03Z</time>
      </trkpt>
      <trkpt lat="42.89186" lon="0.10653">
        <ele>1635.82</ele>
        <time>2015-03-17T09:06:13Z</time>
      </trkpt>
      <trkpt lat="42.89184" lon="0.10648">
        <ele>1635.82</ele>
        <time>2015-03-17T09:06:32Z</time>
      </trkpt>
      <trkpt lat="42.89184" lon="0.10641">
        <ele>1634.86</ele>
        <time>2015-03-17T09:06:55Z</time>
      </trkpt>
      <trkpt lat="42.89182" lon="0.10647">
        <ele>1635.34</ele>
        <time>2015-03-17T09:07:10Z</time>
      </trkpt>
      <trkpt lat="42.8918" lon="0.1065">
        <ele>1634.86</ele>
        <time>2015-03-17T09:07:31Z</time>
      </trkpt>
      <trkpt lat="42.89177" lon="0.1065">
        <ele>1635.34</ele>
        <time>2015-03-17T09:07:38Z</time>
      </trkpt>
      <trkpt lat="42.89164" lon="0.10651">
        <ele>1636.78</ele>
        <time>2015-03-17T09:07:50Z</time>
      </trkpt>
      <trkpt lat="42.89152" lon="0.10652">
        <ele>1638.22</ele>
        <time>2015-03-17T09:08:03Z</time>
      </trkpt>
      <trkpt lat="42.89141" lon="0.10654">
        <ele>1640.63</ele>
        <time>2015-03-17T09:08:16Z</time>
      </trkpt>
      <trkpt lat="42.89138" lon="0.10655">
        <ele>1641.59</ele>
        <time>2015-03-17T09:08:21Z</time>
      </trkpt>
      <trkpt lat="42.89121" lon="0.10658">
        <ele>1643.03</ele>
        <time>2015-03-17T09:08:34Z</time>
      </trkpt>
      <trkpt lat="42.89103" lon="0.10664">
        <ele>1641.59</ele>
        <time>2015-03-17T09:08:49Z</time>
      </trkpt>
      <trkpt lat="42.89101" lon="0.10664">
        <ele>1641.59</ele>
        <time>2015-03-17T09:08:51Z</time>
      </trkpt>
      <trkpt lat="42.89086" lon="0.1067">
        <ele>1643.03</ele>
        <time>2015-03-17T09:09:05Z</time>
      </trkpt>
      <trkpt lat="42.8907" lon="0.10673">
        <ele>1642.55</ele>
        <time>2015-03-17T09:09:18Z</time>
      </trkpt>
      <trkpt lat="42.89058" lon="0.10669">
        <ele>1644.47</ele>
        <time>2015-03-17T09:09:32Z</time>
      </trkpt>
      <trkpt lat="42.89047" lon="0.10666">
        <ele>1645.91</ele>
        <time>2015-03-17T09:09:45Z</time>
      </trkpt>
      <trkpt lat="42.89037" lon="0.10667">
        <ele>1649.28</ele>
        <time>2015-03-17T09:09:55Z</time>
      </trkpt>
      <trkpt lat="42.89036" lon="0.10668">
        <ele>1649.28</ele>
        <time>2015-03-17T09:09:56Z</time>
      </trkpt>
      <trkpt lat="42.89027" lon="0.10671">
        <ele>1651.2</ele>
        <time>2015-03-17T09:10:06Z</time>
      </trkpt>
      <trkpt lat="42.89024" lon="0.10672">
        <ele>1651.2</ele>
        <time>2015-03-17T09:10:10Z</time>
      </trkpt>
      <trkpt lat="42.89007" lon="0.10677">
        <ele>1652.64</ele>
        <time>2015-03-17T09:10:25Z</time>
      </trkpt>
      <trkpt lat="42.88992" lon="0.10677">
        <ele>1652.64</ele>
        <time>2015-03-17T09:10:41Z</time>
      </trkpt>
      <trkpt lat="42.88984" lon="0.10677">
        <ele>1655.53</ele>
        <time>2015-03-17T09:10:54Z</time>
      </trkpt>
      <trkpt lat="42.88972" lon="0.10682">
        <ele>1657.93</ele>
        <time>2015-03-17T09:11:09Z</time>
      </trkpt>
      <trkpt lat="42.88963" lon="0.10688">
        <ele>1659.37</ele>
        <time>2015-03-17T09:11:23Z</time>
      </trkpt>
      <trkpt lat="42.88951" lon="0.10697">
        <ele>1660.81</ele>
        <time>2015-03-17T09:11:39Z</time>
      </trkpt>
      <trkpt lat="42.88939" lon="0.10705">
        <ele>1662.74</ele>
        <time>2015-03-17T09:11:54Z</time>
      </trkpt>
      <trkpt lat="42.88931" lon="0.10713">
        <ele>1664.66</ele>
        <time>2015-03-17T09:12:07Z</time>
      </trkpt>
      <trkpt lat="42.88921" lon="0.10721">
        <ele>1666.1</ele>
        <time>2015-03-17T09:12:20Z</time>
      </trkpt>
      <trkpt lat="42.88911" lon="0.10727">
        <ele>1667.06</ele>
        <time>2015-03-17T09:12:33Z</time>
      </trkpt>
      <trkpt lat="42.88907" lon="0.1073">
        <ele>1667.54</ele>
        <time>2015-03-17T09:12:47Z</time>
      </trkpt>
      <trkpt lat="42.88903" lon="0.10738">
        <ele>1667.54</ele>
        <time>2015-03-17T09:13:00Z</time>
      </trkpt>
      <trkpt lat="42.8889" lon="0.10747">
        <ele>1667.54</ele>
        <time>2015-03-17T09:13:13Z</time>
      </trkpt>
      <trkpt lat="42.88879" lon="0.10756">
        <ele>1669.47</ele>
        <time>2015-03-17T09:13:26Z</time>
      </trkpt>
      <trkpt lat="42.88872" lon="0.10765">
        <ele>1669.95</ele>
        <time>2015-03-17T09:13:35Z</time>
      </trkpt>
      <trkpt lat="42.88866" lon="0.10768">
        <ele>1670.43</ele>
        <time>2015-03-17T09:13:41Z</time>
      </trkpt>
      <trkpt lat="42.88864" lon="0.10769">
        <ele>1670.91</ele>
        <time>2015-03-17T09:13:43Z</time>
      </trkpt>
      <trkpt lat="42.8885" lon="0.10774">
        <ele>1672.35</ele>
        <time>2015-03-17T09:13:58Z</time>
      </trkpt>
      <trkpt lat="42.88844" lon="0.10776">
        <ele>1673.79</ele>
        <time>2015-03-17T09:14:04Z</time>
      </trkpt>
      <trkpt lat="42.88835" lon="0.10779">
        <ele>1675.23</ele>
        <time>2015-03-17T09:14:18Z</time>
      </trkpt>
      <trkpt lat="42.88832" lon="0.1078">
        <ele>1675.23</ele>
        <time>2015-03-17T09:14:22Z</time>
      </trkpt>
      <trkpt lat="42.8883" lon="0.10781">
        <ele>1675.72</ele>
        <time>2015-03-17T09:14:24Z</time>
      </trkpt>
      <trkpt lat="42.8882" lon="0.10784">
        <ele>1677.64</ele>
        <time>2015-03-17T09:14:37Z</time>
      </trkpt>
      <trkpt lat="42.8881" lon="0.1079">
        <ele>1679.56</ele>
        <time>2015-03-17T09:14:49Z</time>
      </trkpt>
      <trkpt lat="42.88801" lon="0.10798">
        <ele>1681</ele>
        <time>2015-03-17T09:15:03Z</time>
      </trkpt>
      <trkpt lat="42.88794" lon="0.10806">
        <ele>1682.93</ele>
        <time>2015-03-17T09:15:14Z</time>
      </trkpt>
      <trkpt lat="42.88784" lon="0.10809">
        <ele>1683.89</ele>
        <time>2015-03-17T09:15:26Z</time>
      </trkpt>
      <trkpt lat="42.8878" lon="0.1081">
        <ele>1684.85</ele>
        <time>2015-03-17T09:15:31Z</time>
      </trkpt>
      <trkpt lat="42.8877" lon="0.10815">
        <ele>1686.29</ele>
        <time>2015-03-17T09:15:45Z</time>
      </trkpt>
      <trkpt lat="42.88758" lon="0.10814">
        <ele>1686.77</ele>
        <time>2015-03-17T09:15:58Z</time>
      </trkpt>
      <trkpt lat="42.88749" lon="0.10817">
        <ele>1689.17</ele>
        <time>2015-03-17T09:16:10Z</time>
      </trkpt>
      <trkpt lat="42.88737" lon="0.10815">
        <ele>1691.1</ele>
        <time>2015-03-17T09:16:25Z</time>
      </trkpt>
      <trkpt lat="42.88729" lon="0.10816">
        <ele>1693.02</ele>
        <time>2015-03-17T09:16:37Z</time>
      </trkpt>
      <trkpt lat="42.8872" lon="0.10815">
        <ele>1694.94</ele>
        <time>2015-03-17T09:16:49Z</time>
      </trkpt>
      <trkpt lat="42.88711" lon="0.10815">
        <ele>1696.38</ele>
        <time>2015-03-17T09:17:01Z</time>
      </trkpt>
      <trkpt lat="42.88703" lon="0.10816">
        <ele>1698.79</ele>
        <time>2015-03-17T09:17:14Z</time>
      </trkpt>
      <trkpt lat="42.88697" lon="0.10819">
        <ele>1700.23</ele>
        <time>2015-03-17T09:17:25Z</time>
      </trkpt>
      <trkpt lat="42.88689" lon="0.1082">
        <ele>1701.67</ele>
        <time>2015-03-17T09:17:38Z</time>
      </trkpt>
      <trkpt lat="42.88684" lon="0.1082">
        <ele>1703.11</ele>
        <time>2015-03-17T09:17:45Z</time>
      </trkpt>
      <trkpt lat="42.88679" lon="0.10822">
        <ele>1703.59</ele>
        <time>2015-03-17T09:17:50Z</time>
      </trkpt>
      <trkpt lat="42.8867" lon="0.10825">
        <ele>1705.52</ele>
        <time>2015-03-17T09:18:03Z</time>
      </trkpt>
      <trkpt lat="42.8866" lon="0.10829">
        <ele>1706.96</ele>
        <time>2015-03-17T09:18:16Z</time>
      </trkpt>
      <trkpt lat="42.88653" lon="0.10835">
        <ele>1709.36</ele>
        <time>2015-03-17T09:18:29Z</time>
      </trkpt>
      <trkpt lat="42.88646" lon="0.10836">
        <ele>1710.8</ele>
        <time>2015-03-17T09:18:40Z</time>
      </trkpt>
      <trkpt lat="42.88637" lon="0.10838">
        <ele>1713.69</ele>
        <time>2015-03-17T09:18:55Z</time>
      </trkpt>
      <trkpt lat="42.88631" lon="0.10845">
        <ele>1715.61</ele>
        <time>2015-03-17T09:19:08Z</time>
      </trkpt>
      <trkpt lat="42.88623" lon="0.10846">
        <ele>1718.49</ele>
        <time>2015-03-17T09:19:22Z</time>
      </trkpt>
      <trkpt lat="42.88616" lon="0.10849">
        <ele>1719.94</ele>
        <time>2015-03-17T09:19:33Z</time>
      </trkpt>
      <trkpt lat="42.88613" lon="0.10857">
        <ele>1722.82</ele>
        <time>2015-03-17T09:19:47Z</time>
      </trkpt>
      <trkpt lat="42.8861" lon="0.10863">
        <ele>1724.26</ele>
        <time>2015-03-17T09:20:03Z</time>
      </trkpt>
      <trkpt lat="42.88608" lon="0.1087">
        <ele>1725.7</ele>
        <time>2015-03-17T09:20:20Z</time>
      </trkpt>
      <trkpt lat="42.88604" lon="0.10872">
        <ele>1725.22</ele>
        <time>2015-03-17T09:20:36Z</time>
      </trkpt>
      <trkpt lat="42.88602" lon="0.10871">
        <ele>1724.74</ele>
        <time>2015-03-17T09:20:57Z</time>
      </trkpt>
      <trkpt lat="42.88602" lon="0.10871">
        <ele>1728.11</ele>
        <time>2015-03-17T09:20:59Z</time>
      </trkpt>
      <trkpt lat="42.88602" lon="0.10872">
        <ele>1724.74</ele>
        <time>2015-03-17T09:21:02Z</time>
      </trkpt>
      <trkpt lat="42.88601" lon="0.10874">
        <ele>1726.18</ele>
        <time>2015-03-17T09:21:08Z</time>
      </trkpt>
      <trkpt lat="42.88594" lon="0.10884">
        <ele>1727.63</ele>
        <time>2015-03-17T09:21:21Z</time>
      </trkpt>
      <trkpt lat="42.88595" lon="0.10883">
        <ele>1727.63</ele>
        <time>2015-03-17T09:21:33Z</time>
      </trkpt>
      <trkpt lat="42.88593" lon="0.10884">
        <ele>1727.63</ele>
        <time>2015-03-17T09:21:35Z</time>
      </trkpt>
      <trkpt lat="42.8859" lon="0.10888">
        <ele>1728.11</ele>
        <time>2015-03-17T09:21:39Z</time>
      </trkpt>
      <trkpt lat="42.88588" lon="0.10891">
        <ele>1728.59</ele>
        <time>2015-03-17T09:21:42Z</time>
      </trkpt>
      <trkpt lat="42.88576" lon="0.10903">
        <ele>1730.99</ele>
        <time>2015-03-17T09:21:57Z</time>
      </trkpt>
      <trkpt lat="42.8857" lon="0.10908">
        <ele>1732.43</ele>
        <time>2015-03-17T09:22:05Z</time>
      </trkpt>
      <trkpt lat="42.88561" lon="0.10919">
        <ele>1734.84</ele>
        <time>2015-03-17T09:22:18Z</time>
      </trkpt>
      <trkpt lat="42.88552" lon="0.10929">
        <ele>1736.28</ele>
        <time>2015-03-17T09:22:29Z</time>
      </trkpt>
      <trkpt lat="42.88551" lon="0.10931">
        <ele>1736.28</ele>
        <time>2015-03-17T09:22:31Z</time>
      </trkpt>
      <trkpt lat="42.88541" lon="0.10942">
        <ele>1737.72</ele>
        <time>2015-03-17T09:22:44Z</time>
      </trkpt>
      <trkpt lat="42.88537" lon="0.10945">
        <ele>1738.2</ele>
        <time>2015-03-17T09:22:47Z</time>
      </trkpt>
      <trkpt lat="42.88531" lon="0.10951">
        <ele>1739.16</ele>
        <time>2015-03-17T09:22:55Z</time>
      </trkpt>
      <trkpt lat="42.88529" lon="0.10953">
        <ele>1739.16</ele>
        <time>2015-03-17T09:22:57Z</time>
      </trkpt>
      <trkpt lat="42.88519" lon="0.10967">
        <ele>1740.6</ele>
        <time>2015-03-17T09:23:12Z</time>
      </trkpt>
      <trkpt lat="42.88516" lon="0.10972">
        <ele>1741.08</ele>
        <time>2015-03-17T09:23:17Z</time>
      </trkpt>
      <trkpt lat="42.88506" lon="0.10985">
        <ele>1743.01</ele>
        <time>2015-03-17T09:23:31Z</time>
      </trkpt>
      <trkpt lat="42.88505" lon="0.10986">
        <ele>1743.01</ele>
        <time>2015-03-17T09:23:32Z</time>
      </trkpt>
      <trkpt lat="42.88504" lon="0.10987">
        <ele>1743.01</ele>
        <time>2015-03-17T09:23:34Z</time>
      </trkpt>
      <trkpt lat="42.88501" lon="0.10992">
        <ele>1743.49</ele>
        <time>2015-03-17T09:23:40Z</time>
      </trkpt>
      <trkpt lat="42.88497" lon="0.10997">
        <ele>1744.45</ele>
        <time>2015-03-17T09:23:45Z</time>
      </trkpt>
      <trkpt lat="42.88491" lon="0.11006">
        <ele>1745.41</ele>
        <time>2015-03-17T09:23:53Z</time>
      </trkpt>
      <trkpt lat="42.88484" lon="0.11018">
        <ele>1747.81</ele>
        <time>2015-03-17T09:24:07Z</time>
      </trkpt>
      <trkpt lat="42.88484" lon="0.11019">
        <ele>1747.33</ele>
        <time>2015-03-17T09:24:08Z</time>
      </trkpt>
      <trkpt lat="42.88478" lon="0.11028">
        <ele>1748.78</ele>
        <time>2015-03-17T09:24:18Z</time>
      </trkpt>
      <trkpt lat="42.88471" lon="0.11041">
        <ele>1750.22</ele>
        <time>2015-03-17T09:24:31Z</time>
      </trkpt>
      <trkpt lat="42.8847" lon="0.11042">
        <ele>1750.22</ele>
        <time>2015-03-17T09:24:32Z</time>
      </trkpt>
      <trkpt lat="42.88454" lon="0.11053">
        <ele>1751.18</ele>
        <time>2015-03-17T09:24:47Z</time>
      </trkpt>
      <trkpt lat="42.88451" lon="0.11056">
        <ele>1751.18</ele>
        <time>2015-03-17T09:24:51Z</time>
      </trkpt>
      <trkpt lat="42.88439" lon="0.11071">
        <ele>1752.62</ele>
        <time>2015-03-17T09:25:06Z</time>
      </trkpt>
      <trkpt lat="42.88437" lon="0.11075">
        <ele>1752.62</ele>
        <time>2015-03-17T09:25:10Z</time>
      </trkpt>
      <trkpt lat="42.88436" lon="0.11078">
        <ele>1752.62</ele>
        <time>2015-03-17T09:25:13Z</time>
      </trkpt>
      <trkpt lat="42.88432" lon="0.11084">
        <ele>1753.1</ele>
        <time>2015-03-17T09:25:18Z</time>
      </trkpt>
      <trkpt lat="42.88431" lon="0.11086">
        <ele>1753.1</ele>
        <time>2015-03-17T09:25:20Z</time>
      </trkpt>
      <trkpt lat="42.88423" lon="0.11096">
        <ele>1753.58</ele>
        <time>2015-03-17T09:25:28Z</time>
      </trkpt>
      <trkpt lat="42.88412" lon="0.11109">
        <ele>1754.06</ele>
        <time>2015-03-17T09:25:40Z</time>
      </trkpt>
      <trkpt lat="42.884" lon="0.11119">
        <ele>1755.02</ele>
        <time>2015-03-17T09:25:53Z</time>
      </trkpt>
      <trkpt lat="42.88395" lon="0.11125">
        <ele>1755.5</ele>
        <time>2015-03-17T09:26:01Z</time>
      </trkpt>
      <trkpt lat="42.88389" lon="0.1114">
        <ele>1756.95</ele>
        <time>2015-03-17T09:26:15Z</time>
      </trkpt>
      <trkpt lat="42.88389" lon="0.1114">
        <ele>1756.95</ele>
        <time>2015-03-17T09:26:16Z</time>
      </trkpt>
      <trkpt lat="42.88381" lon="0.11158">
        <ele>1757.43</ele>
        <time>2015-03-17T09:26:31Z</time>
      </trkpt>
      <trkpt lat="42.88376" lon="0.11165">
        <ele>1757.91</ele>
        <time>2015-03-17T09:26:38Z</time>
      </trkpt>
      <trkpt lat="42.88361" lon="0.11169">
        <ele>1758.39</ele>
        <time>2015-03-17T09:26:50Z</time>
      </trkpt>
      <trkpt lat="42.88351" lon="0.11171">
        <ele>1760.31</ele>
        <time>2015-03-17T09:27:01Z</time>
      </trkpt>
      <trkpt lat="42.88346" lon="0.11171">
        <ele>1760.79</ele>
        <time>2015-03-17T09:27:06Z</time>
      </trkpt>
      <trkpt lat="42.88343" lon="0.11172">
        <ele>1760.79</ele>
        <time>2015-03-17T09:27:08Z</time>
      </trkpt>
      <trkpt lat="42.88331" lon="0.11175">
        <ele>1762.71</ele>
        <time>2015-03-17T09:27:23Z</time>
      </trkpt>
      <trkpt lat="42.88327" lon="0.11176">
        <ele>1763.2</ele>
        <time>2015-03-17T09:27:27Z</time>
      </trkpt>
      <trkpt lat="42.88315" lon="0.11186">
        <ele>1765.6</ele>
        <time>2015-03-17T09:27:43Z</time>
      </trkpt>
      <trkpt lat="42.88308" lon="0.11198">
        <ele>1766.56</ele>
        <time>2015-03-17T09:27:55Z</time>
      </trkpt>
      <trkpt lat="42.88307" lon="0.11203">
        <ele>1767.04</ele>
        <time>2015-03-17T09:28:00Z</time>
      </trkpt>
      <trkpt lat="42.88298" lon="0.11217">
        <ele>1768.96</ele>
        <time>2015-03-17T09:28:15Z</time>
      </trkpt>
      <trkpt lat="42.88291" lon="0.11234">
        <ele>1770.89</ele>
        <time>2015-03-17T09:28:30Z</time>
      </trkpt>
      <trkpt lat="42.88287" lon="0.11248">
        <ele>1772.81</ele>
        <time>2015-03-17T09:28:42Z</time>
      </trkpt>
      <trkpt lat="42.88286" lon="0.11252">
        <ele>1773.29</ele>
        <time>2015-03-17T09:28:45Z</time>
      </trkpt>
      <trkpt lat="42.88283" lon="0.11266">
        <ele>1773.77</ele>
        <time>2015-03-17T09:28:56Z</time>
      </trkpt>
      <trkpt lat="42.88281" lon="0.11275">
        <ele>1774.73</ele>
        <time>2015-03-17T09:29:05Z</time>
      </trkpt>
      <trkpt lat="42.88276" lon="0.11286">
        <ele>1775.21</ele>
        <time>2015-03-17T09:29:16Z</time>
      </trkpt>
      <trkpt lat="42.8827" lon="0.11301">
        <ele>1776.65</ele>
        <time>2015-03-17T09:29:29Z</time>
      </trkpt>
      <trkpt lat="42.8827" lon="0.11313">
        <ele>1777.61</ele>
        <time>2015-03-17T09:29:41Z</time>
      </trkpt>
      <trkpt lat="42.88273" lon="0.11327">
        <ele>1778.58</ele>
        <time>2015-03-17T09:29:53Z</time>
      </trkpt>
      <trkpt lat="42.88276" lon="0.11343">
        <ele>1780.02</ele>
        <time>2015-03-17T09:30:07Z</time>
      </trkpt>
      <trkpt lat="42.88276" lon="0.11359">
        <ele>1781.94</ele>
        <time>2015-03-17T09:30:20Z</time>
      </trkpt>
      <trkpt lat="42.88277" lon="0.11376">
        <ele>1782.9</ele>
        <time>2015-03-17T09:30:34Z</time>
      </trkpt>
      <trkpt lat="42.8828" lon="0.1139">
        <ele>1785.31</ele>
        <time>2015-03-17T09:30:47Z</time>
      </trkpt>
      <trkpt lat="42.88282" lon="0.11402">
        <ele>1786.27</ele>
        <time>2015-03-17T09:30:58Z</time>
      </trkpt>
      <trkpt lat="42.88279" lon="0.11416">
        <ele>1788.67</ele>
        <time>2015-03-17T09:31:11Z</time>
      </trkpt>
      <trkpt lat="42.88274" lon="0.11426">
        <ele>1791.07</ele>
        <time>2015-03-17T09:31:25Z</time>
      </trkpt>
      <trkpt lat="42.88271" lon="0.11438">
        <ele>1793.48</ele>
        <time>2015-03-17T09:31:39Z</time>
      </trkpt>
      <trkpt lat="42.8827" lon="0.11452">
        <ele>1795.88</ele>
        <time>2015-03-17T09:31:55Z</time>
      </trkpt>
      <trkpt lat="42.88266" lon="0.11464">
        <ele>1797.8</ele>
        <time>2015-03-17T09:32:08Z</time>
      </trkpt>
      <trkpt lat="42.88264" lon="0.11478">
        <ele>1799.73</ele>
        <time>2015-03-17T09:32:22Z</time>
      </trkpt>
      <trkpt lat="42.88261" lon="0.11491">
        <ele>1801.65</ele>
        <time>2015-03-17T09:32:36Z</time>
      </trkpt>
      <trkpt lat="42.8826" lon="0.11506">
        <ele>1802.61</ele>
        <time>2015-03-17T09:32:49Z</time>
      </trkpt>
      <trkpt lat="42.88257" lon="0.1152">
        <ele>1804.53</ele>
        <time>2015-03-17T09:33:02Z</time>
      </trkpt>
      <trkpt lat="42.88251" lon="0.11532">
        <ele>1805.97</ele>
        <time>2015-03-17T09:33:16Z</time>
      </trkpt>
      <trkpt lat="42.88251" lon="0.11545">
        <ele>1807.9</ele>
        <time>2015-03-17T09:33:29Z</time>
      </trkpt>
      <trkpt lat="42.88251" lon="0.1155">
        <ele>1808.86</ele>
        <time>2015-03-17T09:33:34Z</time>
      </trkpt>
      <trkpt lat="42.8825" lon="0.11563">
        <ele>1810.3</ele>
        <time>2015-03-17T09:33:47Z</time>
      </trkpt>
      <trkpt lat="42.88248" lon="0.11572">
        <ele>1811.74</ele>
        <time>2015-03-17T09:33:59Z</time>
      </trkpt>
      <trkpt lat="42.88252" lon="0.11573">
        <ele>1811.74</ele>
        <time>2015-03-17T09:34:17Z</time>
      </trkpt>
      <trkpt lat="42.8825" lon="0.11576">
        <ele>1812.22</ele>
        <time>2015-03-17T09:34:45Z</time>
      </trkpt>
      <trkpt lat="42.8825" lon="0.11582">
        <ele>1812.22</ele>
        <time>2015-03-17T09:35:07Z</time>
      </trkpt>
      <trkpt lat="42.88248" lon="0.11579">
        <ele>1812.7</ele>
        <time>2015-03-17T09:35:31Z</time>
      </trkpt>
      <trkpt lat="42.8825" lon="0.11577">
        <ele>1812.7</ele>
        <time>2015-03-17T09:35:53Z</time>
      </trkpt>
      <trkpt lat="42.88251" lon="0.1159">
        <ele>1812.7</ele>
        <time>2015-03-17T09:36:04Z</time>
      </trkpt>
      <trkpt lat="42.88253" lon="0.11604">
        <ele>1813.18</ele>
        <time>2015-03-17T09:36:17Z</time>
      </trkpt>
      <trkpt lat="42.88257" lon="0.11621">
        <ele>1815.59</ele>
        <time>2015-03-17T09:36:33Z</time>
      </trkpt>
      <trkpt lat="42.88254" lon="0.11639">
        <ele>1817.99</ele>
        <time>2015-03-17T09:36:50Z</time>
      </trkpt>
      <trkpt lat="42.88251" lon="0.11653">
        <ele>1819.91</ele>
        <time>2015-03-17T09:37:04Z</time>
      </trkpt>
      <trkpt lat="42.88249" lon="0.11669">
        <ele>1821.35</ele>
        <time>2015-03-17T09:37:20Z</time>
      </trkpt>
      <trkpt lat="42.88243" lon="0.11685">
        <ele>1822.8</ele>
        <time>2015-03-17T09:37:36Z</time>
      </trkpt>
      <trkpt lat="42.88238" lon="0.11698">
        <ele>1825.68</ele>
        <time>2015-03-17T09:37:53Z</time>
      </trkpt>
      <trkpt lat="42.8824" lon="0.11715">
        <ele>1827.12</ele>
        <time>2015-03-17T09:38:09Z</time>
      </trkpt>
      <trkpt lat="42.88239" lon="0.11727">
        <ele>1829.05</ele>
        <time>2015-03-17T09:38:22Z</time>
      </trkpt>
      <trkpt lat="42.88237" lon="0.11738">
        <ele>1830.49</ele>
        <time>2015-03-17T09:38:36Z</time>
      </trkpt>
      <trkpt lat="42.88235" lon="0.11749">
        <ele>1832.41</ele>
        <time>2015-03-17T09:38:49Z</time>
      </trkpt>
      <trkpt lat="42.88232" lon="0.11755">
        <ele>1834.81</ele>
        <time>2015-03-17T09:39:02Z</time>
      </trkpt>
      <trkpt lat="42.88227" lon="0.11759">
        <ele>1836.74</ele>
        <time>2015-03-17T09:39:15Z</time>
      </trkpt>
      <trkpt lat="42.88227" lon="0.11764">
        <ele>1839.14</ele>
        <time>2015-03-17T09:39:27Z</time>
      </trkpt>
      <trkpt lat="42.88227" lon="0.11773">
        <ele>1841.06</ele>
        <time>2015-03-17T09:39:39Z</time>
      </trkpt>
      <trkpt lat="42.88228" lon="0.11781">
        <ele>1843.47</ele>
        <time>2015-03-17T09:39:52Z</time>
      </trkpt>
      <trkpt lat="42.88224" lon="0.1179">
        <ele>1845.87</ele>
        <time>2015-03-17T09:40:06Z</time>
      </trkpt>
      <trkpt lat="42.88223" lon="0.11801">
        <ele>1848.75</ele>
        <time>2015-03-17T09:40:22Z</time>
      </trkpt>
      <trkpt lat="42.88223" lon="0.1181">
        <ele>1850.68</ele>
        <time>2015-03-17T09:40:35Z</time>
      </trkpt>
      <trkpt lat="42.88222" lon="0.1182">
        <ele>1852.6</ele>
        <time>2015-03-17T09:40:49Z</time>
      </trkpt>
      <trkpt lat="42.88221" lon="0.1183">
        <ele>1855</ele>
        <time>2015-03-17T09:41:04Z</time>
      </trkpt>
      <trkpt lat="42.88222" lon="0.11839">
        <ele>1856.92</ele>
        <time>2015-03-17T09:41:18Z</time>
      </trkpt>
      <trkpt lat="42.88224" lon="0.11848">
        <ele>1859.33</ele>
        <time>2015-03-17T09:41:32Z</time>
      </trkpt>
      <trkpt lat="42.88223" lon="0.11858">
        <ele>1860.77</ele>
        <time>2015-03-17T09:41:45Z</time>
      </trkpt>
      <trkpt lat="42.88223" lon="0.11866">
        <ele>1863.17</ele>
        <time>2015-03-17T09:41:58Z</time>
      </trkpt>
      <trkpt lat="42.88223" lon="0.11875">
        <ele>1864.61</ele>
        <time>2015-03-17T09:42:10Z</time>
      </trkpt>
      <trkpt lat="42.88222" lon="0.11886">
        <ele>1867.02</ele>
        <time>2015-03-17T09:42:24Z</time>
      </trkpt>
      <trkpt lat="42.88221" lon="0.11895">
        <ele>1869.42</ele>
        <time>2015-03-17T09:42:37Z</time>
      </trkpt>
      <trkpt lat="42.88222" lon="0.11909">
        <ele>1871.34</ele>
        <time>2015-03-17T09:42:52Z</time>
      </trkpt>
      <trkpt lat="42.88222" lon="0.1192">
        <ele>1872.79</ele>
        <time>2015-03-17T09:43:06Z</time>
      </trkpt>
      <trkpt lat="42.88221" lon="0.11929">
        <ele>1874.71</ele>
        <time>2015-03-17T09:43:19Z</time>
      </trkpt>
      <trkpt lat="42.88223" lon="0.11943">
        <ele>1876.63</ele>
        <time>2015-03-17T09:43:34Z</time>
      </trkpt>
      <trkpt lat="42.88226" lon="0.11957">
        <ele>1877.59</ele>
        <time>2015-03-17T09:43:48Z</time>
      </trkpt>
      <trkpt lat="42.88227" lon="0.11961">
        <ele>1878.07</ele>
        <time>2015-03-17T09:43:52Z</time>
      </trkpt>
      <trkpt lat="42.88228" lon="0.11965">
        <ele>1878.55</ele>
        <time>2015-03-17T09:43:58Z</time>
      </trkpt>
      <trkpt lat="42.88232" lon="0.1198">
        <ele>1879.03</ele>
        <time>2015-03-17T09:44:11Z</time>
      </trkpt>
      <trkpt lat="42.88236" lon="0.11992">
        <ele>1881.44</ele>
        <time>2015-03-17T09:44:25Z</time>
      </trkpt>
      <trkpt lat="42.88235" lon="0.12">
        <ele>1883.36</ele>
        <time>2015-03-17T09:44:38Z</time>
      </trkpt>
      <trkpt lat="42.88235" lon="0.12015">
        <ele>1885.76</ele>
        <time>2015-03-17T09:44:54Z</time>
      </trkpt>
      <trkpt lat="42.88235" lon="0.12024">
        <ele>1888.17</ele>
        <time>2015-03-17T09:45:08Z</time>
      </trkpt>
      <trkpt lat="42.88236" lon="0.12038">
        <ele>1890.09</ele>
        <time>2015-03-17T09:45:23Z</time>
      </trkpt>
      <trkpt lat="42.88232" lon="0.12047">
        <ele>1892.49</ele>
        <time>2015-03-17T09:45:37Z</time>
      </trkpt>
      <trkpt lat="42.88229" lon="0.12053">
        <ele>1893.93</ele>
        <time>2015-03-17T09:45:49Z</time>
      </trkpt>
      <trkpt lat="42.88231" lon="0.12066">
        <ele>1896.34</ele>
        <time>2015-03-17T09:46:02Z</time>
      </trkpt>
      <trkpt lat="42.88231" lon="0.12075">
        <ele>1898.26</ele>
        <time>2015-03-17T09:46:15Z</time>
      </trkpt>
      <trkpt lat="42.88232" lon="0.12087">
        <ele>1900.18</ele>
        <time>2015-03-17T09:46:29Z</time>
      </trkpt>
      <trkpt lat="42.88234" lon="0.12099">
        <ele>1902.59</ele>
        <time>2015-03-17T09:46:44Z</time>
      </trkpt>
      <trkpt lat="42.88236" lon="0.12106">
        <ele>1904.51</ele>
        <time>2015-03-17T09:46:57Z</time>
      </trkpt>
      <trkpt lat="42.8824" lon="0.12117">
        <ele>1906.91</ele>
        <time>2015-03-17T09:47:11Z</time>
      </trkpt>
      <trkpt lat="42.88243" lon="0.12132">
        <ele>1908.35</ele>
        <time>2015-03-17T09:47:26Z</time>
      </trkpt>
      <trkpt lat="42.88243" lon="0.12144">
        <ele>1909.8</ele>
        <time>2015-03-17T09:47:40Z</time>
      </trkpt>
      <trkpt lat="42.88245" lon="0.12162">
        <ele>1910.28</ele>
        <time>2015-03-17T09:47:54Z</time>
      </trkpt>
      <trkpt lat="42.88246" lon="0.12172">
        <ele>1911.24</ele>
        <time>2015-03-17T09:48:07Z</time>
      </trkpt>
      <trkpt lat="42.88247" lon="0.12182">
        <ele>1911.72</ele>
        <time>2015-03-17T09:48:20Z</time>
      </trkpt>
      <trkpt lat="42.88247" lon="0.12185">
        <ele>1911.72</ele>
        <time>2015-03-17T09:48:34Z</time>
      </trkpt>
      <trkpt lat="42.88246" lon="0.12185">
        <ele>1911.24</ele>
        <time>2015-03-17T09:48:54Z</time>
      </trkpt>
      <trkpt lat="42.88246" lon="0.12182">
        <ele>1911.24</ele>
        <time>2015-03-17T09:49:06Z</time>
      </trkpt>
      <trkpt lat="42.88246" lon="0.12182">
        <ele>1909.8</ele>
        <time>2015-03-17T09:49:15Z</time>
      </trkpt>
      <trkpt lat="42.88244" lon="0.1218">
        <ele>1910.76</ele>
        <time>2015-03-17T09:49:32Z</time>
      </trkpt>
      <trkpt lat="42.88244" lon="0.12178">
        <ele>1910.76</ele>
        <time>2015-03-17T09:49:51Z</time>
      </trkpt>
      <trkpt lat="42.88248" lon="0.1218">
        <ele>1910.28</ele>
        <time>2015-03-17T09:50:17Z</time>
      </trkpt>
      <trkpt lat="42.8825" lon="0.12182">
        <ele>1909.8</ele>
        <time>2015-03-17T09:50:49Z</time>
      </trkpt>
      <trkpt lat="42.88249" lon="0.12181">
        <ele>1909.8</ele>
        <time>2015-03-17T09:51:19Z</time>
      </trkpt>
      <trkpt lat="42.88248" lon="0.12181">
        <ele>1910.28</ele>
        <time>2015-03-17T09:51:59Z</time>
      </trkpt>
      <trkpt lat="42.88249" lon="0.12182">
        <ele>1909.8</ele>
        <time>2015-03-17T09:52:49Z</time>
      </trkpt>
      <trkpt lat="42.88247" lon="0.12183">
        <ele>1910.76</ele>
        <time>2015-03-17T09:53:03Z</time>
      </trkpt>
      <trkpt lat="42.88245" lon="0.1218">
        <ele>1910.76</ele>
        <time>2015-03-17T09:53:20Z</time>
      </trkpt>
      <trkpt lat="42.88244" lon="0.1218">
        <ele>1910.76</ele>
        <time>2015-03-17T09:53:39Z</time>
      </trkpt>
      <trkpt lat="42.88245" lon="0.12184">
        <ele>1910.28</ele>
        <time>2015-03-17T09:53:56Z</time>
      </trkpt>
      <trkpt lat="42.88245" lon="0.12186">
        <ele>1911.72</ele>
        <time>2015-03-17T09:54:11Z</time>
      </trkpt>
      <trkpt lat="42.88244" lon="0.12194">
        <ele>1911.24</ele>
        <time>2015-03-17T09:54:15Z</time>
      </trkpt>
      <trkpt lat="42.8824" lon="0.12215">
        <ele>1909.32</ele>
        <time>2015-03-17T09:54:30Z</time>
      </trkpt>
      <trkpt lat="42.88239" lon="0.1222">
        <ele>1908.35</ele>
        <time>2015-03-17T09:54:34Z</time>
      </trkpt>
      <trkpt lat="42.88236" lon="0.12223">
        <ele>1906.91</ele>
        <time>2015-03-17T09:54:38Z</time>
      </trkpt>
      <trkpt lat="42.88229" lon="0.12245">
        <ele>1904.03</ele>
        <time>2015-03-17T09:54:52Z</time>
      </trkpt>
      <trkpt lat="42.88226" lon="0.12258">
        <ele>1904.03</ele>
        <time>2015-03-17T09:55:02Z</time>
      </trkpt>
      <trkpt lat="42.88226" lon="0.12258">
        <ele>1904.03</ele>
        <time>2015-03-17T09:55:05Z</time>
      </trkpt>
      <trkpt lat="42.88226" lon="0.12261">
        <ele>1904.03</ele>
        <time>2015-03-17T09:55:07Z</time>
      </trkpt>
      <trkpt lat="42.88228" lon="0.12286">
        <ele>1903.55</ele>
        <time>2015-03-17T09:55:23Z</time>
      </trkpt>
      <trkpt lat="42.88228" lon="0.12288">
        <ele>1903.55</ele>
        <time>2015-03-17T09:55:24Z</time>
      </trkpt>
      <trkpt lat="42.88226" lon="0.12303">
        <ele>1903.55</ele>
        <time>2015-03-17T09:55:34Z</time>
      </trkpt>
      <trkpt lat="42.88225" lon="0.12319">
        <ele>1904.03</ele>
        <time>2015-03-17T09:55:44Z</time>
      </trkpt>
      <trkpt lat="42.88225" lon="0.12326">
        <ele>1904.03</ele>
        <time>2015-03-17T09:55:49Z</time>
      </trkpt>
      <trkpt lat="42.88223" lon="0.12353">
        <ele>1903.55</ele>
        <time>2015-03-17T09:56:06Z</time>
      </trkpt>
      <trkpt lat="42.88218" lon="0.12376">
        <ele>1903.55</ele>
        <time>2015-03-17T09:56:22Z</time>
      </trkpt>
      <trkpt lat="42.88214" lon="0.12395">
        <ele>1903.55</ele>
        <time>2015-03-17T09:56:36Z</time>
      </trkpt>
      <trkpt lat="42.8821" lon="0.12416">
        <ele>1903.55</ele>
        <time>2015-03-17T09:56:51Z</time>
      </trkpt>
      <trkpt lat="42.88209" lon="0.12421">
        <ele>1903.55</ele>
        <time>2015-03-17T09:56:55Z</time>
      </trkpt>
      <trkpt lat="42.8821" lon="0.12447">
        <ele>1903.55</ele>
        <time>2015-03-17T09:57:12Z</time>
      </trkpt>
      <trkpt lat="42.88208" lon="0.12474">
        <ele>1904.03</ele>
        <time>2015-03-17T09:57:30Z</time>
      </trkpt>
      <trkpt lat="42.88207" lon="0.1248">
        <ele>1904.03</ele>
        <time>2015-03-17T09:57:34Z</time>
      </trkpt>
      <trkpt lat="42.88206" lon="0.12489">
        <ele>1904.03</ele>
        <time>2015-03-17T09:57:39Z</time>
      </trkpt>
      <trkpt lat="42.88202" lon="0.12508">
        <ele>1905.95</ele>
        <time>2015-03-17T09:57:54Z</time>
      </trkpt>
      <trkpt lat="42.88199" lon="0.12525">
        <ele>1907.87</ele>
        <time>2015-03-17T09:58:08Z</time>
      </trkpt>
      <trkpt lat="42.88196" lon="0.12541">
        <ele>1908.83</ele>
        <time>2015-03-17T09:58:23Z</time>
      </trkpt>
      <trkpt lat="42.88194" lon="0.12557">
        <ele>1910.76</ele>
        <time>2015-03-17T09:58:37Z</time>
      </trkpt>
      <trkpt lat="42.88193" lon="0.12572">
        <ele>1912.68</ele>
        <time>2015-03-17T09:58:52Z</time>
      </trkpt>
      <trkpt lat="42.88191" lon="0.12587">
        <ele>1914.12</ele>
        <time>2015-03-17T09:59:07Z</time>
      </trkpt>
      <trkpt lat="42.88191" lon="0.12601">
        <ele>1916.04</ele>
        <time>2015-03-17T09:59:21Z</time>
      </trkpt>
      <trkpt lat="42.88191" lon="0.12615">
        <ele>1917.49</ele>
        <time>2015-03-17T09:59:35Z</time>
      </trkpt>
      <trkpt lat="42.88191" lon="0.12631">
        <ele>1918.93</ele>
        <time>2015-03-17T09:59:48Z</time>
      </trkpt>
      <trkpt lat="42.88192" lon="0.12644">
        <ele>1920.85</ele>
        <time>2015-03-17T10:00:02Z</time>
      </trkpt>
      <trkpt lat="42.88195" lon="0.12659">
        <ele>1922.77</ele>
        <time>2015-03-17T10:00:16Z</time>
      </trkpt>
      <trkpt lat="42.88196" lon="0.12672">
        <ele>1924.22</ele>
        <time>2015-03-17T10:00:30Z</time>
      </trkpt>
      <trkpt lat="42.88197" lon="0.12682">
        <ele>1925.66</ele>
        <time>2015-03-17T10:00:42Z</time>
      </trkpt>
      <trkpt lat="42.88198" lon="0.12698">
        <ele>1927.1</ele>
        <time>2015-03-17T10:00:57Z</time>
      </trkpt>
      <trkpt lat="42.88199" lon="0.12712">
        <ele>1928.54</ele>
        <time>2015-03-17T10:01:09Z</time>
      </trkpt>
      <trkpt lat="42.88198" lon="0.12726">
        <ele>1929.5</ele>
        <time>2015-03-17T10:01:21Z</time>
      </trkpt>
      <trkpt lat="42.88193" lon="0.12743">
        <ele>1929.5</ele>
        <time>2015-03-17T10:01:36Z</time>
      </trkpt>
      <trkpt lat="42.88187" lon="0.12756">
        <ele>1930.46</ele>
        <time>2015-03-17T10:01:49Z</time>
      </trkpt>
      <trkpt lat="42.88182" lon="0.12766">
        <ele>1931.91</ele>
        <time>2015-03-17T10:02:03Z</time>
      </trkpt>
      <trkpt lat="42.88177" lon="0.12784">
        <ele>1932.39</ele>
        <time>2015-03-17T10:02:18Z</time>
      </trkpt>
      <trkpt lat="42.88171" lon="0.128">
        <ele>1932.87</ele>
        <time>2015-03-17T10:02:33Z</time>
      </trkpt>
      <trkpt lat="42.88169" lon="0.12814">
        <ele>1933.83</ele>
        <time>2015-03-17T10:02:47Z</time>
      </trkpt>
      <trkpt lat="42.8817" lon="0.12831">
        <ele>1934.31</ele>
        <time>2015-03-17T10:03:01Z</time>
      </trkpt>
      <trkpt lat="42.88172" lon="0.12841">
        <ele>1934.79</ele>
        <time>2015-03-17T10:03:11Z</time>
      </trkpt>
      <trkpt lat="42.88171" lon="0.12855">
        <ele>1935.75</ele>
        <time>2015-03-17T10:03:24Z</time>
      </trkpt>
      <trkpt lat="42.88171" lon="0.12868">
        <ele>1936.23</ele>
        <time>2015-03-17T10:03:36Z</time>
      </trkpt>
      <trkpt lat="42.88175" lon="0.12882">
        <ele>1937.19</ele>
        <time>2015-03-17T10:03:50Z</time>
      </trkpt>
      <trkpt lat="42.88175" lon="0.12897">
        <ele>1939.12</ele>
        <time>2015-03-17T10:04:04Z</time>
      </trkpt>
      <trkpt lat="42.88175" lon="0.12907">
        <ele>1939.12</ele>
        <time>2015-03-17T10:04:13Z</time>
      </trkpt>
      <trkpt lat="42.88174" lon="0.1292">
        <ele>1940.56</ele>
        <time>2015-03-17T10:04:27Z</time>
      </trkpt>
      <trkpt lat="42.88173" lon="0.12936">
        <ele>1941.52</ele>
        <time>2015-03-17T10:04:42Z</time>
      </trkpt>
      <trkpt lat="42.88168" lon="0.12947">
        <ele>1942.48</ele>
        <time>2015-03-17T10:04:55Z</time>
      </trkpt>
      <trkpt lat="42.88166" lon="0.12962">
        <ele>1942.96</ele>
        <time>2015-03-17T10:05:08Z</time>
      </trkpt>
      <trkpt lat="42.88162" lon="0.12977">
        <ele>1943.44</ele>
        <time>2015-03-17T10:05:21Z</time>
      </trkpt>
      <trkpt lat="42.8816" lon="0.12994">
        <ele>1943.92</ele>
        <time>2015-03-17T10:05:35Z</time>
      </trkpt>
      <trkpt lat="42.88162" lon="0.13011">
        <ele>1944.4</ele>
        <time>2015-03-17T10:05:49Z</time>
      </trkpt>
      <trkpt lat="42.88162" lon="0.13028">
        <ele>1944.88</ele>
        <time>2015-03-17T10:06:03Z</time>
      </trkpt>
      <trkpt lat="42.88162" lon="0.13034">
        <ele>1944.4</ele>
        <time>2015-03-17T10:06:07Z</time>
      </trkpt>
      <trkpt lat="42.88163" lon="0.13054">
        <ele>1944.88</ele>
        <time>2015-03-17T10:06:23Z</time>
      </trkpt>
      <trkpt lat="42.88162" lon="0.13056">
        <ele>1944.88</ele>
        <time>2015-03-17T10:06:25Z</time>
      </trkpt>
      <trkpt lat="42.88162" lon="0.13066">
        <ele>1944.88</ele>
        <time>2015-03-17T10:06:33Z</time>
      </trkpt>
      <trkpt lat="42.88161" lon="0.13083">
        <ele>1945.36</ele>
        <time>2015-03-17T10:06:46Z</time>
      </trkpt>
      <trkpt lat="42.88159" lon="0.13099">
        <ele>1945.85</ele>
        <time>2015-03-17T10:06:58Z</time>
      </trkpt>
      <trkpt lat="42.88156" lon="0.13117">
        <ele>1946.33</ele>
        <time>2015-03-17T10:07:13Z</time>
      </trkpt>
      <trkpt lat="42.88154" lon="0.13132">
        <ele>1947.29</ele>
        <time>2015-03-17T10:07:26Z</time>
      </trkpt>
      <trkpt lat="42.8815" lon="0.13146">
        <ele>1947.77</ele>
        <time>2015-03-17T10:07:40Z</time>
      </trkpt>
      <trkpt lat="42.88148" lon="0.13161">
        <ele>1948.25</ele>
        <time>2015-03-17T10:07:53Z</time>
      </trkpt>
      <trkpt lat="42.88142" lon="0.13177">
        <ele>1949.69</ele>
        <time>2015-03-17T10:08:09Z</time>
      </trkpt>
      <trkpt lat="42.88136" lon="0.13187">
        <ele>1950.65</ele>
        <time>2015-03-17T10:08:22Z</time>
      </trkpt>
      <trkpt lat="42.88136" lon="0.13197">
        <ele>1952.09</ele>
        <time>2015-03-17T10:08:35Z</time>
      </trkpt>
      <trkpt lat="42.88134" lon="0.1321">
        <ele>1953.54</ele>
        <time>2015-03-17T10:08:49Z</time>
      </trkpt>
      <trkpt lat="42.88136" lon="0.13225">
        <ele>1953.54</ele>
        <time>2015-03-17T10:09:04Z</time>
      </trkpt>
      <trkpt lat="42.88135" lon="0.13243">
        <ele>1954.98</ele>
        <time>2015-03-17T10:09:18Z</time>
      </trkpt>
      <trkpt lat="42.88133" lon="0.13253">
        <ele>1954.98</ele>
        <time>2015-03-17T10:09:27Z</time>
      </trkpt>
      <trkpt lat="42.88128" lon="0.13269">
        <ele>1956.42</ele>
        <time>2015-03-17T10:09:41Z</time>
      </trkpt>
      <trkpt lat="42.88126" lon="0.13275">
        <ele>1956.42</ele>
        <time>2015-03-17T10:09:47Z</time>
      </trkpt>
      <trkpt lat="42.88125" lon="0.13277">
        <ele>1956.9</ele>
        <time>2015-03-17T10:09:49Z</time>
      </trkpt>
      <trkpt lat="42.88121" lon="0.13291">
        <ele>1957.38</ele>
        <time>2015-03-17T10:10:03Z</time>
      </trkpt>
      <trkpt lat="42.88118" lon="0.13303">
        <ele>1956.9</ele>
        <time>2015-03-17T10:10:16Z</time>
      </trkpt>
      <trkpt lat="42.88117" lon="0.13307">
        <ele>1957.38</ele>
        <time>2015-03-17T10:10:19Z</time>
      </trkpt>
      <trkpt lat="42.88114" lon="0.13324">
        <ele>1957.86</ele>
        <time>2015-03-17T10:10:33Z</time>
      </trkpt>
      <trkpt lat="42.88111" lon="0.13339">
        <ele>1958.82</ele>
        <time>2015-03-17T10:10:46Z</time>
      </trkpt>
      <trkpt lat="42.88108" lon="0.13352">
        <ele>1958.82</ele>
        <time>2015-03-17T10:10:57Z</time>
      </trkpt>
      <trkpt lat="42.88106" lon="0.13367">
        <ele>1959.78</ele>
        <time>2015-03-17T10:11:09Z</time>
      </trkpt>
      <trkpt lat="42.88104" lon="0.13373">
        <ele>1960.27</ele>
        <time>2015-03-17T10:11:14Z</time>
      </trkpt>
      <trkpt lat="42.88105" lon="0.13375">
        <ele>1959.78</ele>
        <time>2015-03-17T10:11:15Z</time>
      </trkpt>
      <trkpt lat="42.88102" lon="0.1339">
        <ele>1959.78</ele>
        <time>2015-03-17T10:11:26Z</time>
      </trkpt>
      <trkpt lat="42.88102" lon="0.13391">
        <ele>1959.78</ele>
        <time>2015-03-17T10:11:27Z</time>
      </trkpt>
      <trkpt lat="42.88099" lon="0.13409">
        <ele>1961.71</ele>
        <time>2015-03-17T10:11:42Z</time>
      </trkpt>
      <trkpt lat="42.88099" lon="0.1341">
        <ele>1961.71</ele>
        <time>2015-03-17T10:11:43Z</time>
      </trkpt>
      <trkpt lat="42.88096" lon="0.13423">
        <ele>1962.19</ele>
        <time>2015-03-17T10:11:55Z</time>
      </trkpt>
      <trkpt lat="42.88095" lon="0.13427">
        <ele>1962.67</ele>
        <time>2015-03-17T10:11:58Z</time>
      </trkpt>
      <trkpt lat="42.88095" lon="0.13434">
        <ele>1963.15</ele>
        <time>2015-03-17T10:12:06Z</time>
      </trkpt>
      <trkpt lat="42.88094" lon="0.1345">
        <ele>1965.55</ele>
        <time>2015-03-17T10:12:19Z</time>
      </trkpt>
      <trkpt lat="42.88092" lon="0.13462">
        <ele>1966.51</ele>
        <time>2015-03-17T10:12:31Z</time>
      </trkpt>
      <trkpt lat="42.88091" lon="0.13471">
        <ele>1967.96</ele>
        <time>2015-03-17T10:12:40Z</time>
      </trkpt>
      <trkpt lat="42.88092" lon="0.13485">
        <ele>1968.44</ele>
        <time>2015-03-17T10:12:53Z</time>
      </trkpt>
      <trkpt lat="42.88093" lon="0.13495">
        <ele>1969.4</ele>
        <time>2015-03-17T10:13:03Z</time>
      </trkpt>
      <trkpt lat="42.88092" lon="0.1351">
        <ele>1969.88</ele>
        <time>2015-03-17T10:13:15Z</time>
      </trkpt>
      <trkpt lat="42.88088" lon="0.1352">
        <ele>1970.84</ele>
        <time>2015-03-17T10:13:26Z</time>
      </trkpt>
      <trkpt lat="42.88082" lon="0.1353">
        <ele>1972.28</ele>
        <time>2015-03-17T10:13:39Z</time>
      </trkpt>
      <trkpt lat="42.88077" lon="0.13538">
        <ele>1973.72</ele>
        <time>2015-03-17T10:13:51Z</time>
      </trkpt>
      <trkpt lat="42.88073" lon="0.13541">
        <ele>1974.69</ele>
        <time>2015-03-17T10:14:05Z</time>
      </trkpt>
      <trkpt lat="42.88067" lon="0.13546">
        <ele>1976.61</ele>
        <time>2015-03-17T10:14:15Z</time>
      </trkpt>
      <trkpt lat="42.88057" lon="0.13553">
        <ele>1978.53</ele>
        <time>2015-03-17T10:14:27Z</time>
      </trkpt>
      <trkpt lat="42.8805" lon="0.13557">
        <ele>1979.97</ele>
        <time>2015-03-17T10:14:40Z</time>
      </trkpt>
      <trkpt lat="42.88042" lon="0.13561">
        <ele>1982.38</ele>
        <time>2015-03-17T10:14:53Z</time>
      </trkpt>
      <trkpt lat="42.88036" lon="0.13566">
        <ele>1984.78</ele>
        <time>2015-03-17T10:15:06Z</time>
      </trkpt>
      <trkpt lat="42.88033" lon="0.13575">
        <ele>1987.18</ele>
        <time>2015-03-17T10:15:19Z</time>
      </trkpt>
      <trkpt lat="42.88031" lon="0.13586">
        <ele>1988.62</ele>
        <time>2015-03-17T10:15:31Z</time>
      </trkpt>
      <trkpt lat="42.88027" lon="0.13595">
        <ele>1989.59</ele>
        <time>2015-03-17T10:15:43Z</time>
      </trkpt>
      <trkpt lat="42.88023" lon="0.13607">
        <ele>1990.55</ele>
        <time>2015-03-17T10:15:53Z</time>
      </trkpt>
      <trkpt lat="42.88022" lon="0.13616">
        <ele>1991.03</ele>
        <time>2015-03-17T10:16:01Z</time>
      </trkpt>
      <trkpt lat="42.88016" lon="0.13627">
        <ele>1992.47</ele>
        <time>2015-03-17T10:16:14Z</time>
      </trkpt>
      <trkpt lat="42.88014" lon="0.13633">
        <ele>1994.39</ele>
        <time>2015-03-17T10:16:26Z</time>
      </trkpt>
      <trkpt lat="42.88011" lon="0.13642">
        <ele>1996.8</ele>
        <time>2015-03-17T10:16:38Z</time>
      </trkpt>
      <trkpt lat="42.88008" lon="0.13651">
        <ele>1998.72</ele>
        <time>2015-03-17T10:16:52Z</time>
      </trkpt>
      <trkpt lat="42.88004" lon="0.13664">
        <ele>2001.12</ele>
        <time>2015-03-17T10:17:07Z</time>
      </trkpt>
      <trkpt lat="42.88" lon="0.13675">
        <ele>2002.56</ele>
        <time>2015-03-17T10:17:20Z</time>
      </trkpt>
      <trkpt lat="42.87996" lon="0.13686">
        <ele>2004.01</ele>
        <time>2015-03-17T10:17:33Z</time>
      </trkpt>
      <trkpt lat="42.87994" lon="0.13695">
        <ele>2004.97</ele>
        <time>2015-03-17T10:17:44Z</time>
      </trkpt>
      <trkpt lat="42.87989" lon="0.1371">
        <ele>2005.93</ele>
        <time>2015-03-17T10:17:58Z</time>
      </trkpt>
      <trkpt lat="42.87986" lon="0.13722">
        <ele>2006.41</ele>
        <time>2015-03-17T10:18:11Z</time>
      </trkpt>
      <trkpt lat="42.87983" lon="0.13734">
        <ele>2006.89</ele>
        <time>2015-03-17T10:18:23Z</time>
      </trkpt>
      <trkpt lat="42.87977" lon="0.13746">
        <ele>2008.33</ele>
        <time>2015-03-17T10:18:36Z</time>
      </trkpt>
      <trkpt lat="42.8797" lon="0.13757">
        <ele>2009.29</ele>
        <time>2015-03-17T10:18:49Z</time>
      </trkpt>
      <trkpt lat="42.87967" lon="0.13764">
        <ele>2009.29</ele>
        <time>2015-03-17T10:18:59Z</time>
      </trkpt>
      <trkpt lat="42.87967" lon="0.13765">
        <ele>2009.29</ele>
        <time>2015-03-17T10:19:00Z</time>
      </trkpt>
      <trkpt lat="42.87966" lon="0.13768">
        <ele>2009.29</ele>
        <time>2015-03-17T10:19:02Z</time>
      </trkpt>
      <trkpt lat="42.87964" lon="0.13776">
        <ele>2009.29</ele>
        <time>2015-03-17T10:19:10Z</time>
      </trkpt>
      <trkpt lat="42.87961" lon="0.13791">
        <ele>2010.25</ele>
        <time>2015-03-17T10:19:25Z</time>
      </trkpt>
      <trkpt lat="42.87959" lon="0.13804">
        <ele>2011.22</ele>
        <time>2015-03-17T10:19:39Z</time>
      </trkpt>
      <trkpt lat="42.87956" lon="0.13818">
        <ele>2012.18</ele>
        <time>2015-03-17T10:19:52Z</time>
      </trkpt>
      <trkpt lat="42.87954" lon="0.13834">
        <ele>2013.14</ele>
        <time>2015-03-17T10:20:07Z</time>
      </trkpt>
      <trkpt lat="42.87959" lon="0.13839">
        <ele>2013.14</ele>
        <time>2015-03-17T10:20:19Z</time>
      </trkpt>
      <trkpt lat="42.87958" lon="0.13839">
        <ele>2015.06</ele>
        <time>2015-03-17T10:20:23Z</time>
      </trkpt>
      <trkpt lat="42.87958" lon="0.13841">
        <ele>2014.1</ele>
        <time>2015-03-17T10:20:41Z</time>
      </trkpt>
      <trkpt lat="42.87955" lon="0.13844">
        <ele>2014.1</ele>
        <time>2015-03-17T10:20:57Z</time>
      </trkpt>
      <trkpt lat="42.87951" lon="0.13839">
        <ele>2014.1</ele>
        <time>2015-03-17T10:21:11Z</time>
      </trkpt>
      <trkpt lat="42.87947" lon="0.13844">
        <ele>2014.1</ele>
        <time>2015-03-17T10:21:29Z</time>
      </trkpt>
      <trkpt lat="42.87947" lon="0.13853">
        <ele>2014.58</ele>
        <time>2015-03-17T10:21:43Z</time>
      </trkpt>
      <trkpt lat="42.87947" lon="0.13856">
        <ele>2014.58</ele>
        <time>2015-03-17T10:21:55Z</time>
      </trkpt>
      <trkpt lat="42.87945" lon="0.13857">
        <ele>2015.06</ele>
        <time>2015-03-17T10:22:12Z</time>
      </trkpt>
      <trkpt lat="42.87941" lon="0.13873">
        <ele>2016.02</ele>
        <time>2015-03-17T10:22:25Z</time>
      </trkpt>
      <trkpt lat="42.87938" lon="0.13887">
        <ele>2017.46</ele>
        <time>2015-03-17T10:22:39Z</time>
      </trkpt>
      <trkpt lat="42.87937" lon="0.139">
        <ele>2019.39</ele>
        <time>2015-03-17T10:22:52Z</time>
      </trkpt>
      <trkpt lat="42.87935" lon="0.13912">
        <ele>2020.83</ele>
        <time>2015-03-17T10:23:05Z</time>
      </trkpt>
      <trkpt lat="42.87931" lon="0.13929">
        <ele>2021.31</ele>
        <time>2015-03-17T10:23:20Z</time>
      </trkpt>
      <trkpt lat="42.87922" lon="0.13939">
        <ele>2023.71</ele>
        <time>2015-03-17T10:23:35Z</time>
      </trkpt>
      <trkpt lat="42.87916" lon="0.13951">
        <ele>2025.15</ele>
        <time>2015-03-17T10:23:48Z</time>
      </trkpt>
      <trkpt lat="42.87913" lon="0.13965">
        <ele>2026.6</ele>
        <time>2015-03-17T10:24:03Z</time>
      </trkpt>
      <trkpt lat="42.87912" lon="0.13977">
        <ele>2027.56</ele>
        <time>2015-03-17T10:24:15Z</time>
      </trkpt>
      <trkpt lat="42.87913" lon="0.13991">
        <ele>2028.52</ele>
        <time>2015-03-17T10:24:27Z</time>
      </trkpt>
      <trkpt lat="42.87916" lon="0.14007">
        <ele>2029.48</ele>
        <time>2015-03-17T10:24:42Z</time>
      </trkpt>
      <trkpt lat="42.87916" lon="0.14016">
        <ele>2029.48</ele>
        <time>2015-03-17T10:24:54Z</time>
      </trkpt>
      <trkpt lat="42.87914" lon="0.14023">
        <ele>2030.92</ele>
        <time>2015-03-17T10:25:07Z</time>
      </trkpt>
      <trkpt lat="42.87907" lon="0.14035">
        <ele>2031.88</ele>
        <time>2015-03-17T10:25:21Z</time>
      </trkpt>
      <trkpt lat="42.87903" lon="0.14048">
        <ele>2033.81</ele>
        <time>2015-03-17T10:25:35Z</time>
      </trkpt>
      <trkpt lat="42.87898" lon="0.14062">
        <ele>2034.77</ele>
        <time>2015-03-17T10:25:48Z</time>
      </trkpt>
      <trkpt lat="42.87895" lon="0.14073">
        <ele>2036.69</ele>
        <time>2015-03-17T10:26:03Z</time>
      </trkpt>
      <trkpt lat="42.87892" lon="0.14084">
        <ele>2038.13</ele>
        <time>2015-03-17T10:26:16Z</time>
      </trkpt>
      <trkpt lat="42.87886" lon="0.14096">
        <ele>2039.09</ele>
        <time>2015-03-17T10:26:30Z</time>
      </trkpt>
      <trkpt lat="42.87879" lon="0.14105">
        <ele>2040.05</ele>
        <time>2015-03-17T10:26:40Z</time>
      </trkpt>
      <trkpt lat="42.87873" lon="0.1411">
        <ele>2042.46</ele>
        <time>2015-03-17T10:26:52Z</time>
      </trkpt>
      <trkpt lat="42.87866" lon="0.14116">
        <ele>2044.86</ele>
        <time>2015-03-17T10:27:05Z</time>
      </trkpt>
      <trkpt lat="42.87867" lon="0.14122">
        <ele>2046.3</ele>
        <time>2015-03-17T10:27:16Z</time>
      </trkpt>
      <trkpt lat="42.87859" lon="0.14123">
        <ele>2048.71</ele>
        <time>2015-03-17T10:27:30Z</time>
      </trkpt>
      <trkpt lat="42.87861" lon="0.14127">
        <ele>2049.19</ele>
        <time>2015-03-17T10:27:46Z</time>
      </trkpt>
      <trkpt lat="42.87859" lon="0.14132">
        <ele>2049.19</ele>
        <time>2015-03-17T10:28:09Z</time>
      </trkpt>
      <trkpt lat="42.87856" lon="0.14138">
        <ele>2052.07</ele>
        <time>2015-03-17T10:28:21Z</time>
      </trkpt>
      <trkpt lat="42.87855" lon="0.1414">
        <ele>2052.55</ele>
        <time>2015-03-17T10:28:24Z</time>
      </trkpt>
      <trkpt lat="42.87852" lon="0.14148">
        <ele>2053.03</ele>
        <time>2015-03-17T10:28:39Z</time>
      </trkpt>
      <trkpt lat="42.87852" lon="0.1415">
        <ele>2053.03</ele>
        <time>2015-03-17T10:28:58Z</time>
      </trkpt>
      <trkpt lat="42.87849" lon="0.14152">
        <ele>2053.03</ele>
        <time>2015-03-17T10:29:15Z</time>
      </trkpt>
      <trkpt lat="42.8785" lon="0.14154">
        <ele>2051.59</ele>
        <time>2015-03-17T10:29:27Z</time>
      </trkpt>
      <trkpt lat="42.87849" lon="0.14155">
        <ele>2053.51</ele>
        <time>2015-03-17T10:29:28Z</time>
      </trkpt>
      <trkpt lat="42.87849" lon="0.14157">
        <ele>2053.51</ele>
        <time>2015-03-17T10:29:58Z</time>
      </trkpt>
      <trkpt lat="42.87855" lon="0.14163">
        <ele>2054.47</ele>
        <time>2015-03-17T10:30:25Z</time>
      </trkpt>
      <trkpt lat="42.87852" lon="0.14163">
        <ele>2054.47</ele>
        <time>2015-03-17T10:30:43Z</time>
      </trkpt>
      <trkpt lat="42.87855" lon="0.14153">
        <ele>2054.47</ele>
        <time>2015-03-17T10:31:03Z</time>
      </trkpt>
      <trkpt lat="42.87853" lon="0.14154">
        <ele>2054.96</ele>
        <time>2015-03-17T10:31:26Z</time>
      </trkpt>
      <trkpt lat="42.87852" lon="0.14153">
        <ele>2053.51</ele>
        <time>2015-03-17T10:34:01Z</time>
      </trkpt>
      <trkpt lat="42.87852" lon="0.14154">
        <ele>2053.51</ele>
        <time>2015-03-17T10:34:26Z</time>
      </trkpt>
      <trkpt lat="42.87859" lon="0.14161">
        <ele>2054.47</ele>
        <time>2015-03-17T10:34:55Z</time>
      </trkpt>
      <trkpt lat="42.87865" lon="0.14172">
        <ele>2054.96</ele>
        <time>2015-03-17T10:35:04Z</time>
      </trkpt>
      <trkpt lat="42.87867" lon="0.14184">
        <ele>2057.84</ele>
        <time>2015-03-17T10:35:19Z</time>
      </trkpt>
      <trkpt lat="42.87876" lon="0.14198">
        <ele>2059.28</ele>
        <time>2015-03-17T10:35:33Z</time>
      </trkpt>
      <trkpt lat="42.87877" lon="0.14208">
        <ele>2061.68</ele>
        <time>2015-03-17T10:35:48Z</time>
      </trkpt>
      <trkpt lat="42.87874" lon="0.14214">
        <ele>2062.65</ele>
        <time>2015-03-17T10:36:04Z</time>
      </trkpt>
      <trkpt lat="42.87874" lon="0.14224">
        <ele>2064.57</ele>
        <time>2015-03-17T10:36:16Z</time>
      </trkpt>
      <trkpt lat="42.87876" lon="0.14236">
        <ele>2065.05</ele>
        <time>2015-03-17T10:36:29Z</time>
      </trkpt>
      <trkpt lat="42.87873" lon="0.14248">
        <ele>2066.97</ele>
        <time>2015-03-17T10:36:44Z</time>
      </trkpt>
      <trkpt lat="42.87868" lon="0.14258">
        <ele>2067.93</ele>
        <time>2015-03-17T10:36:56Z</time>
      </trkpt>
      <trkpt lat="42.87863" lon="0.14267">
        <ele>2068.41</ele>
        <time>2015-03-17T10:37:10Z</time>
      </trkpt>
      <trkpt lat="42.87861" lon="0.14271">
        <ele>2068.89</ele>
        <time>2015-03-17T10:37:28Z</time>
      </trkpt>
      <trkpt lat="42.8786" lon="0.14274">
        <ele>2069.86</ele>
        <time>2015-03-17T10:37:40Z</time>
      </trkpt>
      <trkpt lat="42.87858" lon="0.14286">
        <ele>2071.78</ele>
        <time>2015-03-17T10:37:56Z</time>
      </trkpt>
      <trkpt lat="42.87851" lon="0.14299">
        <ele>2072.74</ele>
        <time>2015-03-17T10:38:12Z</time>
      </trkpt>
      <trkpt lat="42.87848" lon="0.14311">
        <ele>2073.7</ele>
        <time>2015-03-17T10:38:26Z</time>
      </trkpt>
      <trkpt lat="42.87848" lon="0.14324">
        <ele>2075.62</ele>
        <time>2015-03-17T10:38:42Z</time>
      </trkpt>
      <trkpt lat="42.87849" lon="0.14335">
        <ele>2076.59</ele>
        <time>2015-03-17T10:38:56Z</time>
      </trkpt>
      <trkpt lat="42.87845" lon="0.14346">
        <ele>2077.55</ele>
        <time>2015-03-17T10:39:09Z</time>
      </trkpt>
      <trkpt lat="42.8784" lon="0.1436">
        <ele>2078.99</ele>
        <time>2015-03-17T10:39:25Z</time>
      </trkpt>
      <trkpt lat="42.87836" lon="0.14372">
        <ele>2078.99</ele>
        <time>2015-03-17T10:39:37Z</time>
      </trkpt>
      <trkpt lat="42.87833" lon="0.14383">
        <ele>2079.95</ele>
        <time>2015-03-17T10:39:48Z</time>
      </trkpt>
      <trkpt lat="42.87828" lon="0.14398">
        <ele>2079.95</ele>
        <time>2015-03-17T10:40:02Z</time>
      </trkpt>
      <trkpt lat="42.87826" lon="0.14407">
        <ele>2081.87</ele>
        <time>2015-03-17T10:40:14Z</time>
      </trkpt>
      <trkpt lat="42.87822" lon="0.14418">
        <ele>2082.83</ele>
        <time>2015-03-17T10:40:29Z</time>
      </trkpt>
      <trkpt lat="42.8782" lon="0.14425">
        <ele>2083.79</ele>
        <time>2015-03-17T10:40:43Z</time>
      </trkpt>
      <trkpt lat="42.87824" lon="0.14432">
        <ele>2086.2</ele>
        <time>2015-03-17T10:40:58Z</time>
      </trkpt>
      <trkpt lat="42.87822" lon="0.14446">
        <ele>2086.2</ele>
        <time>2015-03-17T10:41:15Z</time>
      </trkpt>
      <trkpt lat="42.87817" lon="0.14458">
        <ele>2086.68</ele>
        <time>2015-03-17T10:41:29Z</time>
      </trkpt>
      <trkpt lat="42.87809" lon="0.1447">
        <ele>2088.6</ele>
        <time>2015-03-17T10:41:44Z</time>
      </trkpt>
      <trkpt lat="42.87805" lon="0.1448">
        <ele>2089.56</ele>
        <time>2015-03-17T10:41:58Z</time>
      </trkpt>
      <trkpt lat="42.87802" lon="0.14491">
        <ele>2091.97</ele>
        <time>2015-03-17T10:42:13Z</time>
      </trkpt>
      <trkpt lat="42.87801" lon="0.14493">
        <ele>2092.45</ele>
        <time>2015-03-17T10:42:28Z</time>
      </trkpt>
      <trkpt lat="42.87798" lon="0.14506">
        <ele>2093.89</ele>
        <time>2015-03-17T10:42:40Z</time>
      </trkpt>
      <trkpt lat="42.87793" lon="0.14518">
        <ele>2094.37</ele>
        <time>2015-03-17T10:42:53Z</time>
      </trkpt>
      <trkpt lat="42.87788" lon="0.14528">
        <ele>2094.37</ele>
        <time>2015-03-17T10:43:04Z</time>
      </trkpt>
      <trkpt lat="42.87783" lon="0.14538">
        <ele>2094.37</ele>
        <time>2015-03-17T10:43:14Z</time>
      </trkpt>
      <trkpt lat="42.87779" lon="0.1455">
        <ele>2096.29</ele>
        <time>2015-03-17T10:43:27Z</time>
      </trkpt>
      <trkpt lat="42.87778" lon="0.14553">
        <ele>2096.77</ele>
        <time>2015-03-17T10:43:30Z</time>
      </trkpt>
      <trkpt lat="42.87775" lon="0.14565">
        <ele>2098.7</ele>
        <time>2015-03-17T10:43:43Z</time>
      </trkpt>
      <trkpt lat="42.87773" lon="0.14578">
        <ele>2100.14</ele>
        <time>2015-03-17T10:43:55Z</time>
      </trkpt>
      <trkpt lat="42.87769" lon="0.1459">
        <ele>2101.58</ele>
        <time>2015-03-17T10:44:09Z</time>
      </trkpt>
      <trkpt lat="42.87765" lon="0.146">
        <ele>2102.54</ele>
        <time>2015-03-17T10:44:20Z</time>
      </trkpt>
      <trkpt lat="42.87761" lon="0.14604">
        <ele>2102.54</ele>
        <time>2015-03-17T10:44:27Z</time>
      </trkpt>
      <trkpt lat="42.87758" lon="0.14615">
        <ele>2103.98</ele>
        <time>2015-03-17T10:44:43Z</time>
      </trkpt>
      <trkpt lat="42.87754" lon="0.14619">
        <ele>2103.5</ele>
        <time>2015-03-17T10:45:01Z</time>
      </trkpt>
      <trkpt lat="42.87748" lon="0.14624">
        <ele>2103.5</ele>
        <time>2015-03-17T10:45:13Z</time>
      </trkpt>
      <trkpt lat="42.8774" lon="0.14632">
        <ele>2103.02</ele>
        <time>2015-03-17T10:45:27Z</time>
      </trkpt>
      <trkpt lat="42.87733" lon="0.14639">
        <ele>2103.5</ele>
        <time>2015-03-17T10:45:40Z</time>
      </trkpt>
      <trkpt lat="42.87726" lon="0.14647">
        <ele>2103.98</ele>
        <time>2015-03-17T10:45:53Z</time>
      </trkpt>
      <trkpt lat="42.87719" lon="0.14656">
        <ele>2104.94</ele>
        <time>2015-03-17T10:46:07Z</time>
      </trkpt>
      <trkpt lat="42.87712" lon="0.14665">
        <ele>2104.94</ele>
        <time>2015-03-17T10:46:19Z</time>
      </trkpt>
      <trkpt lat="42.87704" lon="0.14674">
        <ele>2104.94</ele>
        <time>2015-03-17T10:46:33Z</time>
      </trkpt>
      <trkpt lat="42.87701" lon="0.14676">
        <ele>2105.91</ele>
        <time>2015-03-17T10:46:48Z</time>
      </trkpt>
      <trkpt lat="42.87695" lon="0.14686">
        <ele>2106.39</ele>
        <time>2015-03-17T10:47:01Z</time>
      </trkpt>
      <trkpt lat="42.87691" lon="0.14691">
        <ele>2107.83</ele>
        <time>2015-03-17T10:47:17Z</time>
      </trkpt>
      <trkpt lat="42.87687" lon="0.14696">
        <ele>2108.79</ele>
        <time>2015-03-17T10:47:32Z</time>
      </trkpt>
      <trkpt lat="42.87683" lon="0.14704">
        <ele>2109.75</ele>
        <time>2015-03-17T10:47:45Z</time>
      </trkpt>
      <trkpt lat="42.8768" lon="0.14709">
        <ele>2111.19</ele>
        <time>2015-03-17T10:47:58Z</time>
      </trkpt>
      <trkpt lat="42.87677" lon="0.14715">
        <ele>2112.63</ele>
        <time>2015-03-17T10:48:12Z</time>
      </trkpt>
      <trkpt lat="42.87674" lon="0.1472">
        <ele>2113.6</ele>
        <time>2015-03-17T10:48:25Z</time>
      </trkpt>
      <trkpt lat="42.87672" lon="0.14723">
        <ele>2114.08</ele>
        <time>2015-03-17T10:48:44Z</time>
      </trkpt>
      <trkpt lat="42.87667" lon="0.14727">
        <ele>2116</ele>
        <time>2015-03-17T10:49:02Z</time>
      </trkpt>
      <trkpt lat="42.87663" lon="0.14736">
        <ele>2117.44</ele>
        <time>2015-03-17T10:49:19Z</time>
      </trkpt>
      <trkpt lat="42.87658" lon="0.14744">
        <ele>2118.4</ele>
        <time>2015-03-17T10:49:32Z</time>
      </trkpt>
      <trkpt lat="42.87654" lon="0.14754">
        <ele>2119.84</ele>
        <time>2015-03-17T10:49:46Z</time>
      </trkpt>
      <trkpt lat="42.87646" lon="0.14762">
        <ele>2121.29</ele>
        <time>2015-03-17T10:50:02Z</time>
      </trkpt>
      <trkpt lat="42.87639" lon="0.14767">
        <ele>2122.73</ele>
        <time>2015-03-17T10:50:14Z</time>
      </trkpt>
      <trkpt lat="42.87632" lon="0.14772">
        <ele>2124.65</ele>
        <time>2015-03-17T10:50:27Z</time>
      </trkpt>
      <trkpt lat="42.87625" lon="0.14779">
        <ele>2126.57</ele>
        <time>2015-03-17T10:50:43Z</time>
      </trkpt>
      <trkpt lat="42.8762" lon="0.14786">
        <ele>2127.53</ele>
        <time>2015-03-17T10:50:57Z</time>
      </trkpt>
      <trkpt lat="42.87611" lon="0.14792">
        <ele>2129.94</ele>
        <time>2015-03-17T10:51:12Z</time>
      </trkpt>
      <trkpt lat="42.87606" lon="0.14796">
        <ele>2130.9</ele>
        <time>2015-03-17T10:51:24Z</time>
      </trkpt>
      <trkpt lat="42.87599" lon="0.14805">
        <ele>2131.38</ele>
        <time>2015-03-17T10:51:38Z</time>
      </trkpt>
      <trkpt lat="42.87598" lon="0.14803">
        <ele>2131.38</ele>
        <time>2015-03-17T10:51:46Z</time>
      </trkpt>
      <trkpt lat="42.87586" lon="0.14817">
        <ele>2131.38</ele>
        <time>2015-03-17T10:52:02Z</time>
      </trkpt>
      <trkpt lat="42.87576" lon="0.14826">
        <ele>2130.9</ele>
        <time>2015-03-17T10:52:16Z</time>
      </trkpt>
      <trkpt lat="42.87568" lon="0.14832">
        <ele>2130.9</ele>
        <time>2015-03-17T10:52:28Z</time>
      </trkpt>
      <trkpt lat="42.87556" lon="0.14843">
        <ele>2130.42</ele>
        <time>2015-03-17T10:52:45Z</time>
      </trkpt>
      <trkpt lat="42.87548" lon="0.1485">
        <ele>2130.42</ele>
        <time>2015-03-17T10:52:56Z</time>
      </trkpt>
      <trkpt lat="42.87537" lon="0.14858">
        <ele>2130.9</ele>
        <time>2015-03-17T10:53:11Z</time>
      </trkpt>
      <trkpt lat="42.87527" lon="0.14863">
        <ele>2130.42</ele>
        <time>2015-03-17T10:53:25Z</time>
      </trkpt>
      <trkpt lat="42.87514" lon="0.1487">
        <ele>2131.38</ele>
        <time>2015-03-17T10:53:41Z</time>
      </trkpt>
      <trkpt lat="42.87513" lon="0.14871">
        <ele>2131.38</ele>
        <time>2015-03-17T10:53:43Z</time>
      </trkpt>
      <trkpt lat="42.87505" lon="0.14877">
        <ele>2133.3</ele>
        <time>2015-03-17T10:53:57Z</time>
      </trkpt>
      <trkpt lat="42.87505" lon="0.14877">
        <ele>2132.82</ele>
        <time>2015-03-17T10:53:58Z</time>
      </trkpt>
      <trkpt lat="42.87502" lon="0.14878">
        <ele>2132.82</ele>
        <time>2015-03-17T10:54:01Z</time>
      </trkpt>
      <trkpt lat="42.87494" lon="0.14884">
        <ele>2133.3</ele>
        <time>2015-03-17T10:54:15Z</time>
      </trkpt>
      <trkpt lat="42.87485" lon="0.14892">
        <ele>2134.74</ele>
        <time>2015-03-17T10:54:29Z</time>
      </trkpt>
      <trkpt lat="42.87475" lon="0.14899">
        <ele>2135.23</ele>
        <time>2015-03-17T10:54:43Z</time>
      </trkpt>
      <trkpt lat="42.87466" lon="0.14907">
        <ele>2135.71</ele>
        <time>2015-03-17T10:54:58Z</time>
      </trkpt>
      <trkpt lat="42.87456" lon="0.14912">
        <ele>2135.23</ele>
        <time>2015-03-17T10:55:10Z</time>
      </trkpt>
      <trkpt lat="42.87453" lon="0.14915">
        <ele>2135.71</ele>
        <time>2015-03-17T10:55:14Z</time>
      </trkpt>
      <trkpt lat="42.87443" lon="0.14922">
        <ele>2135.71</ele>
        <time>2015-03-17T10:55:27Z</time>
      </trkpt>
      <trkpt lat="42.87435" lon="0.14929">
        <ele>2136.19</ele>
        <time>2015-03-17T10:55:38Z</time>
      </trkpt>
      <trkpt lat="42.87426" lon="0.14936">
        <ele>2136.19</ele>
        <time>2015-03-17T10:55:52Z</time>
      </trkpt>
      <trkpt lat="42.87417" lon="0.14944">
        <ele>2137.63</ele>
        <time>2015-03-17T10:56:06Z</time>
      </trkpt>
      <trkpt lat="42.87407" lon="0.14952">
        <ele>2138.59</ele>
        <time>2015-03-17T10:56:19Z</time>
      </trkpt>
      <trkpt lat="42.87398" lon="0.14959">
        <ele>2140.03</ele>
        <time>2015-03-17T10:56:33Z</time>
      </trkpt>
      <trkpt lat="42.87387" lon="0.14965">
        <ele>2140.51</ele>
        <time>2015-03-17T10:56:48Z</time>
      </trkpt>
      <trkpt lat="42.87379" lon="0.14972">
        <ele>2142.44</ele>
        <time>2015-03-17T10:57:02Z</time>
      </trkpt>
      <trkpt lat="42.87374" lon="0.14975">
        <ele>2144.36</ele>
        <time>2015-03-17T10:57:16Z</time>
      </trkpt>
      <trkpt lat="42.87367" lon="0.14982">
        <ele>2144.84</ele>
        <time>2015-03-17T10:57:28Z</time>
      </trkpt>
      <trkpt lat="42.87359" lon="0.14987">
        <ele>2145.32</ele>
        <time>2015-03-17T10:57:41Z</time>
      </trkpt>
      <trkpt lat="42.87353" lon="0.14991">
        <ele>2145.8</ele>
        <time>2015-03-17T10:57:55Z</time>
      </trkpt>
      <trkpt lat="42.87349" lon="0.14996">
        <ele>2145.8</ele>
        <time>2015-03-17T10:58:09Z</time>
      </trkpt>
      <trkpt lat="42.87339" lon="0.15004">
        <ele>2146.76</ele>
        <time>2015-03-17T10:58:22Z</time>
      </trkpt>
      <trkpt lat="42.87338" lon="0.15004">
        <ele>2146.76</ele>
        <time>2015-03-17T10:58:23Z</time>
      </trkpt>
      <trkpt lat="42.87328" lon="0.15011">
        <ele>2147.24</ele>
        <time>2015-03-17T10:58:37Z</time>
      </trkpt>
      <trkpt lat="42.87319" lon="0.15017">
        <ele>2148.2</ele>
        <time>2015-03-17T10:58:49Z</time>
      </trkpt>
      <trkpt lat="42.87309" lon="0.15022">
        <ele>2148.68</ele>
        <time>2015-03-17T10:59:02Z</time>
      </trkpt>
      <trkpt lat="42.87298" lon="0.15029">
        <ele>2149.65</ele>
        <time>2015-03-17T10:59:17Z</time>
      </trkpt>
      <trkpt lat="42.87289" lon="0.15038">
        <ele>2150.13</ele>
        <time>2015-03-17T10:59:30Z</time>
      </trkpt>
      <trkpt lat="42.8728" lon="0.15043">
        <ele>2150.61</ele>
        <time>2015-03-17T10:59:41Z</time>
      </trkpt>
      <trkpt lat="42.87272" lon="0.15046">
        <ele>2151.57</ele>
        <time>2015-03-17T10:59:53Z</time>
      </trkpt>
      <trkpt lat="42.8727" lon="0.15046">
        <ele>2151.57</ele>
        <time>2015-03-17T10:59:56Z</time>
      </trkpt>
      <trkpt lat="42.87265" lon="0.15046">
        <ele>2152.05</ele>
        <time>2015-03-17T11:00:03Z</time>
      </trkpt>
      <trkpt lat="42.87257" lon="0.15047">
        <ele>2152.53</ele>
        <time>2015-03-17T11:00:16Z</time>
      </trkpt>
      <trkpt lat="42.87248" lon="0.15047">
        <ele>2153.49</ele>
        <time>2015-03-17T11:00:28Z</time>
      </trkpt>
      <trkpt lat="42.8724" lon="0.15043">
        <ele>2155.41</ele>
        <time>2015-03-17T11:00:47Z</time>
      </trkpt>
      <trkpt lat="42.8723" lon="0.1504">
        <ele>2156.86</ele>
        <time>2015-03-17T11:01:01Z</time>
      </trkpt>
      <trkpt lat="42.87222" lon="0.15035">
        <ele>2158.3</ele>
        <time>2015-03-17T11:01:14Z</time>
      </trkpt>
      <trkpt lat="42.87217" lon="0.15027">
        <ele>2159.26</ele>
        <time>2015-03-17T11:01:27Z</time>
      </trkpt>
      <trkpt lat="42.87212" lon="0.15017">
        <ele>2161.66</ele>
        <time>2015-03-17T11:01:44Z</time>
      </trkpt>
      <trkpt lat="42.87208" lon="0.15011">
        <ele>2163.1</ele>
        <time>2015-03-17T11:01:59Z</time>
      </trkpt>
      <trkpt lat="42.87202" lon="0.15004">
        <ele>2164.55</ele>
        <time>2015-03-17T11:02:15Z</time>
      </trkpt>
      <trkpt lat="42.87196" lon="0.14998">
        <ele>2165.99</ele>
        <time>2015-03-17T11:02:29Z</time>
      </trkpt>
      <trkpt lat="42.87193" lon="0.14994">
        <ele>2166.95</ele>
        <time>2015-03-17T11:02:42Z</time>
      </trkpt>
      <trkpt lat="42.87185" lon="0.14989">
        <ele>2168.87</ele>
        <time>2015-03-17T11:02:56Z</time>
      </trkpt>
      <trkpt lat="42.87182" lon="0.14999">
        <ele>2170.79</ele>
        <time>2015-03-17T11:03:10Z</time>
      </trkpt>
      <trkpt lat="42.87178" lon="0.15007">
        <ele>2172.24</ele>
        <time>2015-03-17T11:03:24Z</time>
      </trkpt>
      <trkpt lat="42.87173" lon="0.15014">
        <ele>2174.64</ele>
        <time>2015-03-17T11:03:39Z</time>
      </trkpt>
      <trkpt lat="42.87169" lon="0.15016">
        <ele>2175.6</ele>
        <time>2015-03-17T11:03:50Z</time>
      </trkpt>
      <trkpt lat="42.87168" lon="0.15016">
        <ele>2176.08</ele>
        <time>2015-03-17T11:04:07Z</time>
      </trkpt>
      <trkpt lat="42.87162" lon="0.15012">
        <ele>2177.04</ele>
        <time>2015-03-17T11:04:19Z</time>
      </trkpt>
      <trkpt lat="42.87159" lon="0.15009">
        <ele>2178</ele>
        <time>2015-03-17T11:04:34Z</time>
      </trkpt>
      <trkpt lat="42.87151" lon="0.15004">
        <ele>2179.93</ele>
        <time>2015-03-17T11:04:50Z</time>
      </trkpt>
      <trkpt lat="42.87143" lon="0.14998">
        <ele>2181.37</ele>
        <time>2015-03-17T11:05:05Z</time>
      </trkpt>
      <trkpt lat="42.87138" lon="0.14991">
        <ele>2183.29</ele>
        <time>2015-03-17T11:05:18Z</time>
      </trkpt>
      <trkpt lat="42.87133" lon="0.14984">
        <ele>2184.73</ele>
        <time>2015-03-17T11:05:32Z</time>
      </trkpt>
      <trkpt lat="42.87127" lon="0.14983">
        <ele>2187.62</ele>
        <time>2015-03-17T11:05:46Z</time>
      </trkpt>
      <trkpt lat="42.87123" lon="0.14989">
        <ele>2189.06</ele>
        <time>2015-03-17T11:06:01Z</time>
      </trkpt>
      <trkpt lat="42.8712" lon="0.14995">
        <ele>2190.5</ele>
        <time>2015-03-17T11:06:15Z</time>
      </trkpt>
      <trkpt lat="42.8711" lon="0.1499">
        <ele>2192.9</ele>
        <time>2015-03-17T11:06:30Z</time>
      </trkpt>
      <trkpt lat="42.87102" lon="0.14988">
        <ele>2194.83</ele>
        <time>2015-03-17T11:06:42Z</time>
      </trkpt>
      <trkpt lat="42.87095" lon="0.14986">
        <ele>2196.75</ele>
        <time>2015-03-17T11:06:57Z</time>
      </trkpt>
      <trkpt lat="42.87086" lon="0.14984">
        <ele>2197.71</ele>
        <time>2015-03-17T11:07:11Z</time>
      </trkpt>
      <trkpt lat="42.87082" lon="0.14988">
        <ele>2200.11</ele>
        <time>2015-03-17T11:07:25Z</time>
      </trkpt>
      <trkpt lat="42.87077" lon="0.14994">
        <ele>2201.08</ele>
        <time>2015-03-17T11:07:39Z</time>
      </trkpt>
      <trkpt lat="42.87071" lon="0.14998">
        <ele>2203.48</ele>
        <time>2015-03-17T11:07:53Z</time>
      </trkpt>
      <trkpt lat="42.87065" lon="0.14992">
        <ele>2204.44</ele>
        <time>2015-03-17T11:08:07Z</time>
      </trkpt>
      <trkpt lat="42.87062" lon="0.14985">
        <ele>2205.4</ele>
        <time>2015-03-17T11:08:22Z</time>
      </trkpt>
      <trkpt lat="42.87061" lon="0.14975">
        <ele>2208.29</ele>
        <time>2015-03-17T11:08:34Z</time>
      </trkpt>
      <trkpt lat="42.87059" lon="0.14964">
        <ele>2209.73</ele>
        <time>2015-03-17T11:08:48Z</time>
      </trkpt>
      <trkpt lat="42.87059" lon="0.14957">
        <ele>2211.17</ele>
        <time>2015-03-17T11:09:04Z</time>
      </trkpt>
      <trkpt lat="42.87059" lon="0.1495">
        <ele>2212.61</ele>
        <time>2015-03-17T11:09:16Z</time>
      </trkpt>
      <trkpt lat="42.8706" lon="0.14947">
        <ele>2213.09</ele>
        <time>2015-03-17T11:09:32Z</time>
      </trkpt>
      <trkpt lat="42.87062" lon="0.14939">
        <ele>2215.01</ele>
        <time>2015-03-17T11:09:47Z</time>
      </trkpt>
      <trkpt lat="42.87063" lon="0.14939">
        <ele>2215.01</ele>
        <time>2015-03-17T11:10:05Z</time>
      </trkpt>
      <trkpt lat="42.87062" lon="0.14942">
        <ele>2215.5</ele>
        <time>2015-03-17T11:10:27Z</time>
      </trkpt>
      <trkpt lat="42.87063" lon="0.14941">
        <ele>2215.98</ele>
        <time>2015-03-17T11:10:55Z</time>
      </trkpt>
      <trkpt lat="42.87063" lon="0.14941">
        <ele>2215.98</ele>
        <time>2015-03-17T11:11:22Z</time>
      </trkpt>
      <trkpt lat="42.87065" lon="0.14933">
        <ele>2216.46</ele>
        <time>2015-03-17T11:11:38Z</time>
      </trkpt>
      <trkpt lat="42.87069" lon="0.14919">
        <ele>2216.94</ele>
        <time>2015-03-17T11:11:52Z</time>
      </trkpt>
      <trkpt lat="42.87074" lon="0.14906">
        <ele>2218.38</ele>
        <time>2015-03-17T11:12:07Z</time>
      </trkpt>
      <trkpt lat="42.87079" lon="0.14897">
        <ele>2220.3</ele>
        <time>2015-03-17T11:12:20Z</time>
      </trkpt>
      <trkpt lat="42.87083" lon="0.14888">
        <ele>2221.74</ele>
        <time>2015-03-17T11:12:33Z</time>
      </trkpt>
      <trkpt lat="42.87088" lon="0.14882">
        <ele>2223.67</ele>
        <time>2015-03-17T11:12:46Z</time>
      </trkpt>
      <trkpt lat="42.87085" lon="0.1488">
        <ele>2225.59</ele>
        <time>2015-03-17T11:13:00Z</time>
      </trkpt>
      <trkpt lat="42.87077" lon="0.14881">
        <ele>2226.07</ele>
        <time>2015-03-17T11:13:14Z</time>
      </trkpt>
      <trkpt lat="42.8707" lon="0.14883">
        <ele>2228.47</ele>
        <time>2015-03-17T11:13:28Z</time>
      </trkpt>
      <trkpt lat="42.87063" lon="0.14885">
        <ele>2229.92</ele>
        <time>2015-03-17T11:13:42Z</time>
      </trkpt>
      <trkpt lat="42.87056" lon="0.14886">
        <ele>2231.36</ele>
        <time>2015-03-17T11:13:56Z</time>
      </trkpt>
      <trkpt lat="42.87048" lon="0.14888">
        <ele>2232.8</ele>
        <time>2015-03-17T11:14:09Z</time>
      </trkpt>
      <trkpt lat="42.87042" lon="0.14887">
        <ele>2235.68</ele>
        <time>2015-03-17T11:14:22Z</time>
      </trkpt>
      <trkpt lat="42.8704" lon="0.14889">
        <ele>2235.2</ele>
        <time>2015-03-17T11:14:36Z</time>
      </trkpt>
      <trkpt lat="42.87032" lon="0.14892">
        <ele>2235.2</ele>
        <time>2015-03-17T11:14:49Z</time>
      </trkpt>
      <trkpt lat="42.8702" lon="0.14894">
        <ele>2235.68</ele>
        <time>2015-03-17T11:15:03Z</time>
      </trkpt>
      <trkpt lat="42.87009" lon="0.14896">
        <ele>2235.68</ele>
        <time>2015-03-17T11:15:18Z</time>
      </trkpt>
      <trkpt lat="42.86999" lon="0.14895">
        <ele>2237.13</ele>
        <time>2015-03-17T11:15:31Z</time>
      </trkpt>
      <trkpt lat="42.86993" lon="0.14887">
        <ele>2239.53</ele>
        <time>2015-03-17T11:15:46Z</time>
      </trkpt>
      <trkpt lat="42.86986" lon="0.14878">
        <ele>2242.41</ele>
        <time>2015-03-17T11:16:02Z</time>
      </trkpt>
      <trkpt lat="42.86982" lon="0.1487">
        <ele>2243.37</ele>
        <time>2015-03-17T11:16:16Z</time>
      </trkpt>
      <trkpt lat="42.86979" lon="0.1486">
        <ele>2245.3</ele>
        <time>2015-03-17T11:16:31Z</time>
      </trkpt>
      <trkpt lat="42.86978" lon="0.1485">
        <ele>2246.74</ele>
        <time>2015-03-17T11:16:45Z</time>
      </trkpt>
      <trkpt lat="42.86977" lon="0.1484">
        <ele>2248.66</ele>
        <time>2015-03-17T11:16:58Z</time>
      </trkpt>
      <trkpt lat="42.86979" lon="0.1484">
        <ele>2249.62</ele>
        <time>2015-03-17T11:17:15Z</time>
      </trkpt>
      <trkpt lat="42.86978" lon="0.14832">
        <ele>2250.58</ele>
        <time>2015-03-17T11:17:35Z</time>
      </trkpt>
      <trkpt lat="42.86976" lon="0.14823">
        <ele>2252.03</ele>
        <time>2015-03-17T11:17:50Z</time>
      </trkpt>
      <trkpt lat="42.86967" lon="0.1482">
        <ele>2254.43</ele>
        <time>2015-03-17T11:18:05Z</time>
      </trkpt>
      <trkpt lat="42.86959" lon="0.1482">
        <ele>2256.83</ele>
        <time>2015-03-17T11:18:21Z</time>
      </trkpt>
      <trkpt lat="42.8695" lon="0.14819">
        <ele>2258.75</ele>
        <time>2015-03-17T11:18:36Z</time>
      </trkpt>
      <trkpt lat="42.86944" lon="0.14817">
        <ele>2260.68</ele>
        <time>2015-03-17T11:18:50Z</time>
      </trkpt>
      <trkpt lat="42.86937" lon="0.14815">
        <ele>2262.6</ele>
        <time>2015-03-17T11:19:04Z</time>
      </trkpt>
      <trkpt lat="42.8693" lon="0.14819">
        <ele>2264.04</ele>
        <time>2015-03-17T11:19:16Z</time>
      </trkpt>
      <trkpt lat="42.86923" lon="0.14822">
        <ele>2265</ele>
        <time>2015-03-17T11:19:28Z</time>
      </trkpt>
      <trkpt lat="42.86916" lon="0.14824">
        <ele>2265.48</ele>
        <time>2015-03-17T11:19:40Z</time>
      </trkpt>
      <trkpt lat="42.8691" lon="0.14828">
        <ele>2266.93</ele>
        <time>2015-03-17T11:19:51Z</time>
      </trkpt>
      <trkpt lat="42.86901" lon="0.14833">
        <ele>2268.85</ele>
        <time>2015-03-17T11:20:04Z</time>
      </trkpt>
      <trkpt lat="42.869" lon="0.14834">
        <ele>2268.85</ele>
        <time>2015-03-17T11:20:07Z</time>
      </trkpt>
      <trkpt lat="42.86891" lon="0.14836">
        <ele>2270.29</ele>
        <time>2015-03-17T11:20:20Z</time>
      </trkpt>
      <trkpt lat="42.86887" lon="0.1483">
        <ele>2271.73</ele>
        <time>2015-03-17T11:20:35Z</time>
      </trkpt>
      <trkpt lat="42.86883" lon="0.14823">
        <ele>2273.66</ele>
        <time>2015-03-17T11:20:48Z</time>
      </trkpt>
      <trkpt lat="42.8688" lon="0.14819">
        <ele>2275.1</ele>
        <time>2015-03-17T11:21:03Z</time>
      </trkpt>
      <trkpt lat="42.86878" lon="0.14819">
        <ele>2275.58</ele>
        <time>2015-03-17T11:21:14Z</time>
      </trkpt>
      <trkpt lat="42.86876" lon="0.14815">
        <ele>2276.54</ele>
        <time>2015-03-17T11:21:30Z</time>
      </trkpt>
      <trkpt lat="42.86873" lon="0.14806">
        <ele>2278.94</ele>
        <time>2015-03-17T11:21:44Z</time>
      </trkpt>
      <trkpt lat="42.86873" lon="0.14802">
        <ele>2279.9</ele>
        <time>2015-03-17T11:21:57Z</time>
      </trkpt>
      <trkpt lat="42.86871" lon="0.1481">
        <ele>2281.35</ele>
        <time>2015-03-17T11:22:12Z</time>
      </trkpt>
      <trkpt lat="42.86863" lon="0.14808">
        <ele>2283.27</ele>
        <time>2015-03-17T11:22:26Z</time>
      </trkpt>
      <trkpt lat="42.86856" lon="0.14804">
        <ele>2285.19</ele>
        <time>2015-03-17T11:22:43Z</time>
      </trkpt>
      <trkpt lat="42.8685" lon="0.14801">
        <ele>2287.11</ele>
        <time>2015-03-17T11:22:57Z</time>
      </trkpt>
      <trkpt lat="42.86845" lon="0.14797">
        <ele>2288.56</ele>
        <time>2015-03-17T11:23:12Z</time>
      </trkpt>
      <trkpt lat="42.8684" lon="0.14796">
        <ele>2290</ele>
        <time>2015-03-17T11:23:24Z</time>
      </trkpt>
      <trkpt lat="42.86834" lon="0.14795">
        <ele>2292.4</ele>
        <time>2015-03-17T11:23:38Z</time>
      </trkpt>
      <trkpt lat="42.86831" lon="0.14794">
        <ele>2293.36</ele>
        <time>2015-03-17T11:23:50Z</time>
      </trkpt>
      <trkpt lat="42.86825" lon="0.14793">
        <ele>2294.8</ele>
        <time>2015-03-17T11:24:06Z</time>
      </trkpt>
      <trkpt lat="42.86817" lon="0.14792">
        <ele>2296.25</ele>
        <time>2015-03-17T11:24:20Z</time>
      </trkpt>
      <trkpt lat="42.86811" lon="0.14791">
        <ele>2297.69</ele>
        <time>2015-03-17T11:24:34Z</time>
      </trkpt>
      <trkpt lat="42.86805" lon="0.14789">
        <ele>2298.17</ele>
        <time>2015-03-17T11:24:46Z</time>
      </trkpt>
      <trkpt lat="42.86799" lon="0.14785">
        <ele>2300.09</ele>
        <time>2015-03-17T11:25:01Z</time>
      </trkpt>
      <trkpt lat="42.86793" lon="0.14776">
        <ele>2302.01</ele>
        <time>2015-03-17T11:25:16Z</time>
      </trkpt>
      <trkpt lat="42.86791" lon="0.14768">
        <ele>2303.46</ele>
        <time>2015-03-17T11:25:30Z</time>
      </trkpt>
      <trkpt lat="42.86785" lon="0.1476">
        <ele>2305.38</ele>
        <time>2015-03-17T11:25:44Z</time>
      </trkpt>
      <trkpt lat="42.86781" lon="0.14755">
        <ele>2306.82</ele>
        <time>2015-03-17T11:25:58Z</time>
      </trkpt>
      <trkpt lat="42.8678" lon="0.14755">
        <ele>2306.34</ele>
        <time>2015-03-17T11:26:21Z</time>
      </trkpt>
      <trkpt lat="42.86781" lon="0.14754">
        <ele>2306.82</ele>
        <time>2015-03-17T11:26:36Z</time>
      </trkpt>
      <trkpt lat="42.86782" lon="0.14754">
        <ele>2307.3</ele>
        <time>2015-03-17T11:27:29Z</time>
      </trkpt>
      <trkpt lat="42.86783" lon="0.14753">
        <ele>2307.3</ele>
        <time>2015-03-17T11:27:58Z</time>
      </trkpt>
      <trkpt lat="42.86783" lon="0.14757">
        <ele>2307.3</ele>
        <time>2015-03-17T11:28:29Z</time>
      </trkpt>
      <trkpt lat="42.86783" lon="0.14755">
        <ele>2307.3</ele>
        <time>2015-03-17T11:29:00Z</time>
      </trkpt>
      <trkpt lat="42.86778" lon="0.14751">
        <ele>2307.3</ele>
        <time>2015-03-17T11:29:33Z</time>
      </trkpt>
      <trkpt lat="42.86773" lon="0.14744">
        <ele>2307.78</ele>
        <time>2015-03-17T11:29:47Z</time>
      </trkpt>
      <trkpt lat="42.86766" lon="0.14732">
        <ele>2307.78</ele>
        <time>2015-03-17T11:29:59Z</time>
      </trkpt>
      <trkpt lat="42.86762" lon="0.14727">
        <ele>2307.78</ele>
        <time>2015-03-17T11:30:07Z</time>
      </trkpt>
      <trkpt lat="42.86761" lon="0.14724">
        <ele>2307.78</ele>
        <time>2015-03-17T11:30:10Z</time>
      </trkpt>
      <trkpt lat="42.8676" lon="0.14721">
        <ele>2307.78</ele>
        <time>2015-03-17T11:30:13Z</time>
      </trkpt>
      <trkpt lat="42.86753" lon="0.14707">
        <ele>2307.78</ele>
        <time>2015-03-17T11:30:27Z</time>
      </trkpt>
      <trkpt lat="42.86747" lon="0.14694">
        <ele>2308.74</ele>
        <time>2015-03-17T11:30:40Z</time>
      </trkpt>
      <trkpt lat="42.86742" lon="0.14681">
        <ele>2308.74</ele>
        <time>2015-03-17T11:30:53Z</time>
      </trkpt>
      <trkpt lat="42.86737" lon="0.14672">
        <ele>2308.74</ele>
        <time>2015-03-17T11:31:06Z</time>
      </trkpt>
      <trkpt lat="42.86734" lon="0.14661">
        <ele>2309.22</ele>
        <time>2015-03-17T11:31:24Z</time>
      </trkpt>
      <trkpt lat="42.86734" lon="0.14663">
        <ele>2309.22</ele>
        <time>2015-03-17T11:31:42Z</time>
      </trkpt>
      <trkpt lat="42.86731" lon="0.14662">
        <ele>2309.7</ele>
        <time>2015-03-17T11:32:05Z</time>
      </trkpt>
      <trkpt lat="42.86724" lon="0.14671">
        <ele>2313.07</ele>
        <time>2015-03-17T11:36:17Z</time>
      </trkpt>
      <trkpt lat="42.86725" lon="0.14669">
        <ele>2313.55</ele>
        <time>2015-03-17T12:00:54Z</time>
      </trkpt>
      <trkpt lat="42.86725" lon="0.14669">
        <ele>2313.07</ele>
        <time>2015-03-17T12:01:27Z</time>
      </trkpt>
      <trkpt lat="42.86728" lon="0.14662">
        <ele>2313.07</ele>
        <time>2015-03-17T12:08:27Z</time>
      </trkpt>
      <trkpt lat="42.86729" lon="0.14663">
        <ele>2313.55</ele>
        <time>2015-03-17T12:11:22Z</time>
      </trkpt>
      <trkpt lat="42.86728" lon="0.14663">
        <ele>2313.55</ele>
        <time>2015-03-17T12:12:09Z</time>
      </trkpt>
      <trkpt lat="42.86723" lon="0.14665">
        <ele>2314.99</ele>
        <time>2015-03-17T12:14:18Z</time>
      </trkpt>
      <trkpt lat="42.86727" lon="0.14663">
        <ele>2314.51</ele>
        <time>2015-03-17T12:15:07Z</time>
      </trkpt>
      <trkpt lat="42.86729" lon="0.14659">
        <ele>2314.03</ele>
        <time>2015-03-17T12:15:30Z</time>
      </trkpt>
      <trkpt lat="42.86727" lon="0.14661">
        <ele>2313.55</ele>
        <time>2015-03-17T12:21:51Z</time>
      </trkpt>
      <trkpt lat="42.86741" lon="0.14664">
        <ele>2310.67</ele>
        <time>2015-03-17T12:22:05Z</time>
      </trkpt>
      <trkpt lat="42.86751" lon="0.14666">
        <ele>2310.19</ele>
        <time>2015-03-17T12:22:14Z</time>
      </trkpt>
      <trkpt lat="42.86754" lon="0.14667">
        <ele>2310.19</ele>
        <time>2015-03-17T12:22:17Z</time>
      </trkpt>
      <trkpt lat="42.86756" lon="0.14667">
        <ele>2310.19</ele>
        <time>2015-03-17T12:22:32Z</time>
      </trkpt>
      <trkpt lat="42.86756" lon="0.14667">
        <ele>2310.19</ele>
        <time>2015-03-17T12:22:53Z</time>
      </trkpt>
      <trkpt lat="42.86756" lon="0.14669">
        <ele>2310.67</ele>
        <time>2015-03-17T12:23:03Z</time>
      </trkpt>
      <trkpt lat="42.86749" lon="0.14689">
        <ele>2310.19</ele>
        <time>2015-03-17T12:23:18Z</time>
      </trkpt>
      <trkpt lat="42.8675" lon="0.14695">
        <ele>2310.67</ele>
        <time>2015-03-17T12:23:24Z</time>
      </trkpt>
      <trkpt lat="42.86753" lon="0.147">
        <ele>2310.19</ele>
        <time>2015-03-17T12:23:28Z</time>
      </trkpt>
      <trkpt lat="42.86761" lon="0.14721">
        <ele>2308.74</ele>
        <time>2015-03-17T12:23:42Z</time>
      </trkpt>
      <trkpt lat="42.86772" lon="0.14738">
        <ele>2309.22</ele>
        <time>2015-03-17T12:23:57Z</time>
      </trkpt>
      <trkpt lat="42.8678" lon="0.14751">
        <ele>2308.74</ele>
        <time>2015-03-17T12:24:08Z</time>
      </trkpt>
      <trkpt lat="42.86786" lon="0.14759">
        <ele>2308.26</ele>
        <time>2015-03-17T12:24:18Z</time>
      </trkpt>
      <trkpt lat="42.86789" lon="0.14762">
        <ele>2307.3</ele>
        <time>2015-03-17T12:24:22Z</time>
      </trkpt>
      <trkpt lat="42.86797" lon="0.14776">
        <ele>2304.42</ele>
        <time>2015-03-17T12:24:36Z</time>
      </trkpt>
      <trkpt lat="42.86799" lon="0.14783">
        <ele>2302.98</ele>
        <time>2015-03-17T12:24:42Z</time>
      </trkpt>
      <trkpt lat="42.86804" lon="0.14788">
        <ele>2301.05</ele>
        <time>2015-03-17T12:24:49Z</time>
      </trkpt>
      <trkpt lat="42.86813" lon="0.14789">
        <ele>2299.13</ele>
        <time>2015-03-17T12:25:00Z</time>
      </trkpt>
      <trkpt lat="42.86827" lon="0.14792">
        <ele>2296.25</ele>
        <time>2015-03-17T12:25:12Z</time>
      </trkpt>
      <trkpt lat="42.86832" lon="0.14793">
        <ele>2295.28</ele>
        <time>2015-03-17T12:25:16Z</time>
      </trkpt>
      <trkpt lat="42.86834" lon="0.14793">
        <ele>2294.8</ele>
        <time>2015-03-17T12:25:18Z</time>
      </trkpt>
      <trkpt lat="42.86836" lon="0.14793">
        <ele>2293.84</ele>
        <time>2015-03-17T12:25:21Z</time>
      </trkpt>
      <trkpt lat="42.86843" lon="0.14795">
        <ele>2292.4</ele>
        <time>2015-03-17T12:25:27Z</time>
      </trkpt>
      <trkpt lat="42.86847" lon="0.14796">
        <ele>2291.44</ele>
        <time>2015-03-17T12:25:31Z</time>
      </trkpt>
      <trkpt lat="42.86858" lon="0.14802">
        <ele>2287.59</ele>
        <time>2015-03-17T12:25:42Z</time>
      </trkpt>
      <trkpt lat="42.86863" lon="0.14804">
        <ele>2286.15</ele>
        <time>2015-03-17T12:25:47Z</time>
      </trkpt>
      <trkpt lat="42.86873" lon="0.14809">
        <ele>2282.79</ele>
        <time>2015-03-17T12:25:59Z</time>
      </trkpt>
      <trkpt lat="42.86875" lon="0.14808">
        <ele>2281.83</ele>
        <time>2015-03-17T12:26:02Z</time>
      </trkpt>
      <trkpt lat="42.8688" lon="0.14806">
        <ele>2279.9</ele>
        <time>2015-03-17T12:26:11Z</time>
      </trkpt>
      <trkpt lat="42.86887" lon="0.14818">
        <ele>2276.54</ele>
        <time>2015-03-17T12:26:24Z</time>
      </trkpt>
      <trkpt lat="42.86891" lon="0.14825">
        <ele>2274.14</ele>
        <time>2015-03-17T12:26:33Z</time>
      </trkpt>
      <trkpt lat="42.86899" lon="0.14835">
        <ele>2270.29</ele>
        <time>2015-03-17T12:26:46Z</time>
      </trkpt>
      <trkpt lat="42.86914" lon="0.14826">
        <ele>2267.89</ele>
        <time>2015-03-17T12:27:01Z</time>
      </trkpt>
      <trkpt lat="42.86929" lon="0.14819">
        <ele>2265</ele>
        <time>2015-03-17T12:27:15Z</time>
      </trkpt>
      <trkpt lat="42.86931" lon="0.14817">
        <ele>2265</ele>
        <time>2015-03-17T12:27:17Z</time>
      </trkpt>
      <trkpt lat="42.86945" lon="0.14814">
        <ele>2263.08</ele>
        <time>2015-03-17T12:27:29Z</time>
      </trkpt>
      <trkpt lat="42.86958" lon="0.14819">
        <ele>2259.24</ele>
        <time>2015-03-17T12:27:41Z</time>
      </trkpt>
      <trkpt lat="42.86959" lon="0.14819">
        <ele>2259.24</ele>
        <time>2015-03-17T12:27:42Z</time>
      </trkpt>
      <trkpt lat="42.86973" lon="0.14821">
        <ele>2255.87</ele>
        <time>2015-03-17T12:27:54Z</time>
      </trkpt>
      <trkpt lat="42.8698" lon="0.14823">
        <ele>2253.95</ele>
        <time>2015-03-17T12:28:00Z</time>
      </trkpt>
      <trkpt lat="42.86983" lon="0.14828">
        <ele>2252.99</ele>
        <time>2015-03-17T12:28:04Z</time>
      </trkpt>
      <trkpt lat="42.86982" lon="0.14835">
        <ele>2251.54</ele>
        <time>2015-03-17T12:28:09Z</time>
      </trkpt>
      <trkpt lat="42.86982" lon="0.14852">
        <ele>2248.18</ele>
        <time>2015-03-17T12:28:20Z</time>
      </trkpt>
      <trkpt lat="42.86984" lon="0.14865">
        <ele>2245.78</ele>
        <time>2015-03-17T12:28:30Z</time>
      </trkpt>
      <trkpt lat="42.86993" lon="0.14882">
        <ele>2242.41</ele>
        <time>2015-03-17T12:28:43Z</time>
      </trkpt>
      <trkpt lat="42.86998" lon="0.14888">
        <ele>2240.49</ele>
        <time>2015-03-17T12:28:49Z</time>
      </trkpt>
      <trkpt lat="42.87005" lon="0.14893">
        <ele>2239.05</ele>
        <time>2015-03-17T12:29:00Z</time>
      </trkpt>
      <trkpt lat="42.87009" lon="0.14893">
        <ele>2237.61</ele>
        <time>2015-03-17T12:29:14Z</time>
      </trkpt>
      <trkpt lat="42.87011" lon="0.14893">
        <ele>2238.09</ele>
        <time>2015-03-17T12:29:31Z</time>
      </trkpt>
      <trkpt lat="42.8701" lon="0.14893">
        <ele>2237.61</ele>
        <time>2015-03-17T12:29:55Z</time>
      </trkpt>
      <trkpt lat="42.87013" lon="0.14893">
        <ele>2236.16</ele>
        <time>2015-03-17T12:30:11Z</time>
      </trkpt>
      <trkpt lat="42.87016" lon="0.14892">
        <ele>2237.13</ele>
        <time>2015-03-17T12:30:14Z</time>
      </trkpt>
      <trkpt lat="42.87027" lon="0.14881">
        <ele>2233.28</ele>
        <time>2015-03-17T12:30:27Z</time>
      </trkpt>
      <trkpt lat="42.87029" lon="0.1488">
        <ele>2233.28</ele>
        <time>2015-03-17T12:30:29Z</time>
      </trkpt>
      <trkpt lat="42.87039" lon="0.14866">
        <ele>2230.4</ele>
        <time>2015-03-17T12:30:42Z</time>
      </trkpt>
      <trkpt lat="42.87043" lon="0.14854">
        <ele>2227.99</ele>
        <time>2015-03-17T12:30:53Z</time>
      </trkpt>
      <trkpt lat="42.87044" lon="0.14844">
        <ele>2227.51</ele>
        <time>2015-03-17T12:31:06Z</time>
      </trkpt>
      <trkpt lat="42.87047" lon="0.14837">
        <ele>2226.55</ele>
        <time>2015-03-17T12:31:11Z</time>
      </trkpt>
      <trkpt lat="42.87053" lon="0.14824">
        <ele>2224.63</ele>
        <time>2015-03-17T12:31:22Z</time>
      </trkpt>
      <trkpt lat="42.87055" lon="0.14823">
        <ele>2224.15</ele>
        <time>2015-03-17T12:31:24Z</time>
      </trkpt>
      <trkpt lat="42.8706" lon="0.14821">
        <ele>2223.67</ele>
        <time>2015-03-17T12:31:29Z</time>
      </trkpt>
      <trkpt lat="42.87073" lon="0.14813">
        <ele>2221.26</ele>
        <time>2015-03-17T12:31:43Z</time>
      </trkpt>
      <trkpt lat="42.87073" lon="0.14812">
        <ele>2221.26</ele>
        <time>2015-03-17T12:31:44Z</time>
      </trkpt>
      <trkpt lat="42.87083" lon="0.14806">
        <ele>2218.86</ele>
        <time>2015-03-17T12:31:53Z</time>
      </trkpt>
      <trkpt lat="42.87092" lon="0.14802">
        <ele>2215.98</ele>
        <time>2015-03-17T12:32:03Z</time>
      </trkpt>
      <trkpt lat="42.87103" lon="0.148">
        <ele>2213.57</ele>
        <time>2015-03-17T12:32:15Z</time>
      </trkpt>
      <trkpt lat="42.8711" lon="0.14799">
        <ele>2212.13</ele>
        <time>2015-03-17T12:32:22Z</time>
      </trkpt>
      <trkpt lat="42.87116" lon="0.14796">
        <ele>2210.69</ele>
        <time>2015-03-17T12:32:28Z</time>
      </trkpt>
      <trkpt lat="42.87126" lon="0.1479">
        <ele>2208.29</ele>
        <time>2015-03-17T12:32:38Z</time>
      </trkpt>
      <trkpt lat="42.8713" lon="0.14789">
        <ele>2207.32</ele>
        <time>2015-03-17T12:32:42Z</time>
      </trkpt>
      <trkpt lat="42.87132" lon="0.14787">
        <ele>2206.84</ele>
        <time>2015-03-17T12:32:45Z</time>
      </trkpt>
      <trkpt lat="42.87136" lon="0.14784">
        <ele>2205.4</ele>
        <time>2015-03-17T12:32:49Z</time>
      </trkpt>
      <trkpt lat="42.8715" lon="0.1478">
        <ele>2202.04</ele>
        <time>2015-03-17T12:33:00Z</time>
      </trkpt>
      <trkpt lat="42.87161" lon="0.14774">
        <ele>2198.67</ele>
        <time>2015-03-17T12:33:12Z</time>
      </trkpt>
      <trkpt lat="42.87165" lon="0.1477">
        <ele>2197.71</ele>
        <time>2015-03-17T12:33:16Z</time>
      </trkpt>
      <trkpt lat="42.8717" lon="0.14766">
        <ele>2196.75</ele>
        <time>2015-03-17T12:33:21Z</time>
      </trkpt>
      <trkpt lat="42.87185" lon="0.14754">
        <ele>2193.87</ele>
        <time>2015-03-17T12:33:35Z</time>
      </trkpt>
      <trkpt lat="42.87193" lon="0.14748">
        <ele>2192.9</ele>
        <time>2015-03-17T12:33:43Z</time>
      </trkpt>
      <trkpt lat="42.87207" lon="0.14737">
        <ele>2190.5</ele>
        <time>2015-03-17T12:33:56Z</time>
      </trkpt>
      <trkpt lat="42.87219" lon="0.14729">
        <ele>2189.06</ele>
        <time>2015-03-17T12:34:07Z</time>
      </trkpt>
      <trkpt lat="42.87227" lon="0.14724">
        <ele>2188.1</ele>
        <time>2015-03-17T12:34:15Z</time>
      </trkpt>
      <trkpt lat="42.87237" lon="0.14718">
        <ele>2187.14</ele>
        <time>2015-03-17T12:34:26Z</time>
      </trkpt>
      <trkpt lat="42.87245" lon="0.14712">
        <ele>2186.66</ele>
        <time>2015-03-17T12:34:35Z</time>
      </trkpt>
      <trkpt lat="42.87253" lon="0.14705">
        <ele>2185.69</ele>
        <time>2015-03-17T12:34:44Z</time>
      </trkpt>
      <trkpt lat="42.87256" lon="0.14701">
        <ele>2185.21</ele>
        <time>2015-03-17T12:34:48Z</time>
      </trkpt>
      <trkpt lat="42.87266" lon="0.14692">
        <ele>2184.25</ele>
        <time>2015-03-17T12:35:02Z</time>
      </trkpt>
      <trkpt lat="42.87267" lon="0.14691">
        <ele>2185.21</ele>
        <time>2015-03-17T12:35:06Z</time>
      </trkpt>
      <trkpt lat="42.87266" lon="0.14694">
        <ele>2183.77</ele>
        <time>2015-03-17T12:35:09Z</time>
      </trkpt>
      <trkpt lat="42.8726" lon="0.14691">
        <ele>2183.29</ele>
        <time>2015-03-17T12:35:45Z</time>
      </trkpt>
      <trkpt lat="42.8726" lon="0.14693">
        <ele>2183.77</ele>
        <time>2015-03-17T12:36:08Z</time>
      </trkpt>
      <trkpt lat="42.87262" lon="0.14692">
        <ele>2183.77</ele>
        <time>2015-03-17T12:36:37Z</time>
      </trkpt>
      <trkpt lat="42.87262" lon="0.14692">
        <ele>2184.25</ele>
        <time>2015-03-17T12:37:09Z</time>
      </trkpt>
      <trkpt lat="42.87265" lon="0.14692">
        <ele>2184.73</ele>
        <time>2015-03-17T12:37:26Z</time>
      </trkpt>
      <trkpt lat="42.87264" lon="0.14691">
        <ele>2184.25</ele>
        <time>2015-03-17T12:37:41Z</time>
      </trkpt>
      <trkpt lat="42.87265" lon="0.14693">
        <ele>2185.21</ele>
        <time>2015-03-17T12:37:55Z</time>
      </trkpt>
      <trkpt lat="42.87274" lon="0.14684">
        <ele>2184.25</ele>
        <time>2015-03-17T12:38:06Z</time>
      </trkpt>
      <trkpt lat="42.87285" lon="0.14672">
        <ele>2183.77</ele>
        <time>2015-03-17T12:38:21Z</time>
      </trkpt>
      <trkpt lat="42.87288" lon="0.14668">
        <ele>2183.29</ele>
        <time>2015-03-17T12:38:25Z</time>
      </trkpt>
      <trkpt lat="42.87299" lon="0.14654">
        <ele>2182.33</ele>
        <time>2015-03-17T12:38:40Z</time>
      </trkpt>
      <trkpt lat="42.87312" lon="0.14636">
        <ele>2180.41</ele>
        <time>2015-03-17T12:38:56Z</time>
      </trkpt>
      <trkpt lat="42.8732" lon="0.14624">
        <ele>2178.97</ele>
        <time>2015-03-17T12:39:08Z</time>
      </trkpt>
      <trkpt lat="42.87329" lon="0.14614">
        <ele>2177.04</ele>
        <time>2015-03-17T12:39:19Z</time>
      </trkpt>
      <trkpt lat="42.87334" lon="0.14611">
        <ele>2176.08</ele>
        <time>2015-03-17T12:39:24Z</time>
      </trkpt>
      <trkpt lat="42.87338" lon="0.14609">
        <ele>2175.12</ele>
        <time>2015-03-17T12:39:28Z</time>
      </trkpt>
      <trkpt lat="42.87346" lon="0.14606">
        <ele>2173.68</ele>
        <time>2015-03-17T12:39:35Z</time>
      </trkpt>
      <trkpt lat="42.87357" lon="0.14609">
        <ele>2170.79</ele>
        <time>2015-03-17T12:39:48Z</time>
      </trkpt>
      <trkpt lat="42.87368" lon="0.14609">
        <ele>2167.43</ele>
        <time>2015-03-17T12:39:59Z</time>
      </trkpt>
      <trkpt lat="42.87375" lon="0.14609">
        <ele>2165.99</ele>
        <time>2015-03-17T12:40:07Z</time>
      </trkpt>
      <trkpt lat="42.8738" lon="0.14614">
        <ele>2164.06</ele>
        <time>2015-03-17T12:40:19Z</time>
      </trkpt>
      <trkpt lat="42.87384" lon="0.14616">
        <ele>2162.14</ele>
        <time>2015-03-17T12:40:29Z</time>
      </trkpt>
      <trkpt lat="42.87389" lon="0.14612">
        <ele>2158.78</ele>
        <time>2015-03-17T12:40:38Z</time>
      </trkpt>
      <trkpt lat="42.87393" lon="0.14607">
        <ele>2155.41</ele>
        <time>2015-03-17T12:40:47Z</time>
      </trkpt>
      <trkpt lat="42.87401" lon="0.14599">
        <ele>2152.05</ele>
        <time>2015-03-17T12:40:59Z</time>
      </trkpt>
      <trkpt lat="42.87407" lon="0.14595">
        <ele>2149.16</ele>
        <time>2015-03-17T12:41:09Z</time>
      </trkpt>
      <trkpt lat="42.87412" lon="0.1459">
        <ele>2145.8</ele>
        <time>2015-03-17T12:41:18Z</time>
      </trkpt>
      <trkpt lat="42.87417" lon="0.14583">
        <ele>2142.44</ele>
        <time>2015-03-17T12:41:28Z</time>
      </trkpt>
      <trkpt lat="42.87418" lon="0.14582">
        <ele>2141.95</ele>
        <time>2015-03-17T12:41:30Z</time>
      </trkpt>
      <trkpt lat="42.87424" lon="0.14575">
        <ele>2138.59</ele>
        <time>2015-03-17T12:41:40Z</time>
      </trkpt>
      <trkpt lat="42.87425" lon="0.14573">
        <ele>2138.11</ele>
        <time>2015-03-17T12:41:42Z</time>
      </trkpt>
      <trkpt lat="42.87429" lon="0.1456">
        <ele>2136.67</ele>
        <time>2015-03-17T12:41:54Z</time>
      </trkpt>
      <trkpt lat="42.8744" lon="0.14544">
        <ele>2134.74</ele>
        <time>2015-03-17T12:42:07Z</time>
      </trkpt>
      <trkpt lat="42.87452" lon="0.14535">
        <ele>2133.3</ele>
        <time>2015-03-17T12:42:19Z</time>
      </trkpt>
      <trkpt lat="42.87465" lon="0.14527">
        <ele>2130.9</ele>
        <time>2015-03-17T12:42:31Z</time>
      </trkpt>
      <trkpt lat="42.87475" lon="0.1451">
        <ele>2127.53</ele>
        <time>2015-03-17T12:42:45Z</time>
      </trkpt>
      <trkpt lat="42.87484" lon="0.14495">
        <ele>2124.65</ele>
        <time>2015-03-17T12:42:58Z</time>
      </trkpt>
      <trkpt lat="42.87493" lon="0.14482">
        <ele>2122.73</ele>
        <time>2015-03-17T12:43:10Z</time>
      </trkpt>
      <trkpt lat="42.87503" lon="0.14468">
        <ele>2119.84</ele>
        <time>2015-03-17T12:43:21Z</time>
      </trkpt>
      <trkpt lat="42.87512" lon="0.14457">
        <ele>2118.88</ele>
        <time>2015-03-17T12:43:33Z</time>
      </trkpt>
      <trkpt lat="42.87528" lon="0.14447">
        <ele>2116.48</ele>
        <time>2015-03-17T12:43:48Z</time>
      </trkpt>
      <trkpt lat="42.87542" lon="0.14437">
        <ele>2113.6</ele>
        <time>2015-03-17T12:44:04Z</time>
      </trkpt>
      <trkpt lat="42.87555" lon="0.14429">
        <ele>2111.67</ele>
        <time>2015-03-17T12:44:18Z</time>
      </trkpt>
      <trkpt lat="42.87571" lon="0.14419">
        <ele>2109.27</ele>
        <time>2015-03-17T12:44:32Z</time>
      </trkpt>
      <trkpt lat="42.87582" lon="0.14408">
        <ele>2108.31</ele>
        <time>2015-03-17T12:44:45Z</time>
      </trkpt>
      <trkpt lat="42.87592" lon="0.14392">
        <ele>2105.91</ele>
        <time>2015-03-17T12:44:59Z</time>
      </trkpt>
      <trkpt lat="42.87606" lon="0.14382">
        <ele>2103.98</ele>
        <time>2015-03-17T12:45:14Z</time>
      </trkpt>
      <trkpt lat="42.87614" lon="0.14379">
        <ele>2103.5</ele>
        <time>2015-03-17T12:45:21Z</time>
      </trkpt>
      <trkpt lat="42.87618" lon="0.14376">
        <ele>2103.02</ele>
        <time>2015-03-17T12:45:25Z</time>
      </trkpt>
      <trkpt lat="42.87635" lon="0.14367">
        <ele>2100.62</ele>
        <time>2015-03-17T12:45:40Z</time>
      </trkpt>
      <trkpt lat="42.87649" lon="0.14357">
        <ele>2098.7</ele>
        <time>2015-03-17T12:45:54Z</time>
      </trkpt>
      <trkpt lat="42.87651" lon="0.14355">
        <ele>2098.21</ele>
        <time>2015-03-17T12:45:56Z</time>
      </trkpt>
      <trkpt lat="42.87668" lon="0.14347">
        <ele>2094.85</ele>
        <time>2015-03-17T12:46:11Z</time>
      </trkpt>
      <trkpt lat="42.87682" lon="0.14336">
        <ele>2092.93</ele>
        <time>2015-03-17T12:46:25Z</time>
      </trkpt>
      <trkpt lat="42.87696" lon="0.14327">
        <ele>2091</ele>
        <time>2015-03-17T12:46:38Z</time>
      </trkpt>
      <trkpt lat="42.87709" lon="0.14315">
        <ele>2089.08</ele>
        <time>2015-03-17T12:46:52Z</time>
      </trkpt>
      <trkpt lat="42.87714" lon="0.14311">
        <ele>2088.6</ele>
        <time>2015-03-17T12:46:57Z</time>
      </trkpt>
      <trkpt lat="42.87724" lon="0.14303">
        <ele>2087.16</ele>
        <time>2015-03-17T12:47:10Z</time>
      </trkpt>
      <trkpt lat="42.87728" lon="0.143">
        <ele>2087.16</ele>
        <time>2015-03-17T12:47:24Z</time>
      </trkpt>
      <trkpt lat="42.87729" lon="0.14299">
        <ele>2087.16</ele>
        <time>2015-03-17T12:47:25Z</time>
      </trkpt>
      <trkpt lat="42.87743" lon="0.14282">
        <ele>2085.24</ele>
        <time>2015-03-17T12:47:40Z</time>
      </trkpt>
      <trkpt lat="42.87751" lon="0.14269">
        <ele>2086.68</ele>
        <time>2015-03-17T12:47:53Z</time>
      </trkpt>
      <trkpt lat="42.87764" lon="0.14251">
        <ele>2086.68</ele>
        <time>2015-03-17T12:48:09Z</time>
      </trkpt>
      <trkpt lat="42.87775" lon="0.14235">
        <ele>2084.28</ele>
        <time>2015-03-17T12:48:23Z</time>
      </trkpt>
      <trkpt lat="42.87787" lon="0.14228">
        <ele>2081.39</ele>
        <time>2015-03-17T12:48:37Z</time>
      </trkpt>
      <trkpt lat="42.87797" lon="0.14226">
        <ele>2078.99</ele>
        <time>2015-03-17T12:48:52Z</time>
      </trkpt>
      <trkpt lat="42.87803" lon="0.14225">
        <ele>2075.62</ele>
        <time>2015-03-17T12:49:05Z</time>
      </trkpt>
      <trkpt lat="42.87805" lon="0.14218">
        <ele>2073.22</ele>
        <time>2015-03-17T12:49:17Z</time>
      </trkpt>
      <trkpt lat="42.87807" lon="0.1421">
        <ele>2070.82</ele>
        <time>2015-03-17T12:49:29Z</time>
      </trkpt>
      <trkpt lat="42.87807" lon="0.14197">
        <ele>2067.93</ele>
        <time>2015-03-17T12:49:43Z</time>
      </trkpt>
      <trkpt lat="42.87808" lon="0.14193">
        <ele>2066.49</ele>
        <time>2015-03-17T12:49:47Z</time>
      </trkpt>
      <trkpt lat="42.8781" lon="0.14182">
        <ele>2064.57</ele>
        <time>2015-03-17T12:50:01Z</time>
      </trkpt>
      <trkpt lat="42.87812" lon="0.14178">
        <ele>2064.09</ele>
        <time>2015-03-17T12:50:06Z</time>
      </trkpt>
      <trkpt lat="42.87816" lon="0.14173">
        <ele>2063.61</ele>
        <time>2015-03-17T12:50:19Z</time>
      </trkpt>
      <trkpt lat="42.87819" lon="0.14169">
        <ele>2063.61</ele>
        <time>2015-03-17T12:50:25Z</time>
      </trkpt>
      <trkpt lat="42.87827" lon="0.14168">
        <ele>2060.24</ele>
        <time>2015-03-17T12:50:39Z</time>
      </trkpt>
      <trkpt lat="42.87834" lon="0.14163">
        <ele>2058.8</ele>
        <time>2015-03-17T12:50:51Z</time>
      </trkpt>
      <trkpt lat="42.8784" lon="0.14157">
        <ele>2057.84</ele>
        <time>2015-03-17T12:51:05Z</time>
      </trkpt>
      <trkpt lat="42.87843" lon="0.14154">
        <ele>2056.88</ele>
        <time>2015-03-17T12:51:20Z</time>
      </trkpt>
      <trkpt lat="42.87845" lon="0.1415">
        <ele>2056.4</ele>
        <time>2015-03-17T12:51:32Z</time>
      </trkpt>
      <trkpt lat="42.87847" lon="0.14147">
        <ele>2055.44</ele>
        <time>2015-03-17T12:51:48Z</time>
      </trkpt>
      <trkpt lat="42.87851" lon="0.14139">
        <ele>2053.99</ele>
        <time>2015-03-17T12:52:04Z</time>
      </trkpt>
      <trkpt lat="42.87853" lon="0.14132">
        <ele>2053.03</ele>
        <time>2015-03-17T12:52:16Z</time>
      </trkpt>
      <trkpt lat="42.87855" lon="0.1413">
        <ele>2051.59</ele>
        <time>2015-03-17T12:52:30Z</time>
      </trkpt>
      <trkpt lat="42.87855" lon="0.14129">
        <ele>2051.11</ele>
        <time>2015-03-17T12:52:55Z</time>
      </trkpt>
      <trkpt lat="42.87858" lon="0.1412">
        <ele>2049.19</ele>
        <time>2015-03-17T12:53:10Z</time>
      </trkpt>
      <trkpt lat="42.87865" lon="0.14109">
        <ele>2045.82</ele>
        <time>2015-03-17T12:53:23Z</time>
      </trkpt>
      <trkpt lat="42.87867" lon="0.14105">
        <ele>2043.9</ele>
        <time>2015-03-17T12:53:28Z</time>
      </trkpt>
      <trkpt lat="42.87876" lon="0.14096">
        <ele>2041.02</ele>
        <time>2015-03-17T12:53:39Z</time>
      </trkpt>
      <trkpt lat="42.87881" lon="0.1409">
        <ele>2039.09</ele>
        <time>2015-03-17T12:53:46Z</time>
      </trkpt>
      <trkpt lat="42.87891" lon="0.14066">
        <ele>2036.69</ele>
        <time>2015-03-17T12:54:03Z</time>
      </trkpt>
      <trkpt lat="42.87901" lon="0.1404">
        <ele>2033.33</ele>
        <time>2015-03-17T12:54:20Z</time>
      </trkpt>
      <trkpt lat="42.8791" lon="0.14019">
        <ele>2031.4</ele>
        <time>2015-03-17T12:54:35Z</time>
      </trkpt>
      <trkpt lat="42.87916" lon="0.14004">
        <ele>2029.96</ele>
        <time>2015-03-17T12:54:48Z</time>
      </trkpt>
      <trkpt lat="42.87913" lon="0.13989">
        <ele>2028.52</ele>
        <time>2015-03-17T12:55:02Z</time>
      </trkpt>
      <trkpt lat="42.87911" lon="0.13968">
        <ele>2027.08</ele>
        <time>2015-03-17T12:55:18Z</time>
      </trkpt>
      <trkpt lat="42.87913" lon="0.13959">
        <ele>2026.6</ele>
        <time>2015-03-17T12:55:25Z</time>
      </trkpt>
      <trkpt lat="42.87915" lon="0.13952">
        <ele>2025.64</ele>
        <time>2015-03-17T12:55:31Z</time>
      </trkpt>
      <trkpt lat="42.87916" lon="0.1395">
        <ele>2025.64</ele>
        <time>2015-03-17T12:55:33Z</time>
      </trkpt>
      <trkpt lat="42.87918" lon="0.13948">
        <ele>2025.15</ele>
        <time>2015-03-17T12:55:35Z</time>
      </trkpt>
      <trkpt lat="42.87919" lon="0.13946">
        <ele>2025.15</ele>
        <time>2015-03-17T12:55:37Z</time>
      </trkpt>
      <trkpt lat="42.87922" lon="0.13937">
        <ele>2023.23</ele>
        <time>2015-03-17T12:55:42Z</time>
      </trkpt>
      <trkpt lat="42.87931" lon="0.13921">
        <ele>2020.83</ele>
        <time>2015-03-17T12:55:57Z</time>
      </trkpt>
      <trkpt lat="42.87933" lon="0.13903">
        <ele>2019.87</ele>
        <time>2015-03-17T12:56:10Z</time>
      </trkpt>
      <trkpt lat="42.87938" lon="0.13884">
        <ele>2017.46</ele>
        <time>2015-03-17T12:56:25Z</time>
      </trkpt>
      <trkpt lat="42.87945" lon="0.13855">
        <ele>2015.06</ele>
        <time>2015-03-17T12:56:41Z</time>
      </trkpt>
      <trkpt lat="42.87949" lon="0.13833">
        <ele>2014.1</ele>
        <time>2015-03-17T12:56:55Z</time>
      </trkpt>
      <trkpt lat="42.87952" lon="0.13828">
        <ele>2013.62</ele>
        <time>2015-03-17T12:56:59Z</time>
      </trkpt>
      <trkpt lat="42.87956" lon="0.13805">
        <ele>2012.18</ele>
        <time>2015-03-17T12:57:15Z</time>
      </trkpt>
      <trkpt lat="42.87962" lon="0.13783">
        <ele>2011.22</ele>
        <time>2015-03-17T12:57:31Z</time>
      </trkpt>
      <trkpt lat="42.87967" lon="0.13761">
        <ele>2009.29</ele>
        <time>2015-03-17T12:57:46Z</time>
      </trkpt>
      <trkpt lat="42.8797" lon="0.13749">
        <ele>2009.77</ele>
        <time>2015-03-17T12:57:56Z</time>
      </trkpt>
      <trkpt lat="42.87973" lon="0.13745">
        <ele>2009.77</ele>
        <time>2015-03-17T12:58:00Z</time>
      </trkpt>
      <trkpt lat="42.87984" lon="0.13723">
        <ele>2007.85</ele>
        <time>2015-03-17T12:58:18Z</time>
      </trkpt>
      <trkpt lat="42.87991" lon="0.13703">
        <ele>2006.89</ele>
        <time>2015-03-17T12:58:34Z</time>
      </trkpt>
      <trkpt lat="42.87996" lon="0.13685">
        <ele>2005.45</ele>
        <time>2015-03-17T12:58:48Z</time>
      </trkpt>
      <trkpt lat="42.88004" lon="0.13662">
        <ele>2002.08</ele>
        <time>2015-03-17T12:59:03Z</time>
      </trkpt>
      <trkpt lat="42.88006" lon="0.13664">
        <ele>2002.56</ele>
        <time>2015-03-17T12:59:21Z</time>
      </trkpt>
      <trkpt lat="42.88007" lon="0.13666">
        <ele>2002.56</ele>
        <time>2015-03-17T12:59:43Z</time>
      </trkpt>
      <trkpt lat="42.88006" lon="0.13662">
        <ele>2002.56</ele>
        <time>2015-03-17T13:00:01Z</time>
      </trkpt>
      <trkpt lat="42.88006" lon="0.13666">
        <ele>2002.08</ele>
        <time>2015-03-17T13:00:15Z</time>
      </trkpt>
      <trkpt lat="42.88005" lon="0.13665">
        <ele>2002.08</ele>
        <time>2015-03-17T13:00:32Z</time>
      </trkpt>
      <trkpt lat="42.88003" lon="0.13663">
        <ele>2002.08</ele>
        <time>2015-03-17T13:00:50Z</time>
      </trkpt>
      <trkpt lat="42.88005" lon="0.13663">
        <ele>2002.08</ele>
        <time>2015-03-17T13:01:12Z</time>
      </trkpt>
      <trkpt lat="42.88006" lon="0.13662">
        <ele>2002.08</ele>
        <time>2015-03-17T13:01:32Z</time>
      </trkpt>
      <trkpt lat="42.88011" lon="0.13662">
        <ele>2002.08</ele>
        <time>2015-03-17T13:01:55Z</time>
      </trkpt>
      <trkpt lat="42.8801" lon="0.13663">
        <ele>2002.56</ele>
        <time>2015-03-17T13:02:17Z</time>
      </trkpt>
      <trkpt lat="42.88006" lon="0.13661">
        <ele>2002.08</ele>
        <time>2015-03-17T13:02:38Z</time>
      </trkpt>
      <trkpt lat="42.88004" lon="0.1366">
        <ele>2001.6</ele>
        <time>2015-03-17T13:02:52Z</time>
      </trkpt>
      <trkpt lat="42.88005" lon="0.13661">
        <ele>2001.6</ele>
        <time>2015-03-17T13:03:11Z</time>
      </trkpt>
      <trkpt lat="42.88005" lon="0.13662">
        <ele>2001.6</ele>
        <time>2015-03-17T13:03:33Z</time>
      </trkpt>
      <trkpt lat="42.88007" lon="0.13659">
        <ele>2001.6</ele>
        <time>2015-03-17T13:03:53Z</time>
      </trkpt>
      <trkpt lat="42.88009" lon="0.13646">
        <ele>1999.68</ele>
        <time>2015-03-17T13:04:04Z</time>
      </trkpt>
      <trkpt lat="42.88015" lon="0.13633">
        <ele>1997.28</ele>
        <time>2015-03-17T13:04:16Z</time>
      </trkpt>
      <trkpt lat="42.88018" lon="0.13622">
        <ele>1993.91</ele>
        <time>2015-03-17T13:04:27Z</time>
      </trkpt>
      <trkpt lat="42.88024" lon="0.13609">
        <ele>1991.51</ele>
        <time>2015-03-17T13:04:38Z</time>
      </trkpt>
      <trkpt lat="42.88032" lon="0.13583">
        <ele>1989.59</ele>
        <time>2015-03-17T13:04:56Z</time>
      </trkpt>
      <trkpt lat="42.88039" lon="0.13564">
        <ele>1986.22</ele>
        <time>2015-03-17T13:05:09Z</time>
      </trkpt>
      <trkpt lat="42.88039" lon="0.13561">
        <ele>1985.74</ele>
        <time>2015-03-17T13:05:11Z</time>
      </trkpt>
      <trkpt lat="42.88049" lon="0.13551">
        <ele>1981.9</ele>
        <time>2015-03-17T13:05:22Z</time>
      </trkpt>
      <trkpt lat="42.88062" lon="0.13547">
        <ele>1979.01</ele>
        <time>2015-03-17T13:05:34Z</time>
      </trkpt>
      <trkpt lat="42.88075" lon="0.13539">
        <ele>1975.65</ele>
        <time>2015-03-17T13:05:48Z</time>
      </trkpt>
      <trkpt lat="42.88078" lon="0.13532">
        <ele>1974.69</ele>
        <time>2015-03-17T13:05:53Z</time>
      </trkpt>
      <trkpt lat="42.8808" lon="0.13527">
        <ele>1974.2</ele>
        <time>2015-03-17T13:05:57Z</time>
      </trkpt>
      <trkpt lat="42.88083" lon="0.13527">
        <ele>1973.72</ele>
        <time>2015-03-17T13:06:04Z</time>
      </trkpt>
      <trkpt lat="42.88092" lon="0.13508">
        <ele>1970.36</ele>
        <time>2015-03-17T13:06:18Z</time>
      </trkpt>
      <trkpt lat="42.88092" lon="0.13487">
        <ele>1968.92</ele>
        <time>2015-03-17T13:06:33Z</time>
      </trkpt>
      <trkpt lat="42.8809" lon="0.13467">
        <ele>1968.44</ele>
        <time>2015-03-17T13:06:47Z</time>
      </trkpt>
      <trkpt lat="42.88094" lon="0.13442">
        <ele>1966.03</ele>
        <time>2015-03-17T13:07:04Z</time>
      </trkpt>
      <trkpt lat="42.88094" lon="0.1342">
        <ele>1963.15</ele>
        <time>2015-03-17T13:07:19Z</time>
      </trkpt>
      <trkpt lat="42.88099" lon="0.13392">
        <ele>1961.23</ele>
        <time>2015-03-17T13:07:37Z</time>
      </trkpt>
      <trkpt lat="42.88105" lon="0.13368">
        <ele>1959.78</ele>
        <time>2015-03-17T13:07:53Z</time>
      </trkpt>
      <trkpt lat="42.88109" lon="0.13346">
        <ele>1959.78</ele>
        <time>2015-03-17T13:08:09Z</time>
      </trkpt>
      <trkpt lat="42.88113" lon="0.13322">
        <ele>1958.34</ele>
        <time>2015-03-17T13:08:25Z</time>
      </trkpt>
      <trkpt lat="42.88114" lon="0.13318">
        <ele>1958.34</ele>
        <time>2015-03-17T13:08:28Z</time>
      </trkpt>
      <trkpt lat="42.8812" lon="0.13292">
        <ele>1957.38</ele>
        <time>2015-03-17T13:08:46Z</time>
      </trkpt>
      <trkpt lat="42.88126" lon="0.13271">
        <ele>1956.42</ele>
        <time>2015-03-17T13:09:01Z</time>
      </trkpt>
      <trkpt lat="42.88132" lon="0.13247">
        <ele>1954.5</ele>
        <time>2015-03-17T13:09:17Z</time>
      </trkpt>
      <trkpt lat="42.88132" lon="0.13218">
        <ele>1951.61</ele>
        <time>2015-03-17T13:09:35Z</time>
      </trkpt>
      <trkpt lat="42.88128" lon="0.13195">
        <ele>1949.21</ele>
        <time>2015-03-17T13:09:52Z</time>
      </trkpt>
      <trkpt lat="42.88128" lon="0.13187">
        <ele>1948.25</ele>
        <time>2015-03-17T13:09:57Z</time>
      </trkpt>
      <trkpt lat="42.88132" lon="0.13162">
        <ele>1945.85</ele>
        <time>2015-03-17T13:10:13Z</time>
      </trkpt>
      <trkpt lat="42.88139" lon="0.13146">
        <ele>1946.33</ele>
        <time>2015-03-17T13:10:27Z</time>
      </trkpt>
      <trkpt lat="42.88147" lon="0.13129">
        <ele>1946.33</ele>
        <time>2015-03-17T13:10:40Z</time>
      </trkpt>
      <trkpt lat="42.88151" lon="0.13118">
        <ele>1946.33</ele>
        <time>2015-03-17T13:10:47Z</time>
      </trkpt>
      <trkpt lat="42.88157" lon="0.13098">
        <ele>1945.85</ele>
        <time>2015-03-17T13:11:04Z</time>
      </trkpt>
      <trkpt lat="42.8816" lon="0.13071">
        <ele>1944.88</ele>
        <time>2015-03-17T13:11:22Z</time>
      </trkpt>
      <trkpt lat="42.88163" lon="0.13046">
        <ele>1943.92</ele>
        <time>2015-03-17T13:11:38Z</time>
      </trkpt>
      <trkpt lat="42.88162" lon="0.13023">
        <ele>1944.4</ele>
        <time>2015-03-17T13:11:53Z</time>
      </trkpt>
      <trkpt lat="42.88162" lon="0.13">
        <ele>1943.44</ele>
        <time>2015-03-17T13:12:08Z</time>
      </trkpt>
      <trkpt lat="42.88162" lon="0.12978">
        <ele>1942.48</ele>
        <time>2015-03-17T13:12:23Z</time>
      </trkpt>
      <trkpt lat="42.88163" lon="0.1297">
        <ele>1942.48</ele>
        <time>2015-03-17T13:12:28Z</time>
      </trkpt>
      <trkpt lat="42.88168" lon="0.12954">
        <ele>1942</ele>
        <time>2015-03-17T13:12:40Z</time>
      </trkpt>
      <trkpt lat="42.88169" lon="0.12949">
        <ele>1941.52</ele>
        <time>2015-03-17T13:12:44Z</time>
      </trkpt>
      <trkpt lat="42.88174" lon="0.12926">
        <ele>1940.56</ele>
        <time>2015-03-17T13:13:00Z</time>
      </trkpt>
      <trkpt lat="42.88176" lon="0.129">
        <ele>1938.16</ele>
        <time>2015-03-17T13:13:17Z</time>
      </trkpt>
      <trkpt lat="42.88176" lon="0.12874">
        <ele>1936.23</ele>
        <time>2015-03-17T13:13:34Z</time>
      </trkpt>
      <trkpt lat="42.88174" lon="0.12845">
        <ele>1934.31</ele>
        <time>2015-03-17T13:13:52Z</time>
      </trkpt>
      <trkpt lat="42.88173" lon="0.12821">
        <ele>1933.35</ele>
        <time>2015-03-17T13:14:08Z</time>
      </trkpt>
      <trkpt lat="42.88174" lon="0.128">
        <ele>1932.39</ele>
        <time>2015-03-17T13:14:22Z</time>
      </trkpt>
      <trkpt lat="42.8818" lon="0.12776">
        <ele>1931.43</ele>
        <time>2015-03-17T13:14:39Z</time>
      </trkpt>
      <trkpt lat="42.88187" lon="0.12756">
        <ele>1929.98</ele>
        <time>2015-03-17T13:14:53Z</time>
      </trkpt>
      <trkpt lat="42.88196" lon="0.12733">
        <ele>1928.54</ele>
        <time>2015-03-17T13:15:09Z</time>
      </trkpt>
      <trkpt lat="42.88201" lon="0.12718">
        <ele>1927.58</ele>
        <time>2015-03-17T13:15:19Z</time>
      </trkpt>
      <trkpt lat="42.88201" lon="0.1269">
        <ele>1925.18</ele>
        <time>2015-03-17T13:15:36Z</time>
      </trkpt>
      <trkpt lat="42.88199" lon="0.12667">
        <ele>1922.29</ele>
        <time>2015-03-17T13:15:51Z</time>
      </trkpt>
      <trkpt lat="42.88196" lon="0.12649">
        <ele>1920.37</ele>
        <time>2015-03-17T13:16:01Z</time>
      </trkpt>
      <trkpt lat="42.88195" lon="0.12625">
        <ele>1917.01</ele>
        <time>2015-03-17T13:16:16Z</time>
      </trkpt>
      <trkpt lat="42.88193" lon="0.12599">
        <ele>1914.6</ele>
        <time>2015-03-17T13:16:33Z</time>
      </trkpt>
      <trkpt lat="42.88192" lon="0.12575">
        <ele>1911.72</ele>
        <time>2015-03-17T13:16:47Z</time>
      </trkpt>
      <trkpt lat="42.88197" lon="0.12552">
        <ele>1908.83</ele>
        <time>2015-03-17T13:17:02Z</time>
      </trkpt>
      <trkpt lat="42.88202" lon="0.12526">
        <ele>1906.43</ele>
        <time>2015-03-17T13:17:19Z</time>
      </trkpt>
      <trkpt lat="42.88206" lon="0.12499">
        <ele>1903.07</ele>
        <time>2015-03-17T13:17:37Z</time>
      </trkpt>
      <trkpt lat="42.88207" lon="0.12492">
        <ele>1902.59</ele>
        <time>2015-03-17T13:17:42Z</time>
      </trkpt>
      <trkpt lat="42.88209" lon="0.12469">
        <ele>1902.11</ele>
        <time>2015-03-17T13:17:57Z</time>
      </trkpt>
      <trkpt lat="42.88211" lon="0.12446">
        <ele>1901.63</ele>
        <time>2015-03-17T13:18:12Z</time>
      </trkpt>
      <trkpt lat="42.88213" lon="0.1242">
        <ele>1901.14</ele>
        <time>2015-03-17T13:18:28Z</time>
      </trkpt>
      <trkpt lat="42.88215" lon="0.12402">
        <ele>1901.14</ele>
        <time>2015-03-17T13:18:39Z</time>
      </trkpt>
      <trkpt lat="42.88218" lon="0.12385">
        <ele>1901.14</ele>
        <time>2015-03-17T13:18:51Z</time>
      </trkpt>
      <trkpt lat="42.88222" lon="0.12369">
        <ele>1901.14</ele>
        <time>2015-03-17T13:19:03Z</time>
      </trkpt>
      <trkpt lat="42.88226" lon="0.12347">
        <ele>1900.66</ele>
        <time>2015-03-17T13:19:18Z</time>
      </trkpt>
      <trkpt lat="42.88227" lon="0.12324">
        <ele>1900.66</ele>
        <time>2015-03-17T13:19:33Z</time>
      </trkpt>
      <trkpt lat="42.88229" lon="0.12303">
        <ele>1900.18</ele>
        <time>2015-03-17T13:19:47Z</time>
      </trkpt>
      <trkpt lat="42.8823" lon="0.12281">
        <ele>1900.18</ele>
        <time>2015-03-17T13:20:01Z</time>
      </trkpt>
      <trkpt lat="42.88232" lon="0.12257">
        <ele>1900.66</ele>
        <time>2015-03-17T13:20:16Z</time>
      </trkpt>
      <trkpt lat="42.88237" lon="0.12238">
        <ele>1902.11</ele>
        <time>2015-03-17T13:20:30Z</time>
      </trkpt>
      <trkpt lat="42.88242" lon="0.1222">
        <ele>1904.03</ele>
        <time>2015-03-17T13:20:45Z</time>
      </trkpt>
      <trkpt lat="42.88246" lon="0.12205">
        <ele>1906.43</ele>
        <time>2015-03-17T13:21:00Z</time>
      </trkpt>
      <trkpt lat="42.88242" lon="0.12201">
        <ele>1906.91</ele>
        <time>2015-03-17T13:21:15Z</time>
      </trkpt>
      <trkpt lat="42.88244" lon="0.12196">
        <ele>1907.39</ele>
        <time>2015-03-17T13:21:28Z</time>
      </trkpt>
      <trkpt lat="42.88246" lon="0.12189">
        <ele>1907.39</ele>
        <time>2015-03-17T13:21:43Z</time>
      </trkpt>
      <trkpt lat="42.88246" lon="0.12188">
        <ele>1907.87</ele>
        <time>2015-03-17T13:21:59Z</time>
      </trkpt>
      <trkpt lat="42.88244" lon="0.12186">
        <ele>1906.91</ele>
        <time>2015-03-17T13:22:21Z</time>
      </trkpt>
      <trkpt lat="42.88246" lon="0.12185">
        <ele>1910.76</ele>
        <time>2015-03-17T13:22:31Z</time>
      </trkpt>
      <trkpt lat="42.88245" lon="0.12185">
        <ele>1907.39</ele>
        <time>2015-03-17T13:22:32Z</time>
      </trkpt>
      <trkpt lat="42.88247" lon="0.12182">
        <ele>1907.39</ele>
        <time>2015-03-17T13:22:50Z</time>
      </trkpt>
      <trkpt lat="42.88247" lon="0.12184">
        <ele>1907.39</ele>
        <time>2015-03-17T13:23:06Z</time>
      </trkpt>
      <trkpt lat="42.88248" lon="0.12182">
        <ele>1906.91</ele>
        <time>2015-03-17T13:23:30Z</time>
      </trkpt>
      <trkpt lat="42.88247" lon="0.12182">
        <ele>1906.91</ele>
        <time>2015-03-17T13:23:47Z</time>
      </trkpt>
      <trkpt lat="42.88246" lon="0.12181">
        <ele>1906.91</ele>
        <time>2015-03-17T13:23:58Z</time>
      </trkpt>
      <trkpt lat="42.88247" lon="0.12187">
        <ele>1907.39</ele>
        <time>2015-03-17T13:24:18Z</time>
      </trkpt>
      <trkpt lat="42.88244" lon="0.12188">
        <ele>1907.39</ele>
        <time>2015-03-17T13:24:33Z</time>
      </trkpt>
      <trkpt lat="42.88246" lon="0.12184">
        <ele>1906.91</ele>
        <time>2015-03-17T13:24:51Z</time>
      </trkpt>
      <trkpt lat="42.88249" lon="0.12183">
        <ele>1906.91</ele>
        <time>2015-03-17T13:25:08Z</time>
      </trkpt>
      <trkpt lat="42.88249" lon="0.12181">
        <ele>1906.91</ele>
        <time>2015-03-17T13:25:27Z</time>
      </trkpt>
      <trkpt lat="42.88248" lon="0.12182">
        <ele>1906.91</ele>
        <time>2015-03-17T13:25:47Z</time>
      </trkpt>
      <trkpt lat="42.8825" lon="0.12181">
        <ele>1906.91</ele>
        <time>2015-03-17T13:26:09Z</time>
      </trkpt>
      <trkpt lat="42.88249" lon="0.12182">
        <ele>1906.91</ele>
        <time>2015-03-17T13:26:36Z</time>
      </trkpt>
      <trkpt lat="42.88249" lon="0.12182">
        <ele>1906.91</ele>
        <time>2015-03-17T13:26:52Z</time>
      </trkpt>
      <trkpt lat="42.88247" lon="0.12181">
        <ele>1906.91</ele>
        <time>2015-03-17T13:27:10Z</time>
      </trkpt>
      <trkpt lat="42.88246" lon="0.12185">
        <ele>1906.91</ele>
        <time>2015-03-17T13:27:36Z</time>
      </trkpt>
      <trkpt lat="42.88247" lon="0.12181">
        <ele>1906.91</ele>
        <time>2015-03-17T13:28:02Z</time>
      </trkpt>
      <trkpt lat="42.8825" lon="0.1218">
        <ele>1906.91</ele>
        <time>2015-03-17T13:28:12Z</time>
      </trkpt>
      <trkpt lat="42.88248" lon="0.12181">
        <ele>1906.91</ele>
        <time>2015-03-17T13:28:42Z</time>
      </trkpt>
      <trkpt lat="42.88247" lon="0.1218">
        <ele>1906.91</ele>
        <time>2015-03-17T13:28:56Z</time>
      </trkpt>
      <trkpt lat="42.88247" lon="0.12177">
        <ele>1906.91</ele>
        <time>2015-03-17T13:29:15Z</time>
      </trkpt>
      <trkpt lat="42.88247" lon="0.12175">
        <ele>1906.91</ele>
        <time>2015-03-17T13:29:30Z</time>
      </trkpt>
      <trkpt lat="42.88247" lon="0.12178">
        <ele>1906.43</ele>
        <time>2015-03-17T13:29:41Z</time>
      </trkpt>
      <trkpt lat="42.88248" lon="0.12177">
        <ele>1906.43</ele>
        <time>2015-03-17T13:29:51Z</time>
      </trkpt>
      <trkpt lat="42.88251" lon="0.12184">
        <ele>1906.43</ele>
        <time>2015-03-17T13:30:05Z</time>
      </trkpt>
      <trkpt lat="42.88249" lon="0.12181">
        <ele>1906.91</ele>
        <time>2015-03-17T13:30:20Z</time>
      </trkpt>
      <trkpt lat="42.88248" lon="0.12179">
        <ele>1906.91</ele>
        <time>2015-03-17T13:30:32Z</time>
      </trkpt>
      <trkpt lat="42.88249" lon="0.12178">
        <ele>1907.39</ele>
        <time>2015-03-17T13:30:50Z</time>
      </trkpt>
      <trkpt lat="42.88248" lon="0.12182">
        <ele>1905.95</ele>
        <time>2015-03-17T13:31:10Z</time>
      </trkpt>
      <trkpt lat="42.88248" lon="0.12185">
        <ele>1906.91</ele>
        <time>2015-03-17T13:31:35Z</time>
      </trkpt>
      <trkpt lat="42.88246" lon="0.12188">
        <ele>1906.91</ele>
        <time>2015-03-17T13:31:52Z</time>
      </trkpt>
      <trkpt lat="42.88249" lon="0.12183">
        <ele>1906.91</ele>
        <time>2015-03-17T13:32:13Z</time>
      </trkpt>
      <trkpt lat="42.88248" lon="0.12177">
        <ele>1907.39</ele>
        <time>2015-03-17T13:32:32Z</time>
      </trkpt>
      <trkpt lat="42.88246" lon="0.12179">
        <ele>1906.91</ele>
        <time>2015-03-17T13:32:47Z</time>
      </trkpt>
      <trkpt lat="42.88246" lon="0.12176">
        <ele>1907.39</ele>
        <time>2015-03-17T13:33:15Z</time>
      </trkpt>
      <trkpt lat="42.88246" lon="0.12177">
        <ele>1907.39</ele>
        <time>2015-03-17T13:33:36Z</time>
      </trkpt>
      <trkpt lat="42.88245" lon="0.12164">
        <ele>1906.43</ele>
        <time>2015-03-17T13:33:44Z</time>
      </trkpt>
      <trkpt lat="42.88244" lon="0.12161">
        <ele>1904.99</ele>
        <time>2015-03-17T13:33:46Z</time>
      </trkpt>
      <trkpt lat="42.88244" lon="0.1216">
        <ele>1906.43</ele>
        <time>2015-03-17T13:33:47Z</time>
      </trkpt>
      <trkpt lat="42.88244" lon="0.12159">
        <ele>1908.83</ele>
        <time>2015-03-17T13:33:48Z</time>
      </trkpt>
      <trkpt lat="42.88243" lon="0.12157">
        <ele>1907.39</ele>
        <time>2015-03-17T13:33:49Z</time>
      </trkpt>
      <trkpt lat="42.88243" lon="0.12155">
        <ele>1906.43</ele>
        <time>2015-03-17T13:33:50Z</time>
      </trkpt>
      <trkpt lat="42.88242" lon="0.1213">
        <ele>1904.99</ele>
        <time>2015-03-17T13:34:06Z</time>
      </trkpt>
      <trkpt lat="42.88237" lon="0.12107">
        <ele>1902.59</ele>
        <time>2015-03-17T13:34:22Z</time>
      </trkpt>
      <trkpt lat="42.88237" lon="0.12106">
        <ele>1902.11</ele>
        <time>2015-03-17T13:34:23Z</time>
      </trkpt>
      <trkpt lat="42.88231" lon="0.12091">
        <ele>1899.22</ele>
        <time>2015-03-17T13:34:33Z</time>
      </trkpt>
      <trkpt lat="42.88228" lon="0.12076">
        <ele>1895.86</ele>
        <time>2015-03-17T13:34:43Z</time>
      </trkpt>
      <trkpt lat="42.88228" lon="0.1206">
        <ele>1892.49</ele>
        <time>2015-03-17T13:34:54Z</time>
      </trkpt>
      <trkpt lat="42.88228" lon="0.12045">
        <ele>1889.61</ele>
        <time>2015-03-17T13:35:05Z</time>
      </trkpt>
      <trkpt lat="42.88229" lon="0.12037">
        <ele>1887.69</ele>
        <time>2015-03-17T13:35:17Z</time>
      </trkpt>
      <trkpt lat="42.8823" lon="0.12032">
        <ele>1887.21</ele>
        <time>2015-03-17T13:35:21Z</time>
      </trkpt>
      <trkpt lat="42.88229" lon="0.12015">
        <ele>1883.84</ele>
        <time>2015-03-17T13:35:32Z</time>
      </trkpt>
      <trkpt lat="42.88228" lon="0.12012">
        <ele>1883.36</ele>
        <time>2015-03-17T13:35:33Z</time>
      </trkpt>
      <trkpt lat="42.88229" lon="0.11994">
        <ele>1880</ele>
        <time>2015-03-17T13:35:43Z</time>
      </trkpt>
      <trkpt lat="42.88226" lon="0.11974">
        <ele>1876.63</ele>
        <time>2015-03-17T13:35:55Z</time>
      </trkpt>
      <trkpt lat="42.88225" lon="0.11972">
        <ele>1876.63</ele>
        <time>2015-03-17T13:35:56Z</time>
      </trkpt>
      <trkpt lat="42.88224" lon="0.11971">
        <ele>1876.15</ele>
        <time>2015-03-17T13:35:57Z</time>
      </trkpt>
      <trkpt lat="42.88217" lon="0.1195">
        <ele>1874.23</ele>
        <time>2015-03-17T13:36:11Z</time>
      </trkpt>
      <trkpt lat="42.88213" lon="0.11936">
        <ele>1873.27</ele>
        <time>2015-03-17T13:36:20Z</time>
      </trkpt>
      <trkpt lat="42.8821" lon="0.11918">
        <ele>1871.34</ele>
        <time>2015-03-17T13:36:35Z</time>
      </trkpt>
      <trkpt lat="42.88209" lon="0.1191">
        <ele>1869.42</ele>
        <time>2015-03-17T13:36:41Z</time>
      </trkpt>
      <trkpt lat="42.8821" lon="0.11903">
        <ele>1868.94</ele>
        <time>2015-03-17T13:36:46Z</time>
      </trkpt>
      <trkpt lat="42.8821" lon="0.11881">
        <ele>1865.58</ele>
        <time>2015-03-17T13:37:00Z</time>
      </trkpt>
      <trkpt lat="42.88209" lon="0.11878">
        <ele>1864.61</ele>
        <time>2015-03-17T13:37:02Z</time>
      </trkpt>
      <trkpt lat="42.88211" lon="0.11858">
        <ele>1861.25</ele>
        <time>2015-03-17T13:37:13Z</time>
      </trkpt>
      <trkpt lat="42.8821" lon="0.1184">
        <ele>1858.37</ele>
        <time>2015-03-17T13:37:24Z</time>
      </trkpt>
      <trkpt lat="42.88209" lon="0.1182">
        <ele>1855</ele>
        <time>2015-03-17T13:37:37Z</time>
      </trkpt>
      <trkpt lat="42.88209" lon="0.11806">
        <ele>1852.12</ele>
        <time>2015-03-17T13:37:45Z</time>
      </trkpt>
      <trkpt lat="42.8821" lon="0.1179">
        <ele>1849.23</ele>
        <time>2015-03-17T13:37:55Z</time>
      </trkpt>
      <trkpt lat="42.8821" lon="0.11772">
        <ele>1845.87</ele>
        <time>2015-03-17T13:38:06Z</time>
      </trkpt>
      <trkpt lat="42.8821" lon="0.1176">
        <ele>1843.47</ele>
        <time>2015-03-17T13:38:13Z</time>
      </trkpt>
      <trkpt lat="42.8821" lon="0.1175">
        <ele>1841.06</ele>
        <time>2015-03-17T13:38:20Z</time>
      </trkpt>
      <trkpt lat="42.88211" lon="0.1174">
        <ele>1838.66</ele>
        <time>2015-03-17T13:38:27Z</time>
      </trkpt>
      <trkpt lat="42.8821" lon="0.11727">
        <ele>1835.29</ele>
        <time>2015-03-17T13:38:36Z</time>
      </trkpt>
      <trkpt lat="42.8821" lon="0.11722">
        <ele>1832.89</ele>
        <time>2015-03-17T13:38:41Z</time>
      </trkpt>
      <trkpt lat="42.88227" lon="0.11741">
        <ele>1829.53</ele>
        <time>2015-03-17T13:38:49Z</time>
      </trkpt>
      <trkpt lat="42.88237" lon="0.11729">
        <ele>1826.64</ele>
        <time>2015-03-17T13:38:58Z</time>
      </trkpt>
      <trkpt lat="42.88239" lon="0.11727">
        <ele>1825.68</ele>
        <time>2015-03-17T13:39:03Z</time>
      </trkpt>
      <trkpt lat="42.88239" lon="0.11725">
        <ele>1826.16</ele>
        <time>2015-03-17T13:39:05Z</time>
      </trkpt>
      <trkpt lat="42.88239" lon="0.11702">
        <ele>1822.8</ele>
        <time>2015-03-17T13:39:21Z</time>
      </trkpt>
      <trkpt lat="42.88239" lon="0.11699">
        <ele>1822.32</ele>
        <time>2015-03-17T13:39:23Z</time>
      </trkpt>
      <trkpt lat="42.8824" lon="0.11692">
        <ele>1821.35</ele>
        <time>2015-03-17T13:39:28Z</time>
      </trkpt>
      <trkpt lat="42.88245" lon="0.11681">
        <ele>1819.43</ele>
        <time>2015-03-17T13:39:38Z</time>
      </trkpt>
      <trkpt lat="42.8825" lon="0.11664">
        <ele>1817.51</ele>
        <time>2015-03-17T13:39:51Z</time>
      </trkpt>
      <trkpt lat="42.88251" lon="0.11659">
        <ele>1817.03</ele>
        <time>2015-03-17T13:39:54Z</time>
      </trkpt>
      <trkpt lat="42.88254" lon="0.11645">
        <ele>1815.59</ele>
        <time>2015-03-17T13:40:08Z</time>
      </trkpt>
      <trkpt lat="42.88256" lon="0.11631">
        <ele>1813.18</ele>
        <time>2015-03-17T13:40:20Z</time>
      </trkpt>
      <trkpt lat="42.88257" lon="0.11611">
        <ele>1810.78</ele>
        <time>2015-03-17T13:40:35Z</time>
      </trkpt>
      <trkpt lat="42.88253" lon="0.11588">
        <ele>1807.9</ele>
        <time>2015-03-17T13:40:51Z</time>
      </trkpt>
      <trkpt lat="42.8825" lon="0.11573">
        <ele>1807.9</ele>
        <time>2015-03-17T13:41:02Z</time>
      </trkpt>
      <trkpt lat="42.88252" lon="0.11553">
        <ele>1805.01</ele>
        <time>2015-03-17T13:41:16Z</time>
      </trkpt>
      <trkpt lat="42.88253" lon="0.11536">
        <ele>1802.61</ele>
        <time>2015-03-17T13:41:32Z</time>
      </trkpt>
      <trkpt lat="42.88255" lon="0.11523">
        <ele>1801.17</ele>
        <time>2015-03-17T13:41:47Z</time>
      </trkpt>
      <trkpt lat="42.88259" lon="0.11514">
        <ele>1799.73</ele>
        <time>2015-03-17T13:41:54Z</time>
      </trkpt>
      <trkpt lat="42.8826" lon="0.11501">
        <ele>1798.28</ele>
        <time>2015-03-17T13:42:04Z</time>
      </trkpt>
      <trkpt lat="42.88261" lon="0.11482">
        <ele>1795.4</ele>
        <time>2015-03-17T13:42:21Z</time>
      </trkpt>
      <trkpt lat="42.88266" lon="0.11466">
        <ele>1793.96</ele>
        <time>2015-03-17T13:42:35Z</time>
      </trkpt>
      <trkpt lat="42.88271" lon="0.11446">
        <ele>1790.59</ele>
        <time>2015-03-17T13:42:50Z</time>
      </trkpt>
      <trkpt lat="42.88273" lon="0.1143">
        <ele>1787.23</ele>
        <time>2015-03-17T13:43:02Z</time>
      </trkpt>
      <trkpt lat="42.88278" lon="0.11414">
        <ele>1783.86</ele>
        <time>2015-03-17T13:43:15Z</time>
      </trkpt>
      <trkpt lat="42.88279" lon="0.11411">
        <ele>1783.86</ele>
        <time>2015-03-17T13:43:17Z</time>
      </trkpt>
      <trkpt lat="42.88281" lon="0.11407">
        <ele>1782.9</ele>
        <time>2015-03-17T13:43:20Z</time>
      </trkpt>
      <trkpt lat="42.88282" lon="0.114">
        <ele>1781.46</ele>
        <time>2015-03-17T13:43:25Z</time>
      </trkpt>
      <trkpt lat="42.88281" lon="0.1139">
        <ele>1780.5</ele>
        <time>2015-03-17T13:43:32Z</time>
      </trkpt>
      <trkpt lat="42.8828" lon="0.11386">
        <ele>1780.02</ele>
        <time>2015-03-17T13:43:35Z</time>
      </trkpt>
      <trkpt lat="42.88279" lon="0.11383">
        <ele>1780.02</ele>
        <time>2015-03-17T13:43:38Z</time>
      </trkpt>
      <trkpt lat="42.88279" lon="0.11379">
        <ele>1779.54</ele>
        <time>2015-03-17T13:43:41Z</time>
      </trkpt>
      <trkpt lat="42.88278" lon="0.11375">
        <ele>1778.58</ele>
        <time>2015-03-17T13:43:44Z</time>
      </trkpt>
      <trkpt lat="42.88277" lon="0.11352">
        <ele>1776.17</ele>
        <time>2015-03-17T13:44:01Z</time>
      </trkpt>
      <trkpt lat="42.88277" lon="0.11328">
        <ele>1773.29</ele>
        <time>2015-03-17T13:44:17Z</time>
      </trkpt>
      <trkpt lat="42.88281" lon="0.11314">
        <ele>1771.37</ele>
        <time>2015-03-17T13:44:30Z</time>
      </trkpt>
      <trkpt lat="42.8828" lon="0.11292">
        <ele>1768.96</ele>
        <time>2015-03-17T13:44:45Z</time>
      </trkpt>
      <trkpt lat="42.88282" lon="0.1127">
        <ele>1768</ele>
        <time>2015-03-17T13:45:00Z</time>
      </trkpt>
      <trkpt lat="42.88286" lon="0.11255">
        <ele>1767.52</ele>
        <time>2015-03-17T13:45:13Z</time>
      </trkpt>
      <trkpt lat="42.88285" lon="0.11256">
        <ele>1767.52</ele>
        <time>2015-03-17T13:45:20Z</time>
      </trkpt>
      <trkpt lat="42.88286" lon="0.11251">
        <ele>1767.04</ele>
        <time>2015-03-17T13:45:23Z</time>
      </trkpt>
      <trkpt lat="42.8829" lon="0.1123">
        <ele>1765.6</ele>
        <time>2015-03-17T13:45:38Z</time>
      </trkpt>
      <trkpt lat="42.88299" lon="0.11208">
        <ele>1762.71</ele>
        <time>2015-03-17T13:45:55Z</time>
      </trkpt>
      <trkpt lat="42.8831" lon="0.11189">
        <ele>1760.31</ele>
        <time>2015-03-17T13:46:12Z</time>
      </trkpt>
      <trkpt lat="42.88319" lon="0.11181">
        <ele>1759.35</ele>
        <time>2015-03-17T13:46:22Z</time>
      </trkpt>
      <trkpt lat="42.88334" lon="0.1117">
        <ele>1757.43</ele>
        <time>2015-03-17T13:46:38Z</time>
      </trkpt>
      <trkpt lat="42.88334" lon="0.1117">
        <ele>1756.95</ele>
        <time>2015-03-17T13:46:39Z</time>
      </trkpt>
      <trkpt lat="42.88353" lon="0.11163">
        <ele>1754.54</ele>
        <time>2015-03-17T13:46:56Z</time>
      </trkpt>
      <trkpt lat="42.88373" lon="0.11159">
        <ele>1751.66</ele>
        <time>2015-03-17T13:47:15Z</time>
      </trkpt>
      <trkpt lat="42.88379" lon="0.11157">
        <ele>1751.18</ele>
        <time>2015-03-17T13:47:20Z</time>
      </trkpt>
      <trkpt lat="42.88388" lon="0.11138">
        <ele>1750.7</ele>
        <time>2015-03-17T13:47:36Z</time>
      </trkpt>
      <trkpt lat="42.88397" lon="0.1112">
        <ele>1749.74</ele>
        <time>2015-03-17T13:47:50Z</time>
      </trkpt>
      <trkpt lat="42.88401" lon="0.1111">
        <ele>1749.26</ele>
        <time>2015-03-17T13:47:58Z</time>
      </trkpt>
      <trkpt lat="42.88404" lon="0.11104">
        <ele>1748.78</ele>
        <time>2015-03-17T13:48:03Z</time>
      </trkpt>
      <trkpt lat="42.88419" lon="0.11091">
        <ele>1747.81</ele>
        <time>2015-03-17T13:48:19Z</time>
      </trkpt>
      <trkpt lat="42.8843" lon="0.11081">
        <ele>1747.33</ele>
        <time>2015-03-17T13:48:31Z</time>
      </trkpt>
      <trkpt lat="42.88439" lon="0.1107">
        <ele>1746.85</ele>
        <time>2015-03-17T13:48:42Z</time>
      </trkpt>
      <trkpt lat="42.88441" lon="0.11069">
        <ele>1746.85</ele>
        <time>2015-03-17T13:48:44Z</time>
      </trkpt>
      <trkpt lat="42.88443" lon="0.11067">
        <ele>1746.37</ele>
        <time>2015-03-17T13:48:46Z</time>
      </trkpt>
      <trkpt lat="42.88452" lon="0.11053">
        <ele>1745.89</ele>
        <time>2015-03-17T13:49:00Z</time>
      </trkpt>
      <trkpt lat="42.88453" lon="0.11052">
        <ele>1745.89</ele>
        <time>2015-03-17T13:49:01Z</time>
      </trkpt>
      <trkpt lat="42.88454" lon="0.1105">
        <ele>1745.89</ele>
        <time>2015-03-17T13:49:03Z</time>
      </trkpt>
      <trkpt lat="42.8846" lon="0.11043">
        <ele>1745.41</ele>
        <time>2015-03-17T13:49:14Z</time>
      </trkpt>
      <trkpt lat="42.88472" lon="0.11028">
        <ele>1744.45</ele>
        <time>2015-03-17T13:49:28Z</time>
      </trkpt>
      <trkpt lat="42.88481" lon="0.11014">
        <ele>1743.01</ele>
        <time>2015-03-17T13:49:43Z</time>
      </trkpt>
      <trkpt lat="42.88482" lon="0.11012">
        <ele>1742.53</ele>
        <time>2015-03-17T13:49:55Z</time>
      </trkpt>
      <trkpt lat="42.88483" lon="0.11011">
        <ele>1742.53</ele>
        <time>2015-03-17T13:49:56Z</time>
      </trkpt>
      <trkpt lat="42.88485" lon="0.11009">
        <ele>1742.05</ele>
        <time>2015-03-17T13:49:58Z</time>
      </trkpt>
      <trkpt lat="42.88488" lon="0.11004">
        <ele>1742.05</ele>
        <time>2015-03-17T13:50:02Z</time>
      </trkpt>
      <trkpt lat="42.88494" lon="0.10995">
        <ele>1740.12</ele>
        <time>2015-03-17T13:50:10Z</time>
      </trkpt>
      <trkpt lat="42.88508" lon="0.10979">
        <ele>1737.72</ele>
        <time>2015-03-17T13:50:25Z</time>
      </trkpt>
      <trkpt lat="42.88518" lon="0.10967">
        <ele>1736.28</ele>
        <time>2015-03-17T13:50:37Z</time>
      </trkpt>
      <trkpt lat="42.88529" lon="0.10953">
        <ele>1734.84</ele>
        <time>2015-03-17T13:50:51Z</time>
      </trkpt>
      <trkpt lat="42.88537" lon="0.10945">
        <ele>1733.39</ele>
        <time>2015-03-17T13:51:01Z</time>
      </trkpt>
      <trkpt lat="42.88552" lon="0.10927">
        <ele>1730.99</ele>
        <time>2015-03-17T13:51:18Z</time>
      </trkpt>
      <trkpt lat="42.88562" lon="0.10916">
        <ele>1730.03</ele>
        <time>2015-03-17T13:51:30Z</time>
      </trkpt>
      <trkpt lat="42.88565" lon="0.10914">
        <ele>1729.55</ele>
        <time>2015-03-17T13:51:33Z</time>
      </trkpt>
      <trkpt lat="42.88578" lon="0.10898">
        <ele>1726.18</ele>
        <time>2015-03-17T13:51:50Z</time>
      </trkpt>
      <trkpt lat="42.88592" lon="0.10885">
        <ele>1722.82</ele>
        <time>2015-03-17T13:52:04Z</time>
      </trkpt>
      <trkpt lat="42.88609" lon="0.1087">
        <ele>1720.42</ele>
        <time>2015-03-17T13:52:21Z</time>
      </trkpt>
      <trkpt lat="42.8862" lon="0.10862">
        <ele>1718.49</ele>
        <time>2015-03-17T13:52:31Z</time>
      </trkpt>
      <trkpt lat="42.88629" lon="0.10849">
        <ele>1714.65</ele>
        <time>2015-03-17T13:52:43Z</time>
      </trkpt>
      <trkpt lat="42.88635" lon="0.10841">
        <ele>1711.28</ele>
        <time>2015-03-17T13:52:54Z</time>
      </trkpt>
      <trkpt lat="42.88644" lon="0.10832">
        <ele>1707.92</ele>
        <time>2015-03-17T13:53:05Z</time>
      </trkpt>
      <trkpt lat="42.88654" lon="0.10828">
        <ele>1705.52</ele>
        <time>2015-03-17T13:53:15Z</time>
      </trkpt>
      <trkpt lat="42.8866" lon="0.10811">
        <ele>1702.15</ele>
        <time>2015-03-17T13:53:24Z</time>
      </trkpt>
      <trkpt lat="42.88662" lon="0.10804">
        <ele>1701.19</ele>
        <time>2015-03-17T13:53:27Z</time>
      </trkpt>
      <trkpt lat="42.88665" lon="0.10804">
        <ele>1700.23</ele>
        <time>2015-03-17T13:53:29Z</time>
      </trkpt>
      <trkpt lat="42.88665" lon="0.10802">
        <ele>1700.23</ele>
        <time>2015-03-17T13:53:31Z</time>
      </trkpt>
      <trkpt lat="42.88668" lon="0.10801">
        <ele>1699.75</ele>
        <time>2015-03-17T13:53:33Z</time>
      </trkpt>
      <trkpt lat="42.88671" lon="0.10795">
        <ele>1698.79</ele>
        <time>2015-03-17T13:53:37Z</time>
      </trkpt>
      <trkpt lat="42.88674" lon="0.10793">
        <ele>1698.31</ele>
        <time>2015-03-17T13:53:40Z</time>
      </trkpt>
      <trkpt lat="42.88674" lon="0.10784">
        <ele>1697.83</ele>
        <time>2015-03-17T13:53:43Z</time>
      </trkpt>
      <trkpt lat="42.88675" lon="0.10783">
        <ele>1697.34</ele>
        <time>2015-03-17T13:53:44Z</time>
      </trkpt>
      <trkpt lat="42.88678" lon="0.10763">
        <ele>1695.9</ele>
        <time>2015-03-17T13:53:53Z</time>
      </trkpt>
      <trkpt lat="42.88682" lon="0.10749">
        <ele>1693.98</ele>
        <time>2015-03-17T13:54:00Z</time>
      </trkpt>
      <trkpt lat="42.88687" lon="0.10729">
        <ele>1691.58</ele>
        <time>2015-03-17T13:54:09Z</time>
      </trkpt>
      <trkpt lat="42.88688" lon="0.10722">
        <ele>1690.62</ele>
        <time>2015-03-17T13:54:12Z</time>
      </trkpt>
      <trkpt lat="42.88691" lon="0.107">
        <ele>1688.21</ele>
        <time>2015-03-17T13:54:20Z</time>
      </trkpt>
      <trkpt lat="42.88691" lon="0.10696">
        <ele>1687.73</ele>
        <time>2015-03-17T13:54:21Z</time>
      </trkpt>
      <trkpt lat="42.88692" lon="0.10692">
        <ele>1687.25</ele>
        <time>2015-03-17T13:54:23Z</time>
      </trkpt>
      <trkpt lat="42.88705" lon="0.10719">
        <ele>1685.81</ele>
        <time>2015-03-17T13:54:28Z</time>
      </trkpt>
      <trkpt lat="42.88707" lon="0.10716">
        <ele>1684.85</ele>
        <time>2015-03-17T13:54:31Z</time>
      </trkpt>
      <trkpt lat="42.88711" lon="0.10694">
        <ele>1682.44</ele>
        <time>2015-03-17T13:54:40Z</time>
      </trkpt>
      <trkpt lat="42.88713" lon="0.10677">
        <ele>1680.04</ele>
        <time>2015-03-17T13:54:47Z</time>
      </trkpt>
      <trkpt lat="42.88719" lon="0.10655">
        <ele>1676.68</ele>
        <time>2015-03-17T13:54:58Z</time>
      </trkpt>
      <trkpt lat="42.8872" lon="0.10654">
        <ele>1676.68</ele>
        <time>2015-03-17T13:54:59Z</time>
      </trkpt>
      <trkpt lat="42.88722" lon="0.10652">
        <ele>1676.2</ele>
        <time>2015-03-17T13:55:01Z</time>
      </trkpt>
      <trkpt lat="42.88725" lon="0.10643">
        <ele>1675.23</ele>
        <time>2015-03-17T13:55:06Z</time>
      </trkpt>
      <trkpt lat="42.88732" lon="0.10634">
        <ele>1673.31</ele>
        <time>2015-03-17T13:55:15Z</time>
      </trkpt>
      <trkpt lat="42.88735" lon="0.10631">
        <ele>1671.87</ele>
        <time>2015-03-17T13:55:18Z</time>
      </trkpt>
      <trkpt lat="42.88741" lon="0.10611">
        <ele>1670.91</ele>
        <time>2015-03-17T13:55:28Z</time>
      </trkpt>
      <trkpt lat="42.88742" lon="0.10606">
        <ele>1670.43</ele>
        <time>2015-03-17T13:55:30Z</time>
      </trkpt>
      <trkpt lat="42.88743" lon="0.10605">
        <ele>1670.43</ele>
        <time>2015-03-17T13:55:31Z</time>
      </trkpt>
      <trkpt lat="42.88794" lon="0.10754">
        <ele>1666.58</ele>
        <time>2015-03-17T13:55:46Z</time>
      </trkpt>
      <trkpt lat="42.8881" lon="0.10749">
        <ele>1665.62</ele>
        <time>2015-03-17T13:56:01Z</time>
      </trkpt>
      <trkpt lat="42.88822" lon="0.10745">
        <ele>1664.66</ele>
        <time>2015-03-17T13:56:11Z</time>
      </trkpt>
      <trkpt lat="42.88839" lon="0.10745">
        <ele>1662.74</ele>
        <time>2015-03-17T13:56:24Z</time>
      </trkpt>
      <trkpt lat="42.88842" lon="0.10744">
        <ele>1662.26</ele>
        <time>2015-03-17T13:56:27Z</time>
      </trkpt>
      <trkpt lat="42.88848" lon="0.10743">
        <ele>1660.81</ele>
        <time>2015-03-17T13:56:32Z</time>
      </trkpt>
      <trkpt lat="42.88864" lon="0.1074">
        <ele>1659.37</ele>
        <time>2015-03-17T13:56:48Z</time>
      </trkpt>
      <trkpt lat="42.88876" lon="0.1073">
        <ele>1657.93</ele>
        <time>2015-03-17T13:57:02Z</time>
      </trkpt>
      <trkpt lat="42.88885" lon="0.10718">
        <ele>1656.97</ele>
        <time>2015-03-17T13:57:14Z</time>
      </trkpt>
      <trkpt lat="42.88891" lon="0.10706">
        <ele>1655.53</ele>
        <time>2015-03-17T13:57:25Z</time>
      </trkpt>
      <trkpt lat="42.88899" lon="0.10693">
        <ele>1655.53</ele>
        <time>2015-03-17T13:57:35Z</time>
      </trkpt>
      <trkpt lat="42.88912" lon="0.10684">
        <ele>1656.97</ele>
        <time>2015-03-17T13:57:50Z</time>
      </trkpt>
      <trkpt lat="42.88921" lon="0.1068">
        <ele>1656.97</ele>
        <time>2015-03-17T13:58:01Z</time>
      </trkpt>
      <trkpt lat="42.88924" lon="0.10682">
        <ele>1656.49</ele>
        <time>2015-03-17T13:58:03Z</time>
      </trkpt>
      <trkpt lat="42.88936" lon="0.10683">
        <ele>1656.01</ele>
        <time>2015-03-17T13:58:15Z</time>
      </trkpt>
      <trkpt lat="42.88947" lon="0.1068">
        <ele>1653.6</ele>
        <time>2015-03-17T13:58:27Z</time>
      </trkpt>
      <trkpt lat="42.88948" lon="0.10673">
        <ele>1652.64</ele>
        <time>2015-03-17T13:58:30Z</time>
      </trkpt>
      <trkpt lat="42.8896" lon="0.10674">
        <ele>1651.2</ele>
        <time>2015-03-17T13:58:39Z</time>
      </trkpt>
      <trkpt lat="42.88974" lon="0.10668">
        <ele>1648.32</ele>
        <time>2015-03-17T13:58:54Z</time>
      </trkpt>
      <trkpt lat="42.8899" lon="0.10667">
        <ele>1645.91</ele>
        <time>2015-03-17T13:59:09Z</time>
      </trkpt>
      <trkpt lat="42.89002" lon="0.10676">
        <ele>1644.47</ele>
        <time>2015-03-17T13:59:20Z</time>
      </trkpt>
      <trkpt lat="42.89003" lon="0.10677">
        <ele>1644.47</ele>
        <time>2015-03-17T13:59:21Z</time>
      </trkpt>
      <trkpt lat="42.89015" lon="0.10672">
        <ele>1644.47</ele>
        <time>2015-03-17T13:59:33Z</time>
      </trkpt>
      <trkpt lat="42.89026" lon="0.10668">
        <ele>1643.51</ele>
        <time>2015-03-17T13:59:44Z</time>
      </trkpt>
      <trkpt lat="42.89041" lon="0.10662">
        <ele>1641.59</ele>
        <time>2015-03-17T13:59:59Z</time>
      </trkpt>
      <trkpt lat="42.89045" lon="0.1066">
        <ele>1640.63</ele>
        <time>2015-03-17T14:00:03Z</time>
      </trkpt>
      <trkpt lat="42.89065" lon="0.10665">
        <ele>1637.74</ele>
        <time>2015-03-17T14:00:19Z</time>
      </trkpt>
      <trkpt lat="42.89076" lon="0.10669">
        <ele>1634.86</ele>
        <time>2015-03-17T14:00:26Z</time>
      </trkpt>
      <trkpt lat="42.89088" lon="0.10667">
        <ele>1634.38</ele>
        <time>2015-03-17T14:00:38Z</time>
      </trkpt>
      <trkpt lat="42.89093" lon="0.10666">
        <ele>1634.38</ele>
        <time>2015-03-17T14:00:45Z</time>
      </trkpt>
      <trkpt lat="42.89098" lon="0.10664">
        <ele>1634.38</ele>
        <time>2015-03-17T14:00:50Z</time>
      </trkpt>
      <trkpt lat="42.89099" lon="0.10663">
        <ele>1634.38</ele>
        <time>2015-03-17T14:00:52Z</time>
      </trkpt>
      <trkpt lat="42.89112" lon="0.10661">
        <ele>1633.42</ele>
        <time>2015-03-17T14:01:05Z</time>
      </trkpt>
      <trkpt lat="42.8912" lon="0.1066">
        <ele>1634.38</ele>
        <time>2015-03-17T14:01:16Z</time>
      </trkpt>
      <trkpt lat="42.89129" lon="0.10655">
        <ele>1634.86</ele>
        <time>2015-03-17T14:01:28Z</time>
      </trkpt>
      <trkpt lat="42.89138" lon="0.10652">
        <ele>1633.42</ele>
        <time>2015-03-17T14:01:41Z</time>
      </trkpt>
      <trkpt lat="42.89139" lon="0.10652">
        <ele>1633.42</ele>
        <time>2015-03-17T14:01:42Z</time>
      </trkpt>
      <trkpt lat="42.89144" lon="0.1065">
        <ele>1631.98</ele>
        <time>2015-03-17T14:01:49Z</time>
      </trkpt>
      <trkpt lat="42.89147" lon="0.10649">
        <ele>1631.49</ele>
        <time>2015-03-17T14:01:52Z</time>
      </trkpt>
      <trkpt lat="42.89159" lon="0.10648">
        <ele>1629.57</ele>
        <time>2015-03-17T14:02:05Z</time>
      </trkpt>
      <trkpt lat="42.89161" lon="0.10648">
        <ele>1629.09</ele>
        <time>2015-03-17T14:02:07Z</time>
      </trkpt>
      <trkpt lat="42.89166" lon="0.10647">
        <ele>1628.61</ele>
        <time>2015-03-17T14:02:11Z</time>
      </trkpt>
      <trkpt lat="42.89171" lon="0.10646">
        <ele>1627.65</ele>
        <time>2015-03-17T14:02:25Z</time>
      </trkpt>
      <trkpt lat="42.89172" lon="0.10645">
        <ele>1627.17</ele>
        <time>2015-03-17T14:02:40Z</time>
      </trkpt>
      <trkpt lat="42.89177" lon="0.10646">
        <ele>1626.69</ele>
        <time>2015-03-17T14:02:51Z</time>
      </trkpt>
      <trkpt lat="42.89179" lon="0.10645">
        <ele>1626.69</ele>
        <time>2015-03-17T14:02:54Z</time>
      </trkpt>
      <trkpt lat="42.89182" lon="0.10643">
        <ele>1626.69</ele>
        <time>2015-03-17T14:02:57Z</time>
      </trkpt>
      <trkpt lat="42.89194" lon="0.10643">
        <ele>1624.28</ele>
        <time>2015-03-17T14:03:10Z</time>
      </trkpt>
      <trkpt lat="42.89202" lon="0.10639">
        <ele>1621.88</ele>
        <time>2015-03-17T14:03:18Z</time>
      </trkpt>
      <trkpt lat="42.89214" lon="0.10636">
        <ele>1618.52</ele>
        <time>2015-03-17T14:03:30Z</time>
      </trkpt>
      <trkpt lat="42.89227" lon="0.1063">
        <ele>1615.15</ele>
        <time>2015-03-17T14:03:44Z</time>
      </trkpt>
      <trkpt lat="42.89239" lon="0.10622">
        <ele>1613.71</ele>
        <time>2015-03-17T14:03:55Z</time>
      </trkpt>
      <trkpt lat="42.89254" lon="0.10616">
        <ele>1610.83</ele>
        <time>2015-03-17T14:04:11Z</time>
      </trkpt>
      <trkpt lat="42.89271" lon="0.10617">
        <ele>1607.94</ele>
        <time>2015-03-17T14:04:26Z</time>
      </trkpt>
      <trkpt lat="42.89276" lon="0.10615">
        <ele>1606.98</ele>
        <time>2015-03-17T14:04:31Z</time>
      </trkpt>
      <trkpt lat="42.89279" lon="0.10613">
        <ele>1606.02</ele>
        <time>2015-03-17T14:04:34Z</time>
      </trkpt>
      <trkpt lat="42.89297" lon="0.10619">
        <ele>1603.14</ele>
        <time>2015-03-17T14:04:49Z</time>
      </trkpt>
      <trkpt lat="42.8931" lon="0.10623">
        <ele>1601.21</ele>
        <time>2015-03-17T14:05:01Z</time>
      </trkpt>
      <trkpt lat="42.89326" lon="0.10629">
        <ele>1599.29</ele>
        <time>2015-03-17T14:05:16Z</time>
      </trkpt>
      <trkpt lat="42.89344" lon="0.10633">
        <ele>1595.45</ele>
        <time>2015-03-17T14:05:33Z</time>
      </trkpt>
      <trkpt lat="42.89354" lon="0.10631">
        <ele>1594</ele>
        <time>2015-03-17T14:05:41Z</time>
      </trkpt>
      <trkpt lat="42.89358" lon="0.10631">
        <ele>1593.04</ele>
        <time>2015-03-17T14:05:46Z</time>
      </trkpt>
      <trkpt lat="42.89375" lon="0.10631">
        <ele>1589.68</ele>
        <time>2015-03-17T14:05:59Z</time>
      </trkpt>
      <trkpt lat="42.89391" lon="0.10636">
        <ele>1587.75</ele>
        <time>2015-03-17T14:06:13Z</time>
      </trkpt>
      <trkpt lat="42.89387" lon="0.10637">
        <ele>1587.75</ele>
        <time>2015-03-17T14:06:23Z</time>
      </trkpt>
      <trkpt lat="42.89389" lon="0.10633">
        <ele>1586.79</ele>
        <time>2015-03-17T14:06:27Z</time>
      </trkpt>
      <trkpt lat="42.894" lon="0.10628">
        <ele>1583.43</ele>
        <time>2015-03-17T14:06:38Z</time>
      </trkpt>
      <trkpt lat="42.89409" lon="0.10621">
        <ele>1580.06</ele>
        <time>2015-03-17T14:06:48Z</time>
      </trkpt>
      <trkpt lat="42.89415" lon="0.1062">
        <ele>1579.1</ele>
        <time>2015-03-17T14:06:53Z</time>
      </trkpt>
      <trkpt lat="42.89418" lon="0.10625">
        <ele>1578.14</ele>
        <time>2015-03-17T14:07:05Z</time>
      </trkpt>
      <trkpt lat="42.89422" lon="0.10622">
        <ele>1579.1</ele>
        <time>2015-03-17T14:07:11Z</time>
      </trkpt>
      <trkpt lat="42.8943" lon="0.10615">
        <ele>1575.74</ele>
        <time>2015-03-17T14:07:22Z</time>
      </trkpt>
      <trkpt lat="42.89431" lon="0.10623">
        <ele>1576.22</ele>
        <time>2015-03-17T14:07:46Z</time>
      </trkpt>
      <trkpt lat="42.89439" lon="0.10614">
        <ele>1574.3</ele>
        <time>2015-03-17T14:07:58Z</time>
      </trkpt>
      <trkpt lat="42.8944" lon="0.10613">
        <ele>1574.3</ele>
        <time>2015-03-17T14:07:59Z</time>
      </trkpt>
      <trkpt lat="42.89448" lon="0.10599">
        <ele>1570.93</ele>
        <time>2015-03-17T14:08:13Z</time>
      </trkpt>
      <trkpt lat="42.89455" lon="0.10585">
        <ele>1568.53</ele>
        <time>2015-03-17T14:08:24Z</time>
      </trkpt>
      <trkpt lat="42.89456" lon="0.10583">
        <ele>1568.05</ele>
        <time>2015-03-17T14:08:26Z</time>
      </trkpt>
      <trkpt lat="42.89468" lon="0.1057">
        <ele>1564.68</ele>
        <time>2015-03-17T14:08:40Z</time>
      </trkpt>
      <trkpt lat="42.89479" lon="0.10564">
        <ele>1562.76</ele>
        <time>2015-03-17T14:08:53Z</time>
      </trkpt>
      <trkpt lat="42.8948" lon="0.10563">
        <ele>1562.76</ele>
        <time>2015-03-17T14:08:54Z</time>
      </trkpt>
      <trkpt lat="42.89484" lon="0.10563">
        <ele>1562.76</ele>
        <time>2015-03-17T14:08:58Z</time>
      </trkpt>
      <trkpt lat="42.89489" lon="0.10572">
        <ele>1564.2</ele>
        <time>2015-03-17T14:09:11Z</time>
      </trkpt>
      <trkpt lat="42.89491" lon="0.10572">
        <ele>1564.2</ele>
        <time>2015-03-17T14:09:36Z</time>
      </trkpt>
      <trkpt lat="42.89492" lon="0.10573">
        <ele>1563.72</ele>
        <time>2015-03-17T14:10:03Z</time>
      </trkpt>
      <trkpt lat="42.89488" lon="0.10569">
        <ele>1563.24</ele>
        <time>2015-03-17T14:10:13Z</time>
      </trkpt>
      <trkpt lat="42.89495" lon="0.10558">
        <ele>1559.88</ele>
        <time>2015-03-17T14:10:22Z</time>
      </trkpt>
      <trkpt lat="42.89503" lon="0.10541">
        <ele>1556.51</ele>
        <time>2015-03-17T14:10:36Z</time>
      </trkpt>
      <trkpt lat="42.89515" lon="0.10525">
        <ele>1553.63</ele>
        <time>2015-03-17T14:10:51Z</time>
      </trkpt>
      <trkpt lat="42.89528" lon="0.10512">
        <ele>1550.74</ele>
        <time>2015-03-17T14:11:06Z</time>
      </trkpt>
      <trkpt lat="42.8953" lon="0.10509">
        <ele>1550.26</ele>
        <time>2015-03-17T14:11:09Z</time>
      </trkpt>
      <trkpt lat="42.89532" lon="0.10503">
        <ele>1549.78</ele>
        <time>2015-03-17T14:11:14Z</time>
      </trkpt>
      <trkpt lat="42.89537" lon="0.10497">
        <ele>1549.3</ele>
        <time>2015-03-17T14:11:28Z</time>
      </trkpt>
      <trkpt lat="42.89538" lon="0.10493">
        <ele>1548.82</ele>
        <time>2015-03-17T14:11:31Z</time>
      </trkpt>
      <trkpt lat="42.8954" lon="0.10487">
        <ele>1548.82</ele>
        <time>2015-03-17T14:11:44Z</time>
      </trkpt>
      <trkpt lat="42.89543" lon="0.10485">
        <ele>1548.82</ele>
        <time>2015-03-17T14:12:00Z</time>
      </trkpt>
      <trkpt lat="42.89545" lon="0.10479">
        <ele>1548.82</ele>
        <time>2015-03-17T14:12:13Z</time>
      </trkpt>
      <trkpt lat="42.89546" lon="0.10474">
        <ele>1547.86</ele>
        <time>2015-03-17T14:12:21Z</time>
      </trkpt>
      <trkpt lat="42.89549" lon="0.10462">
        <ele>1547.86</ele>
        <time>2015-03-17T14:12:30Z</time>
      </trkpt>
      <trkpt lat="42.89552" lon="0.10455">
        <ele>1547.86</ele>
        <time>2015-03-17T14:12:37Z</time>
      </trkpt>
      <trkpt lat="42.89559" lon="0.10454">
        <ele>1547.86</ele>
        <time>2015-03-17T14:12:52Z</time>
      </trkpt>
      <trkpt lat="42.89557" lon="0.10458">
        <ele>1547.86</ele>
        <time>2015-03-17T14:13:12Z</time>
      </trkpt>
      <trkpt lat="42.89563" lon="0.10458">
        <ele>1547.86</ele>
        <time>2015-03-17T14:13:25Z</time>
      </trkpt>
      <trkpt lat="42.89561" lon="0.10452">
        <ele>1547.86</ele>
        <time>2015-03-17T14:14:01Z</time>
      </trkpt>
      <trkpt lat="42.89562" lon="0.10456">
        <ele>1547.38</ele>
        <time>2015-03-17T14:14:30Z</time>
      </trkpt>
      <trkpt lat="42.89562" lon="0.10452">
        <ele>1547.38</ele>
        <time>2015-03-17T14:14:43Z</time>
      </trkpt>
      <trkpt lat="42.89565" lon="0.10453">
        <ele>1547.38</ele>
        <time>2015-03-17T14:14:55Z</time>
      </trkpt>
      <trkpt lat="42.89574" lon="0.1046">
        <ele>1546.9</ele>
        <time>2015-03-17T14:15:06Z</time>
      </trkpt>
      <trkpt lat="42.89581" lon="0.10464">
        <ele>1543.53</ele>
        <time>2015-03-17T14:15:15Z</time>
      </trkpt>
      <trkpt lat="42.89584" lon="0.10466">
        <ele>1546.42</ele>
        <time>2015-03-17T14:15:18Z</time>
      </trkpt>
      <trkpt lat="42.89586" lon="0.10467">
        <ele>1545.46</ele>
        <time>2015-03-17T14:15:20Z</time>
      </trkpt>
      <trkpt lat="42.89594" lon="0.10469">
        <ele>1544.01</ele>
        <time>2015-03-17T14:15:29Z</time>
      </trkpt>
      <trkpt lat="42.89599" lon="0.10473">
        <ele>1544.01</ele>
        <time>2015-03-17T14:15:35Z</time>
      </trkpt>
      <trkpt lat="42.89602" lon="0.10473">
        <ele>1544.01</ele>
        <time>2015-03-17T14:15:38Z</time>
      </trkpt>
      <trkpt lat="42.89616" lon="0.10477">
        <ele>1542.09</ele>
        <time>2015-03-17T14:15:53Z</time>
      </trkpt>
      <trkpt lat="42.89629" lon="0.10482">
        <ele>1541.61</ele>
        <time>2015-03-17T14:16:06Z</time>
      </trkpt>
      <trkpt lat="42.89632" lon="0.10483">
        <ele>1541.13</ele>
        <time>2015-03-17T14:16:09Z</time>
      </trkpt>
      <trkpt lat="42.89651" lon="0.10481">
        <ele>1539.21</ele>
        <time>2015-03-17T14:16:24Z</time>
      </trkpt>
      <trkpt lat="42.89667" lon="0.10477">
        <ele>1537.29</ele>
        <time>2015-03-17T14:16:38Z</time>
      </trkpt>
      <trkpt lat="42.89688" lon="0.1047">
        <ele>1535.84</ele>
        <time>2015-03-17T14:16:53Z</time>
      </trkpt>
      <trkpt lat="42.89709" lon="0.10462">
        <ele>1533.92</ele>
        <time>2015-03-17T14:17:09Z</time>
      </trkpt>
      <trkpt lat="42.89727" lon="0.10457">
        <ele>1532.48</ele>
        <time>2015-03-17T14:17:23Z</time>
      </trkpt>
      <trkpt lat="42.89745" lon="0.10456">
        <ele>1530.08</ele>
        <time>2015-03-17T14:17:39Z</time>
      </trkpt>
      <trkpt lat="42.8976" lon="0.10457">
        <ele>1529.11</ele>
        <time>2015-03-17T14:17:53Z</time>
      </trkpt>
      <trkpt lat="42.89775" lon="0.10451">
        <ele>1527.67</ele>
        <time>2015-03-17T14:18:09Z</time>
      </trkpt>
      <trkpt lat="42.89777" lon="0.10444">
        <ele>1528.15</ele>
        <time>2015-03-17T14:18:23Z</time>
      </trkpt>
      <trkpt lat="42.89785" lon="0.10437">
        <ele>1527.67</ele>
        <time>2015-03-17T14:18:43Z</time>
      </trkpt>
      <trkpt lat="42.89794" lon="0.10442">
        <ele>1527.19</ele>
        <time>2015-03-17T14:18:51Z</time>
      </trkpt>
      <trkpt lat="42.898" lon="0.10442">
        <ele>1525.75</ele>
        <time>2015-03-17T14:18:56Z</time>
      </trkpt>
      <trkpt lat="42.89807" lon="0.10436">
        <ele>1524.31</ele>
        <time>2015-03-17T14:19:03Z</time>
      </trkpt>
      <trkpt lat="42.89821" lon="0.10427">
        <ele>1522.87</ele>
        <time>2015-03-17T14:19:18Z</time>
      </trkpt>
      <trkpt lat="42.89822" lon="0.10426">
        <ele>1522.87</ele>
        <time>2015-03-17T14:19:19Z</time>
      </trkpt>
      <trkpt lat="42.8983" lon="0.1042">
        <ele>1521.9</ele>
        <time>2015-03-17T14:19:33Z</time>
      </trkpt>
      <trkpt lat="42.89834" lon="0.10417">
        <ele>1520.94</ele>
        <time>2015-03-17T14:19:40Z</time>
      </trkpt>
      <trkpt lat="42.89847" lon="0.1041">
        <ele>1519.5</ele>
        <time>2015-03-17T14:19:54Z</time>
      </trkpt>
      <trkpt lat="42.89859" lon="0.10402">
        <ele>1518.06</ele>
        <time>2015-03-17T14:20:08Z</time>
      </trkpt>
      <trkpt lat="42.89866" lon="0.10399">
        <ele>1517.58</ele>
        <time>2015-03-17T14:20:15Z</time>
      </trkpt>
      <trkpt lat="42.89877" lon="0.10394">
        <ele>1515.18</ele>
        <time>2015-03-17T14:20:25Z</time>
      </trkpt>
      <trkpt lat="42.89893" lon="0.10388">
        <ele>1514.21</ele>
        <time>2015-03-17T14:20:41Z</time>
      </trkpt>
      <trkpt lat="42.89903" lon="0.10384">
        <ele>1513.73</ele>
        <time>2015-03-17T14:20:49Z</time>
      </trkpt>
      <trkpt lat="42.89909" lon="0.10382">
        <ele>1512.77</ele>
        <time>2015-03-17T14:20:55Z</time>
      </trkpt>
      <trkpt lat="42.89925" lon="0.10374">
        <ele>1511.33</ele>
        <time>2015-03-17T14:21:10Z</time>
      </trkpt>
      <trkpt lat="42.89945" lon="0.10366">
        <ele>1509.89</ele>
        <time>2015-03-17T14:21:26Z</time>
      </trkpt>
      <trkpt lat="42.89955" lon="0.10362">
        <ele>1508.93</ele>
        <time>2015-03-17T14:21:35Z</time>
      </trkpt>
      <trkpt lat="42.89966" lon="0.10357">
        <ele>1507.48</ele>
        <time>2015-03-17T14:21:46Z</time>
      </trkpt>
      <trkpt lat="42.89979" lon="0.10353">
        <ele>1506.04</ele>
        <time>2015-03-17T14:21:59Z</time>
      </trkpt>
      <trkpt lat="42.89989" lon="0.10349">
        <ele>1505.08</ele>
        <time>2015-03-17T14:22:08Z</time>
      </trkpt>
      <trkpt lat="42.90011" lon="0.10341">
        <ele>1503.16</ele>
        <time>2015-03-17T14:22:24Z</time>
      </trkpt>
      <trkpt lat="42.90023" lon="0.10335">
        <ele>1501.72</ele>
        <time>2015-03-17T14:22:38Z</time>
      </trkpt>
      <trkpt lat="42.9004" lon="0.10328">
        <ele>1500.27</ele>
        <time>2015-03-17T14:22:53Z</time>
      </trkpt>
      <trkpt lat="42.90054" lon="0.10321">
        <ele>1498.83</ele>
        <time>2015-03-17T14:23:07Z</time>
      </trkpt>
      <trkpt lat="42.9007" lon="0.10312">
        <ele>1497.39</ele>
        <time>2015-03-17T14:23:22Z</time>
      </trkpt>
      <trkpt lat="42.90081" lon="0.10309">
        <ele>1496.43</ele>
        <time>2015-03-17T14:23:33Z</time>
      </trkpt>
      <trkpt lat="42.90093" lon="0.10308">
        <ele>1494.99</ele>
        <time>2015-03-17T14:23:44Z</time>
      </trkpt>
      <trkpt lat="42.90112" lon="0.10302">
        <ele>1493.06</ele>
        <time>2015-03-17T14:24:00Z</time>
      </trkpt>
      <trkpt lat="42.90119" lon="0.10297">
        <ele>1492.58</ele>
        <time>2015-03-17T14:24:07Z</time>
      </trkpt>
      <trkpt lat="42.90135" lon="0.10275">
        <ele>1490.66</ele>
        <time>2015-03-17T14:24:25Z</time>
      </trkpt>
      <trkpt lat="42.9014" lon="0.10277">
        <ele>1490.18</ele>
        <time>2015-03-17T14:24:27Z</time>
      </trkpt>
      <trkpt lat="42.9015" lon="0.10265">
        <ele>1488.74</ele>
        <time>2015-03-17T14:24:41Z</time>
      </trkpt>
      <trkpt lat="42.90155" lon="0.10257">
        <ele>1488.26</ele>
        <time>2015-03-17T14:24:49Z</time>
      </trkpt>
      <trkpt lat="42.90155" lon="0.10254">
        <ele>1487.78</ele>
        <time>2015-03-17T14:24:51Z</time>
      </trkpt>
      <trkpt lat="42.90158" lon="0.1025">
        <ele>1487.3</ele>
        <time>2015-03-17T14:24:55Z</time>
      </trkpt>
      <trkpt lat="42.90169" lon="0.10244">
        <ele>1486.34</ele>
        <time>2015-03-17T14:25:05Z</time>
      </trkpt>
      <trkpt lat="42.9017" lon="0.10241">
        <ele>1486.34</ele>
        <time>2015-03-17T14:25:08Z</time>
      </trkpt>
      <trkpt lat="42.90178" lon="0.10234">
        <ele>1485.85</ele>
        <time>2015-03-17T14:25:20Z</time>
      </trkpt>
      <trkpt lat="42.90182" lon="0.10234">
        <ele>1485.37</ele>
        <time>2015-03-17T14:25:32Z</time>
      </trkpt>
      <trkpt lat="42.90188" lon="0.10223">
        <ele>1484.41</ele>
        <time>2015-03-17T14:25:45Z</time>
      </trkpt>
      <trkpt lat="42.90197" lon="0.10209">
        <ele>1483.45</ele>
        <time>2015-03-17T14:25:59Z</time>
      </trkpt>
      <trkpt lat="42.90208" lon="0.10195">
        <ele>1481.53</ele>
        <time>2015-03-17T14:26:15Z</time>
      </trkpt>
      <trkpt lat="42.90217" lon="0.10184">
        <ele>1475.76</ele>
        <time>2015-03-17T14:26:29Z</time>
      </trkpt>
      <trkpt lat="42.90218" lon="0.10183">
        <ele>1481.05</ele>
        <time>2015-03-17T14:26:30Z</time>
      </trkpt>
      <trkpt lat="42.90224" lon="0.10174">
        <ele>1480.09</ele>
        <time>2015-03-17T14:26:45Z</time>
      </trkpt>
      <trkpt lat="42.90227" lon="0.10162">
        <ele>1479.13</ele>
        <time>2015-03-17T14:27:01Z</time>
      </trkpt>
      <trkpt lat="42.90229" lon="0.10155">
        <ele>1479.13</ele>
        <time>2015-03-17T14:27:16Z</time>
      </trkpt>
      <trkpt lat="42.90236" lon="0.10147">
        <ele>1477.68</ele>
        <time>2015-03-17T14:27:38Z</time>
      </trkpt>
      <trkpt lat="42.90243" lon="0.10143">
        <ele>1477.2</ele>
        <time>2015-03-17T14:27:50Z</time>
      </trkpt>
      <trkpt lat="42.90247" lon="0.10138">
        <ele>1476.72</ele>
        <time>2015-03-17T14:27:54Z</time>
      </trkpt>
      <trkpt lat="42.90259" lon="0.10135">
        <ele>1473.84</ele>
        <time>2015-03-17T14:28:06Z</time>
      </trkpt>
      <trkpt lat="42.90263" lon="0.10134">
        <ele>1470.95</ele>
        <time>2015-03-17T14:28:16Z</time>
      </trkpt>
      <trkpt lat="42.90269" lon="0.10129">
        <ele>1467.59</ele>
        <time>2015-03-17T14:28:26Z</time>
      </trkpt>
      <trkpt lat="42.90276" lon="0.10121">
        <ele>1465.19</ele>
        <time>2015-03-17T14:28:41Z</time>
      </trkpt>
      <trkpt lat="42.90288" lon="0.10111">
        <ele>1463.74</ele>
        <time>2015-03-17T14:28:56Z</time>
      </trkpt>
      <trkpt lat="42.90293" lon="0.10105">
        <ele>1462.78</ele>
        <time>2015-03-17T14:29:02Z</time>
      </trkpt>
      <trkpt lat="42.90308" lon="0.10102">
        <ele>1461.34</ele>
        <time>2015-03-17T14:29:14Z</time>
      </trkpt>
      <trkpt lat="42.90309" lon="0.10101">
        <ele>1461.34</ele>
        <time>2015-03-17T14:29:16Z</time>
      </trkpt>
      <trkpt lat="42.90313" lon="0.10094">
        <ele>1460.86</ele>
        <time>2015-03-17T14:29:23Z</time>
      </trkpt>
      <trkpt lat="42.90322" lon="0.10095">
        <ele>1459.9</ele>
        <time>2015-03-17T14:29:32Z</time>
      </trkpt>
      <trkpt lat="42.90324" lon="0.10097">
        <ele>1459.9</ele>
        <time>2015-03-17T14:29:46Z</time>
      </trkpt>
      <trkpt lat="42.90325" lon="0.10093">
        <ele>1459.42</ele>
        <time>2015-03-17T14:29:59Z</time>
      </trkpt>
      <trkpt lat="42.90325" lon="0.10091">
        <ele>1459.42</ele>
        <time>2015-03-17T14:30:01Z</time>
      </trkpt>
      <trkpt lat="42.90327" lon="0.10087">
        <ele>1459.42</ele>
        <time>2015-03-17T14:30:04Z</time>
      </trkpt>
      <trkpt lat="42.90331" lon="0.10082">
        <ele>1458.94</ele>
        <time>2015-03-17T14:30:15Z</time>
      </trkpt>
      <trkpt lat="42.9034" lon="0.10064">
        <ele>1457.98</ele>
        <time>2015-03-17T14:30:30Z</time>
      </trkpt>
      <trkpt lat="42.90354" lon="0.10052">
        <ele>1457.02</ele>
        <time>2015-03-17T14:30:43Z</time>
      </trkpt>
      <trkpt lat="42.90367" lon="0.10036">
        <ele>1456.05</ele>
        <time>2015-03-17T14:30:59Z</time>
      </trkpt>
      <trkpt lat="42.90366" lon="0.10033">
        <ele>1456.05</ele>
        <time>2015-03-17T14:31:13Z</time>
      </trkpt>
      <trkpt lat="42.90367" lon="0.10046">
        <ele>1455.57</ele>
        <time>2015-03-17T14:32:33Z</time>
      </trkpt>
      <trkpt lat="42.90375" lon="0.10049">
        <ele>1455.57</ele>
        <time>2015-03-17T14:33:47Z</time>
      </trkpt>
      <trkpt lat="42.90377" lon="0.10048">
        <ele>1455.57</ele>
        <time>2015-03-17T14:34:04Z</time>
      </trkpt>
    </trkseg>
  </trk>
</gpx>